<?xml version="1.0" encoding="UTF-8" standalone="no" ?>
<gpx xmlns="http://www.topografix.com/GPX/1/1" xmlns:xsi="http://www.w3.org/2001/XMLSchema-instance" xsi:schemaLocation="http://www.topografix.com/GPX/1/1 http://www.topografix.com/GPX/1/1/gpx.xsd" version="1.1" creator="VisuGPX - https://www.visugpx.com">
  <metadata>
    <name>Moitié boucle bleue Lobbes</name>
    <desc><![CDATA[http://www.circuitdelaportelette.be/VTT/]]></desc>
  </metadata>
  <trk>
    <name><![CDATA[26/02/2012 9:06]]></name>
    <desc><![CDATA[]]></desc>
    <trkseg>
      <trkpt lat="50.3512" lon="4.26846">
        <ele>325.9</ele>
        <time>2012-02-26T08:06:30Z</time>
      </trkpt>
      <trkpt lat="50.3512" lon="4.26839">
        <ele>315.9</ele>
        <time>2012-02-26T08:06:38Z</time>
      </trkpt>
      <trkpt lat="50.35114" lon="4.26826">
        <ele>292.5</ele>
        <time>2012-02-26T08:06:44Z</time>
      </trkpt>
      <trkpt lat="50.35111" lon="4.2682">
        <ele>280.2</ele>
        <time>2012-02-26T08:06:46Z</time>
      </trkpt>
      <trkpt lat="50.35132" lon="4.26791">
        <ele>266.1</ele>
        <time>2012-02-26T08:06:47Z</time>
      </trkpt>
      <trkpt lat="50.35141" lon="4.26768">
        <ele>240.1</ele>
        <time>2012-02-26T08:06:48Z</time>
      </trkpt>
      <trkpt lat="50.35148" lon="4.2676">
        <ele>239</ele>
        <time>2012-02-26T08:06:49Z</time>
      </trkpt>
      <trkpt lat="50.35151" lon="4.26752">
        <ele>233.3</ele>
        <time>2012-02-26T08:06:54Z</time>
      </trkpt>
      <trkpt lat="50.35159" lon="4.26749">
        <ele>231.4</ele>
        <time>2012-02-26T08:07:05Z</time>
      </trkpt>
      <trkpt lat="50.35183" lon="4.26732">
        <ele>225.2</ele>
        <time>2012-02-26T08:07:06Z</time>
      </trkpt>
      <trkpt lat="50.35193" lon="4.26728">
        <ele>223</ele>
        <time>2012-02-26T08:07:07Z</time>
      </trkpt>
      <trkpt lat="50.352" lon="4.26735">
        <ele>221.6</ele>
        <time>2012-02-26T08:07:09Z</time>
      </trkpt>
      <trkpt lat="50.35206" lon="4.26741">
        <ele>222.3</ele>
        <time>2012-02-26T08:07:11Z</time>
      </trkpt>
      <trkpt lat="50.35212" lon="4.26749">
        <ele>223.2</ele>
        <time>2012-02-26T08:07:13Z</time>
      </trkpt>
      <trkpt lat="50.35218" lon="4.26758">
        <ele>223.8</ele>
        <time>2012-02-26T08:07:15Z</time>
      </trkpt>
      <trkpt lat="50.35225" lon="4.26767">
        <ele>223.9</ele>
        <time>2012-02-26T08:07:17Z</time>
      </trkpt>
      <trkpt lat="50.3523" lon="4.26776">
        <ele>224</ele>
        <time>2012-02-26T08:07:19Z</time>
      </trkpt>
      <trkpt lat="50.35236" lon="4.26784">
        <ele>225.2</ele>
        <time>2012-02-26T08:07:21Z</time>
      </trkpt>
      <trkpt lat="50.3524" lon="4.26789">
        <ele>225.2</ele>
        <time>2012-02-26T08:07:22Z</time>
      </trkpt>
      <trkpt lat="50.35243" lon="4.26793">
        <ele>226.5</ele>
        <time>2012-02-26T08:07:23Z</time>
      </trkpt>
      <trkpt lat="50.3525" lon="4.26802">
        <ele>227.9</ele>
        <time>2012-02-26T08:07:25Z</time>
      </trkpt>
      <trkpt lat="50.35256" lon="4.26811">
        <ele>227.9</ele>
        <time>2012-02-26T08:07:27Z</time>
      </trkpt>
      <trkpt lat="50.3526" lon="4.26817">
        <ele>226.2</ele>
        <time>2012-02-26T08:07:28Z</time>
      </trkpt>
      <trkpt lat="50.35264" lon="4.26822">
        <ele>225.9</ele>
        <time>2012-02-26T08:07:29Z</time>
      </trkpt>
      <trkpt lat="50.35268" lon="4.26828">
        <ele>225.5</ele>
        <time>2012-02-26T08:07:30Z</time>
      </trkpt>
      <trkpt lat="50.35274" lon="4.26837">
        <ele>225.8</ele>
        <time>2012-02-26T08:07:32Z</time>
      </trkpt>
      <trkpt lat="50.3528" lon="4.26845">
        <ele>226.8</ele>
        <time>2012-02-26T08:07:34Z</time>
      </trkpt>
      <trkpt lat="50.35286" lon="4.26854">
        <ele>227.2</ele>
        <time>2012-02-26T08:07:36Z</time>
      </trkpt>
      <trkpt lat="50.35291" lon="4.26863">
        <ele>228.4</ele>
        <time>2012-02-26T08:07:38Z</time>
      </trkpt>
      <trkpt lat="50.35296" lon="4.26873">
        <ele>228.5</ele>
        <time>2012-02-26T08:07:40Z</time>
      </trkpt>
      <trkpt lat="50.35302" lon="4.26882">
        <ele>228.6</ele>
        <time>2012-02-26T08:07:42Z</time>
      </trkpt>
      <trkpt lat="50.35308" lon="4.26891">
        <ele>229.1</ele>
        <time>2012-02-26T08:07:44Z</time>
      </trkpt>
      <trkpt lat="50.35313" lon="4.269">
        <ele>229.5</ele>
        <time>2012-02-26T08:07:46Z</time>
      </trkpt>
      <trkpt lat="50.35317" lon="4.26907">
        <ele>229.4</ele>
        <time>2012-02-26T08:07:47Z</time>
      </trkpt>
      <trkpt lat="50.3532" lon="4.26912">
        <ele>229.6</ele>
        <time>2012-02-26T08:07:48Z</time>
      </trkpt>
      <trkpt lat="50.35326" lon="4.26922">
        <ele>228.6</ele>
        <time>2012-02-26T08:07:50Z</time>
      </trkpt>
      <trkpt lat="50.35332" lon="4.26933">
        <ele>227.3</ele>
        <time>2012-02-26T08:07:52Z</time>
      </trkpt>
      <trkpt lat="50.35332" lon="4.26945">
        <ele>225.8</ele>
        <time>2012-02-26T08:07:54Z</time>
      </trkpt>
      <trkpt lat="50.35328" lon="4.26956">
        <ele>225.2</ele>
        <time>2012-02-26T08:07:56Z</time>
      </trkpt>
      <trkpt lat="50.35323" lon="4.26966">
        <ele>225.1</ele>
        <time>2012-02-26T08:07:58Z</time>
      </trkpt>
      <trkpt lat="50.35318" lon="4.26975">
        <ele>224.6</ele>
        <time>2012-02-26T08:08:00Z</time>
      </trkpt>
      <trkpt lat="50.35312" lon="4.26983">
        <ele>223.7</ele>
        <time>2012-02-26T08:08:02Z</time>
      </trkpt>
      <trkpt lat="50.35305" lon="4.26989">
        <ele>223.5</ele>
        <time>2012-02-26T08:08:04Z</time>
      </trkpt>
      <trkpt lat="50.35298" lon="4.26995">
        <ele>223.4</ele>
        <time>2012-02-26T08:08:06Z</time>
      </trkpt>
      <trkpt lat="50.35291" lon="4.27001">
        <ele>222.9</ele>
        <time>2012-02-26T08:08:08Z</time>
      </trkpt>
      <trkpt lat="50.35283" lon="4.27008">
        <ele>222.7</ele>
        <time>2012-02-26T08:08:10Z</time>
      </trkpt>
      <trkpt lat="50.35275" lon="4.27014">
        <ele>222.6</ele>
        <time>2012-02-26T08:08:12Z</time>
      </trkpt>
      <trkpt lat="50.35271" lon="4.27018">
        <ele>222.4</ele>
        <time>2012-02-26T08:08:13Z</time>
      </trkpt>
      <trkpt lat="50.35267" lon="4.27022">
        <ele>222.4</ele>
        <time>2012-02-26T08:08:14Z</time>
      </trkpt>
      <trkpt lat="50.35263" lon="4.27027">
        <ele>222.1</ele>
        <time>2012-02-26T08:08:15Z</time>
      </trkpt>
      <trkpt lat="50.35259" lon="4.27032">
        <ele>222</ele>
        <time>2012-02-26T08:08:16Z</time>
      </trkpt>
      <trkpt lat="50.35256" lon="4.27037">
        <ele>221.9</ele>
        <time>2012-02-26T08:08:17Z</time>
      </trkpt>
      <trkpt lat="50.35252" lon="4.27043">
        <ele>221.9</ele>
        <time>2012-02-26T08:08:18Z</time>
      </trkpt>
      <trkpt lat="50.3525" lon="4.2705">
        <ele>221.8</ele>
        <time>2012-02-26T08:08:19Z</time>
      </trkpt>
      <trkpt lat="50.35247" lon="4.27056">
        <ele>221.9</ele>
        <time>2012-02-26T08:08:20Z</time>
      </trkpt>
      <trkpt lat="50.35244" lon="4.27063">
        <ele>221.8</ele>
        <time>2012-02-26T08:08:21Z</time>
      </trkpt>
      <trkpt lat="50.35241" lon="4.27069">
        <ele>221.8</ele>
        <time>2012-02-26T08:08:22Z</time>
      </trkpt>
      <trkpt lat="50.35238" lon="4.27076">
        <ele>221.9</ele>
        <time>2012-02-26T08:08:23Z</time>
      </trkpt>
      <trkpt lat="50.35235" lon="4.27083">
        <ele>222.2</ele>
        <time>2012-02-26T08:08:24Z</time>
      </trkpt>
      <trkpt lat="50.35233" lon="4.2709">
        <ele>222.3</ele>
        <time>2012-02-26T08:08:25Z</time>
      </trkpt>
      <trkpt lat="50.35231" lon="4.27098">
        <ele>222.4</ele>
        <time>2012-02-26T08:08:26Z</time>
      </trkpt>
      <trkpt lat="50.35228" lon="4.27105">
        <ele>222.6</ele>
        <time>2012-02-26T08:08:27Z</time>
      </trkpt>
      <trkpt lat="50.35226" lon="4.27113">
        <ele>222.7</ele>
        <time>2012-02-26T08:08:28Z</time>
      </trkpt>
      <trkpt lat="50.35224" lon="4.2712">
        <ele>222.8</ele>
        <time>2012-02-26T08:08:29Z</time>
      </trkpt>
      <trkpt lat="50.35222" lon="4.27128">
        <ele>222.9</ele>
        <time>2012-02-26T08:08:30Z</time>
      </trkpt>
      <trkpt lat="50.3522" lon="4.27136">
        <ele>222.9</ele>
        <time>2012-02-26T08:08:31Z</time>
      </trkpt>
      <trkpt lat="50.35218" lon="4.27143">
        <ele>222.9</ele>
        <time>2012-02-26T08:08:32Z</time>
      </trkpt>
      <trkpt lat="50.35216" lon="4.2715">
        <ele>222.9</ele>
        <time>2012-02-26T08:08:33Z</time>
      </trkpt>
      <trkpt lat="50.35213" lon="4.27161">
        <ele>223.4</ele>
        <time>2012-02-26T08:08:35Z</time>
      </trkpt>
      <trkpt lat="50.35211" lon="4.27169">
        <ele>223.5</ele>
        <time>2012-02-26T08:08:36Z</time>
      </trkpt>
      <trkpt lat="50.3521" lon="4.27176">
        <ele>223.3</ele>
        <time>2012-02-26T08:08:37Z</time>
      </trkpt>
      <trkpt lat="50.35208" lon="4.27184">
        <ele>223.6</ele>
        <time>2012-02-26T08:08:38Z</time>
      </trkpt>
      <trkpt lat="50.35206" lon="4.27191">
        <ele>223.5</ele>
        <time>2012-02-26T08:08:39Z</time>
      </trkpt>
      <trkpt lat="50.35204" lon="4.27199">
        <ele>223.9</ele>
        <time>2012-02-26T08:08:40Z</time>
      </trkpt>
      <trkpt lat="50.35202" lon="4.27207">
        <ele>223.6</ele>
        <time>2012-02-26T08:08:41Z</time>
      </trkpt>
      <trkpt lat="50.35201" lon="4.27215">
        <ele>223.8</ele>
        <time>2012-02-26T08:08:42Z</time>
      </trkpt>
      <trkpt lat="50.35199" lon="4.27223">
        <ele>224.4</ele>
        <time>2012-02-26T08:08:43Z</time>
      </trkpt>
      <trkpt lat="50.35198" lon="4.27231">
        <ele>224.8</ele>
        <time>2012-02-26T08:08:44Z</time>
      </trkpt>
      <trkpt lat="50.35196" lon="4.27238">
        <ele>224.5</ele>
        <time>2012-02-26T08:08:45Z</time>
      </trkpt>
      <trkpt lat="50.35195" lon="4.27245">
        <ele>224.1</ele>
        <time>2012-02-26T08:08:46Z</time>
      </trkpt>
      <trkpt lat="50.35193" lon="4.27252">
        <ele>224.8</ele>
        <time>2012-02-26T08:08:47Z</time>
      </trkpt>
      <trkpt lat="50.35192" lon="4.2726">
        <ele>224.7</ele>
        <time>2012-02-26T08:08:48Z</time>
      </trkpt>
      <trkpt lat="50.35191" lon="4.27268">
        <ele>224.5</ele>
        <time>2012-02-26T08:08:49Z</time>
      </trkpt>
      <trkpt lat="50.3519" lon="4.27275">
        <ele>224.5</ele>
        <time>2012-02-26T08:08:50Z</time>
      </trkpt>
      <trkpt lat="50.35189" lon="4.27283">
        <ele>224.4</ele>
        <time>2012-02-26T08:08:51Z</time>
      </trkpt>
      <trkpt lat="50.35189" lon="4.27291">
        <ele>224.5</ele>
        <time>2012-02-26T08:08:52Z</time>
      </trkpt>
      <trkpt lat="50.35189" lon="4.27299">
        <ele>223.9</ele>
        <time>2012-02-26T08:08:53Z</time>
      </trkpt>
      <trkpt lat="50.35189" lon="4.27307">
        <ele>223.9</ele>
        <time>2012-02-26T08:08:54Z</time>
      </trkpt>
      <trkpt lat="50.35189" lon="4.27315">
        <ele>223.9</ele>
        <time>2012-02-26T08:08:55Z</time>
      </trkpt>
      <trkpt lat="50.3519" lon="4.27322">
        <ele>223.3</ele>
        <time>2012-02-26T08:08:56Z</time>
      </trkpt>
      <trkpt lat="50.3519" lon="4.2733">
        <ele>223.1</ele>
        <time>2012-02-26T08:08:57Z</time>
      </trkpt>
      <trkpt lat="50.35192" lon="4.27338">
        <ele>223.3</ele>
        <time>2012-02-26T08:08:58Z</time>
      </trkpt>
      <trkpt lat="50.35192" lon="4.27346">
        <ele>223.3</ele>
        <time>2012-02-26T08:08:59Z</time>
      </trkpt>
      <trkpt lat="50.35193" lon="4.27355">
        <ele>223.4</ele>
        <time>2012-02-26T08:09:00Z</time>
      </trkpt>
      <trkpt lat="50.35193" lon="4.27369">
        <ele>224.3</ele>
        <time>2012-02-26T08:09:02Z</time>
      </trkpt>
      <trkpt lat="50.35193" lon="4.27377">
        <ele>225</ele>
        <time>2012-02-26T08:09:03Z</time>
      </trkpt>
      <trkpt lat="50.35193" lon="4.27385">
        <ele>224.8</ele>
        <time>2012-02-26T08:09:04Z</time>
      </trkpt>
      <trkpt lat="50.35192" lon="4.27392">
        <ele>224.9</ele>
        <time>2012-02-26T08:09:05Z</time>
      </trkpt>
      <trkpt lat="50.35192" lon="4.27402">
        <ele>224.4</ele>
        <time>2012-02-26T08:09:06Z</time>
      </trkpt>
      <trkpt lat="50.35191" lon="4.2741">
        <ele>224.1</ele>
        <time>2012-02-26T08:09:07Z</time>
      </trkpt>
      <trkpt lat="50.35188" lon="4.27424">
        <ele>224.2</ele>
        <time>2012-02-26T08:09:09Z</time>
      </trkpt>
      <trkpt lat="50.35187" lon="4.27432">
        <ele>223.7</ele>
        <time>2012-02-26T08:09:10Z</time>
      </trkpt>
      <trkpt lat="50.35185" lon="4.27441">
        <ele>223.4</ele>
        <time>2012-02-26T08:09:11Z</time>
      </trkpt>
      <trkpt lat="50.35186" lon="4.27449">
        <ele>223.3</ele>
        <time>2012-02-26T08:09:12Z</time>
      </trkpt>
      <trkpt lat="50.35188" lon="4.27457">
        <ele>223.4</ele>
        <time>2012-02-26T08:09:13Z</time>
      </trkpt>
      <trkpt lat="50.35191" lon="4.27462">
        <ele>223.7</ele>
        <time>2012-02-26T08:09:14Z</time>
      </trkpt>
      <trkpt lat="50.35194" lon="4.27467">
        <ele>224.1</ele>
        <time>2012-02-26T08:09:15Z</time>
      </trkpt>
      <trkpt lat="50.35199" lon="4.27474">
        <ele>223.7</ele>
        <time>2012-02-26T08:09:17Z</time>
      </trkpt>
      <trkpt lat="50.35205" lon="4.27482">
        <ele>223.2</ele>
        <time>2012-02-26T08:09:19Z</time>
      </trkpt>
      <trkpt lat="50.35212" lon="4.27488">
        <ele>223.1</ele>
        <time>2012-02-26T08:09:21Z</time>
      </trkpt>
      <trkpt lat="50.35219" lon="4.27492">
        <ele>223.4</ele>
        <time>2012-02-26T08:09:23Z</time>
      </trkpt>
      <trkpt lat="50.35224" lon="4.27495">
        <ele>223.4</ele>
        <time>2012-02-26T08:09:24Z</time>
      </trkpt>
      <trkpt lat="50.35228" lon="4.27499">
        <ele>223.8</ele>
        <time>2012-02-26T08:09:26Z</time>
      </trkpt>
      <trkpt lat="50.35234" lon="4.27503">
        <ele>225.2</ele>
        <time>2012-02-26T08:09:28Z</time>
      </trkpt>
      <trkpt lat="50.3524" lon="4.2751">
        <ele>225.6</ele>
        <time>2012-02-26T08:09:30Z</time>
      </trkpt>
      <trkpt lat="50.35245" lon="4.27513">
        <ele>225.7</ele>
        <time>2012-02-26T08:09:32Z</time>
      </trkpt>
      <trkpt lat="50.35252" lon="4.27518">
        <ele>226</ele>
        <time>2012-02-26T08:09:34Z</time>
      </trkpt>
      <trkpt lat="50.35258" lon="4.27524">
        <ele>226.4</ele>
        <time>2012-02-26T08:09:36Z</time>
      </trkpt>
      <trkpt lat="50.35262" lon="4.27527">
        <ele>227.1</ele>
        <time>2012-02-26T08:09:37Z</time>
      </trkpt>
      <trkpt lat="50.35268" lon="4.27532">
        <ele>227.8</ele>
        <time>2012-02-26T08:09:39Z</time>
      </trkpt>
      <trkpt lat="50.35267" lon="4.27542">
        <ele>227.8</ele>
        <time>2012-02-26T08:09:42Z</time>
      </trkpt>
      <trkpt lat="50.35264" lon="4.27549">
        <ele>228.5</ele>
        <time>2012-02-26T08:09:45Z</time>
      </trkpt>
      <trkpt lat="50.3526" lon="4.27556">
        <ele>228.1</ele>
        <time>2012-02-26T08:09:48Z</time>
      </trkpt>
      <trkpt lat="50.35257" lon="4.27563">
        <ele>228.7</ele>
        <time>2012-02-26T08:09:51Z</time>
      </trkpt>
      <trkpt lat="50.35254" lon="4.27573">
        <ele>228.5</ele>
        <time>2012-02-26T08:09:54Z</time>
      </trkpt>
      <trkpt lat="50.35252" lon="4.27581">
        <ele>228.8</ele>
        <time>2012-02-26T08:09:56Z</time>
      </trkpt>
      <trkpt lat="50.3525" lon="4.27587">
        <ele>229.2</ele>
        <time>2012-02-26T08:09:58Z</time>
      </trkpt>
      <trkpt lat="50.35247" lon="4.27593">
        <ele>230.6</ele>
        <time>2012-02-26T08:10:00Z</time>
      </trkpt>
      <trkpt lat="50.35244" lon="4.27601">
        <ele>230.8</ele>
        <time>2012-02-26T08:10:02Z</time>
      </trkpt>
      <trkpt lat="50.35242" lon="4.27607">
        <ele>231.5</ele>
        <time>2012-02-26T08:10:04Z</time>
      </trkpt>
      <trkpt lat="50.3524" lon="4.27614">
        <ele>231.8</ele>
        <time>2012-02-26T08:10:06Z</time>
      </trkpt>
      <trkpt lat="50.35238" lon="4.27622">
        <ele>231.8</ele>
        <time>2012-02-26T08:10:08Z</time>
      </trkpt>
      <trkpt lat="50.35237" lon="4.27628">
        <ele>231.5</ele>
        <time>2012-02-26T08:10:10Z</time>
      </trkpt>
      <trkpt lat="50.35234" lon="4.27636">
        <ele>231.3</ele>
        <time>2012-02-26T08:10:12Z</time>
      </trkpt>
      <trkpt lat="50.35231" lon="4.27643">
        <ele>231.7</ele>
        <time>2012-02-26T08:10:14Z</time>
      </trkpt>
      <trkpt lat="50.35228" lon="4.2765">
        <ele>231.7</ele>
        <time>2012-02-26T08:10:16Z</time>
      </trkpt>
      <trkpt lat="50.35225" lon="4.27657">
        <ele>231.3</ele>
        <time>2012-02-26T08:10:18Z</time>
      </trkpt>
      <trkpt lat="50.35222" lon="4.27664">
        <ele>231.1</ele>
        <time>2012-02-26T08:10:20Z</time>
      </trkpt>
      <trkpt lat="50.35219" lon="4.27672">
        <ele>231.1</ele>
        <time>2012-02-26T08:10:22Z</time>
      </trkpt>
      <trkpt lat="50.35216" lon="4.27679">
        <ele>230.9</ele>
        <time>2012-02-26T08:10:24Z</time>
      </trkpt>
      <trkpt lat="50.35212" lon="4.27686">
        <ele>230.6</ele>
        <time>2012-02-26T08:10:26Z</time>
      </trkpt>
      <trkpt lat="50.3521" lon="4.27693">
        <ele>230.8</ele>
        <time>2012-02-26T08:10:28Z</time>
      </trkpt>
      <trkpt lat="50.35206" lon="4.277">
        <ele>230.8</ele>
        <time>2012-02-26T08:10:30Z</time>
      </trkpt>
      <trkpt lat="50.35203" lon="4.27708">
        <ele>231.2</ele>
        <time>2012-02-26T08:10:32Z</time>
      </trkpt>
      <trkpt lat="50.352" lon="4.27715">
        <ele>231.9</ele>
        <time>2012-02-26T08:10:34Z</time>
      </trkpt>
      <trkpt lat="50.35198" lon="4.27722">
        <ele>232.4</ele>
        <time>2012-02-26T08:10:36Z</time>
      </trkpt>
      <trkpt lat="50.35196" lon="4.2773">
        <ele>233.1</ele>
        <time>2012-02-26T08:10:38Z</time>
      </trkpt>
      <trkpt lat="50.35191" lon="4.27736">
        <ele>232.4</ele>
        <time>2012-02-26T08:10:40Z</time>
      </trkpt>
      <trkpt lat="50.35188" lon="4.27743">
        <ele>232</ele>
        <time>2012-02-26T08:10:42Z</time>
      </trkpt>
      <trkpt lat="50.35184" lon="4.27748">
        <ele>231.5</ele>
        <time>2012-02-26T08:10:44Z</time>
      </trkpt>
      <trkpt lat="50.3518" lon="4.27756">
        <ele>231.9</ele>
        <time>2012-02-26T08:10:47Z</time>
      </trkpt>
      <trkpt lat="50.35176" lon="4.27762">
        <ele>231.6</ele>
        <time>2012-02-26T08:10:50Z</time>
      </trkpt>
      <trkpt lat="50.35173" lon="4.2777">
        <ele>231.2</ele>
        <time>2012-02-26T08:10:54Z</time>
      </trkpt>
      <trkpt lat="50.3517" lon="4.27777">
        <ele>230.8</ele>
        <time>2012-02-26T08:10:57Z</time>
      </trkpt>
      <trkpt lat="50.35166" lon="4.27783">
        <ele>231.4</ele>
        <time>2012-02-26T08:11:02Z</time>
      </trkpt>
      <trkpt lat="50.35162" lon="4.27788">
        <ele>232.2</ele>
        <time>2012-02-26T08:11:06Z</time>
      </trkpt>
      <trkpt lat="50.35159" lon="4.27794">
        <ele>232.7</ele>
        <time>2012-02-26T08:11:10Z</time>
      </trkpt>
      <trkpt lat="50.35156" lon="4.27801">
        <ele>233.3</ele>
        <time>2012-02-26T08:11:14Z</time>
      </trkpt>
      <trkpt lat="50.35154" lon="4.27807">
        <ele>233</ele>
        <time>2012-02-26T08:11:18Z</time>
      </trkpt>
      <trkpt lat="50.3515" lon="4.27814">
        <ele>234.7</ele>
        <time>2012-02-26T08:11:25Z</time>
      </trkpt>
      <trkpt lat="50.35148" lon="4.27821">
        <ele>234.3</ele>
        <time>2012-02-26T08:11:27Z</time>
      </trkpt>
      <trkpt lat="50.35145" lon="4.27827">
        <ele>234.1</ele>
        <time>2012-02-26T08:11:29Z</time>
      </trkpt>
      <trkpt lat="50.35142" lon="4.27835">
        <ele>233.9</ele>
        <time>2012-02-26T08:11:31Z</time>
      </trkpt>
      <trkpt lat="50.35139" lon="4.27842">
        <ele>236</ele>
        <time>2012-02-26T08:11:34Z</time>
      </trkpt>
      <trkpt lat="50.35134" lon="4.2785">
        <ele>235.5</ele>
        <time>2012-02-26T08:11:37Z</time>
      </trkpt>
      <trkpt lat="50.35131" lon="4.27856">
        <ele>235.1</ele>
        <time>2012-02-26T08:11:39Z</time>
      </trkpt>
      <trkpt lat="50.35129" lon="4.27865">
        <ele>234.7</ele>
        <time>2012-02-26T08:11:42Z</time>
      </trkpt>
      <trkpt lat="50.35126" lon="4.27871">
        <ele>234.9</ele>
        <time>2012-02-26T08:11:45Z</time>
      </trkpt>
      <trkpt lat="50.35121" lon="4.27881">
        <ele>234.1</ele>
        <time>2012-02-26T08:11:48Z</time>
      </trkpt>
      <trkpt lat="50.35117" lon="4.2789">
        <ele>228.7</ele>
        <time>2012-02-26T08:11:49Z</time>
      </trkpt>
      <trkpt lat="50.35114" lon="4.27896">
        <ele>227.1</ele>
        <time>2012-02-26T08:11:51Z</time>
      </trkpt>
      <trkpt lat="50.35108" lon="4.27902">
        <ele>225.5</ele>
        <time>2012-02-26T08:11:53Z</time>
      </trkpt>
      <trkpt lat="50.35104" lon="4.27908">
        <ele>223.8</ele>
        <time>2012-02-26T08:11:54Z</time>
      </trkpt>
      <trkpt lat="50.35103" lon="4.27916">
        <ele>222.7</ele>
        <time>2012-02-26T08:11:56Z</time>
      </trkpt>
      <trkpt lat="50.35102" lon="4.27927">
        <ele>223.7</ele>
        <time>2012-02-26T08:11:58Z</time>
      </trkpt>
      <trkpt lat="50.35104" lon="4.27941">
        <ele>223.7</ele>
        <time>2012-02-26T08:12:00Z</time>
      </trkpt>
      <trkpt lat="50.35105" lon="4.2795">
        <ele>223.2</ele>
        <time>2012-02-26T08:12:01Z</time>
      </trkpt>
      <trkpt lat="50.35106" lon="4.27958">
        <ele>222.6</ele>
        <time>2012-02-26T08:12:03Z</time>
      </trkpt>
      <trkpt lat="50.35106" lon="4.2797">
        <ele>221.8</ele>
        <time>2012-02-26T08:12:05Z</time>
      </trkpt>
      <trkpt lat="50.35107" lon="4.27978">
        <ele>222</ele>
        <time>2012-02-26T08:12:06Z</time>
      </trkpt>
      <trkpt lat="50.35107" lon="4.27987">
        <ele>221.6</ele>
        <time>2012-02-26T08:12:07Z</time>
      </trkpt>
      <trkpt lat="50.35107" lon="4.27996">
        <ele>221.5</ele>
        <time>2012-02-26T08:12:08Z</time>
      </trkpt>
      <trkpt lat="50.35108" lon="4.28003">
        <ele>221.5</ele>
        <time>2012-02-26T08:12:09Z</time>
      </trkpt>
      <trkpt lat="50.35109" lon="4.28016">
        <ele>222.2</ele>
        <time>2012-02-26T08:12:11Z</time>
      </trkpt>
      <trkpt lat="50.35111" lon="4.28023">
        <ele>222</ele>
        <time>2012-02-26T08:12:12Z</time>
      </trkpt>
      <trkpt lat="50.35115" lon="4.28044">
        <ele>221.6</ele>
        <time>2012-02-26T08:12:14Z</time>
      </trkpt>
      <trkpt lat="50.35117" lon="4.28053">
        <ele>220</ele>
        <time>2012-02-26T08:12:15Z</time>
      </trkpt>
      <trkpt lat="50.35119" lon="4.28065">
        <ele>219.4</ele>
        <time>2012-02-26T08:12:16Z</time>
      </trkpt>
      <trkpt lat="50.3512" lon="4.28074">
        <ele>219.5</ele>
        <time>2012-02-26T08:12:17Z</time>
      </trkpt>
      <trkpt lat="50.35122" lon="4.28083">
        <ele>218.8</ele>
        <time>2012-02-26T08:12:18Z</time>
      </trkpt>
      <trkpt lat="50.35123" lon="4.28096">
        <ele>218.3</ele>
        <time>2012-02-26T08:12:20Z</time>
      </trkpt>
      <trkpt lat="50.35124" lon="4.28104">
        <ele>217.7</ele>
        <time>2012-02-26T08:12:22Z</time>
      </trkpt>
      <trkpt lat="50.35126" lon="4.28116">
        <ele>217.6</ele>
        <time>2012-02-26T08:12:24Z</time>
      </trkpt>
      <trkpt lat="50.35127" lon="4.28129">
        <ele>218.1</ele>
        <time>2012-02-26T08:12:26Z</time>
      </trkpt>
      <trkpt lat="50.3513" lon="4.28142">
        <ele>218.8</ele>
        <time>2012-02-26T08:12:28Z</time>
      </trkpt>
      <trkpt lat="50.35136" lon="4.28161">
        <ele>218.8</ele>
        <time>2012-02-26T08:12:31Z</time>
      </trkpt>
      <trkpt lat="50.3514" lon="4.28167">
        <ele>218.1</ele>
        <time>2012-02-26T08:12:32Z</time>
      </trkpt>
      <trkpt lat="50.35144" lon="4.28174">
        <ele>217.8</ele>
        <time>2012-02-26T08:12:34Z</time>
      </trkpt>
      <trkpt lat="50.35147" lon="4.2818">
        <ele>217.7</ele>
        <time>2012-02-26T08:12:35Z</time>
      </trkpt>
      <trkpt lat="50.35152" lon="4.28189">
        <ele>217.7</ele>
        <time>2012-02-26T08:12:37Z</time>
      </trkpt>
      <trkpt lat="50.35158" lon="4.28196">
        <ele>218.4</ele>
        <time>2012-02-26T08:12:39Z</time>
      </trkpt>
      <trkpt lat="50.35162" lon="4.28201">
        <ele>218.7</ele>
        <time>2012-02-26T08:12:40Z</time>
      </trkpt>
      <trkpt lat="50.35167" lon="4.28205">
        <ele>218.6</ele>
        <time>2012-02-26T08:12:41Z</time>
      </trkpt>
      <trkpt lat="50.35172" lon="4.2821">
        <ele>218.4</ele>
        <time>2012-02-26T08:12:43Z</time>
      </trkpt>
      <trkpt lat="50.35177" lon="4.28215">
        <ele>218.7</ele>
        <time>2012-02-26T08:12:45Z</time>
      </trkpt>
      <trkpt lat="50.35183" lon="4.28219">
        <ele>219.1</ele>
        <time>2012-02-26T08:12:47Z</time>
      </trkpt>
      <trkpt lat="50.35188" lon="4.28226">
        <ele>219.2</ele>
        <time>2012-02-26T08:12:49Z</time>
      </trkpt>
      <trkpt lat="50.35193" lon="4.2823">
        <ele>220.1</ele>
        <time>2012-02-26T08:12:51Z</time>
      </trkpt>
      <trkpt lat="50.35198" lon="4.28235">
        <ele>219.9</ele>
        <time>2012-02-26T08:12:53Z</time>
      </trkpt>
      <trkpt lat="50.35202" lon="4.28239">
        <ele>220.3</ele>
        <time>2012-02-26T08:12:55Z</time>
      </trkpt>
      <trkpt lat="50.35207" lon="4.28242">
        <ele>219.8</ele>
        <time>2012-02-26T08:12:58Z</time>
      </trkpt>
      <trkpt lat="50.35213" lon="4.28247">
        <ele>220</ele>
        <time>2012-02-26T08:13:01Z</time>
      </trkpt>
      <trkpt lat="50.35218" lon="4.28251">
        <ele>221</ele>
        <time>2012-02-26T08:13:04Z</time>
      </trkpt>
      <trkpt lat="50.35222" lon="4.28255">
        <ele>222</ele>
        <time>2012-02-26T08:13:08Z</time>
      </trkpt>
      <trkpt lat="50.35226" lon="4.28258">
        <ele>222.4</ele>
        <time>2012-02-26T08:13:11Z</time>
      </trkpt>
      <trkpt lat="50.35231" lon="4.28261">
        <ele>222.8</ele>
        <time>2012-02-26T08:13:14Z</time>
      </trkpt>
      <trkpt lat="50.35236" lon="4.28264">
        <ele>223.1</ele>
        <time>2012-02-26T08:13:17Z</time>
      </trkpt>
      <trkpt lat="50.35241" lon="4.28266">
        <ele>223.9</ele>
        <time>2012-02-26T08:13:20Z</time>
      </trkpt>
      <trkpt lat="50.35247" lon="4.28264">
        <ele>225.1</ele>
        <time>2012-02-26T08:13:35Z</time>
      </trkpt>
      <trkpt lat="50.35253" lon="4.28263">
        <ele>225.6</ele>
        <time>2012-02-26T08:13:38Z</time>
      </trkpt>
      <trkpt lat="50.35259" lon="4.28263">
        <ele>225.7</ele>
        <time>2012-02-26T08:13:41Z</time>
      </trkpt>
      <trkpt lat="50.35265" lon="4.28261">
        <ele>226.6</ele>
        <time>2012-02-26T08:13:44Z</time>
      </trkpt>
      <trkpt lat="50.3527" lon="4.28258">
        <ele>226.6</ele>
        <time>2012-02-26T08:13:47Z</time>
      </trkpt>
      <trkpt lat="50.35275" lon="4.28257">
        <ele>227.2</ele>
        <time>2012-02-26T08:13:50Z</time>
      </trkpt>
      <trkpt lat="50.3528" lon="4.28255">
        <ele>227.5</ele>
        <time>2012-02-26T08:13:53Z</time>
      </trkpt>
      <trkpt lat="50.35285" lon="4.28253">
        <ele>227.9</ele>
        <time>2012-02-26T08:13:56Z</time>
      </trkpt>
      <trkpt lat="50.3529" lon="4.28252">
        <ele>228.2</ele>
        <time>2012-02-26T08:13:59Z</time>
      </trkpt>
      <trkpt lat="50.35295" lon="4.28249">
        <ele>229</ele>
        <time>2012-02-26T08:14:02Z</time>
      </trkpt>
      <trkpt lat="50.353" lon="4.28247">
        <ele>229.4</ele>
        <time>2012-02-26T08:14:05Z</time>
      </trkpt>
      <trkpt lat="50.35305" lon="4.2825">
        <ele>227.9</ele>
        <time>2012-02-26T08:14:07Z</time>
      </trkpt>
      <trkpt lat="50.35302" lon="4.28256">
        <ele>226.5</ele>
        <time>2012-02-26T08:14:12Z</time>
      </trkpt>
      <trkpt lat="50.35297" lon="4.2826">
        <ele>225.8</ele>
        <time>2012-02-26T08:14:15Z</time>
      </trkpt>
      <trkpt lat="50.35293" lon="4.28263">
        <ele>225.3</ele>
        <time>2012-02-26T08:14:17Z</time>
      </trkpt>
      <trkpt lat="50.35288" lon="4.28266">
        <ele>224.7</ele>
        <time>2012-02-26T08:14:19Z</time>
      </trkpt>
      <trkpt lat="50.35283" lon="4.28268">
        <ele>224.4</ele>
        <time>2012-02-26T08:14:21Z</time>
      </trkpt>
      <trkpt lat="50.35278" lon="4.2827">
        <ele>224.3</ele>
        <time>2012-02-26T08:14:23Z</time>
      </trkpt>
      <trkpt lat="50.35272" lon="4.28274">
        <ele>224.4</ele>
        <time>2012-02-26T08:14:25Z</time>
      </trkpt>
      <trkpt lat="50.35264" lon="4.28278">
        <ele>224.1</ele>
        <time>2012-02-26T08:14:27Z</time>
      </trkpt>
      <trkpt lat="50.35256" lon="4.28282">
        <ele>223.7</ele>
        <time>2012-02-26T08:14:29Z</time>
      </trkpt>
      <trkpt lat="50.35252" lon="4.28284">
        <ele>224</ele>
        <time>2012-02-26T08:14:30Z</time>
      </trkpt>
      <trkpt lat="50.35244" lon="4.28288">
        <ele>224.7</ele>
        <time>2012-02-26T08:14:32Z</time>
      </trkpt>
      <trkpt lat="50.35236" lon="4.28291">
        <ele>224.3</ele>
        <time>2012-02-26T08:14:34Z</time>
      </trkpt>
      <trkpt lat="50.3523" lon="4.28293">
        <ele>224.5</ele>
        <time>2012-02-26T08:14:36Z</time>
      </trkpt>
      <trkpt lat="50.35225" lon="4.28295">
        <ele>223.4</ele>
        <time>2012-02-26T08:14:39Z</time>
      </trkpt>
      <trkpt lat="50.35222" lon="4.28301">
        <ele>223.9</ele>
        <time>2012-02-26T08:14:44Z</time>
      </trkpt>
      <trkpt lat="50.35223" lon="4.28313">
        <ele>222.8</ele>
        <time>2012-02-26T08:14:47Z</time>
      </trkpt>
      <trkpt lat="50.35221" lon="4.28324">
        <ele>222.7</ele>
        <time>2012-02-26T08:14:49Z</time>
      </trkpt>
      <trkpt lat="50.35222" lon="4.28333">
        <ele>222.7</ele>
        <time>2012-02-26T08:14:51Z</time>
      </trkpt>
      <trkpt lat="50.35224" lon="4.2834">
        <ele>222.6</ele>
        <time>2012-02-26T08:14:53Z</time>
      </trkpt>
      <trkpt lat="50.35226" lon="4.28348">
        <ele>222.9</ele>
        <time>2012-02-26T08:14:55Z</time>
      </trkpt>
      <trkpt lat="50.35226" lon="4.28356">
        <ele>224</ele>
        <time>2012-02-26T08:14:57Z</time>
      </trkpt>
      <trkpt lat="50.35226" lon="4.28364">
        <ele>224.7</ele>
        <time>2012-02-26T08:14:59Z</time>
      </trkpt>
      <trkpt lat="50.35226" lon="4.28371">
        <ele>225.7</ele>
        <time>2012-02-26T08:15:01Z</time>
      </trkpt>
      <trkpt lat="50.35225" lon="4.28378">
        <ele>226.3</ele>
        <time>2012-02-26T08:15:03Z</time>
      </trkpt>
      <trkpt lat="50.35225" lon="4.28387">
        <ele>225.7</ele>
        <time>2012-02-26T08:15:18Z</time>
      </trkpt>
      <trkpt lat="50.35224" lon="4.28397">
        <ele>225.6</ele>
        <time>2012-02-26T08:15:21Z</time>
      </trkpt>
      <trkpt lat="50.35223" lon="4.28405">
        <ele>226.1</ele>
        <time>2012-02-26T08:15:23Z</time>
      </trkpt>
      <trkpt lat="50.35221" lon="4.28416">
        <ele>226.5</ele>
        <time>2012-02-26T08:15:26Z</time>
      </trkpt>
      <trkpt lat="50.35221" lon="4.28423">
        <ele>226.4</ele>
        <time>2012-02-26T08:15:28Z</time>
      </trkpt>
      <trkpt lat="50.35219" lon="4.28431">
        <ele>226.9</ele>
        <time>2012-02-26T08:15:30Z</time>
      </trkpt>
      <trkpt lat="50.35218" lon="4.28439">
        <ele>226.9</ele>
        <time>2012-02-26T08:15:32Z</time>
      </trkpt>
      <trkpt lat="50.35218" lon="4.28447">
        <ele>226.9</ele>
        <time>2012-02-26T08:15:34Z</time>
      </trkpt>
      <trkpt lat="50.35216" lon="4.28456">
        <ele>226.8</ele>
        <time>2012-02-26T08:15:37Z</time>
      </trkpt>
      <trkpt lat="50.35216" lon="4.28463">
        <ele>227.2</ele>
        <time>2012-02-26T08:15:39Z</time>
      </trkpt>
      <trkpt lat="50.35214" lon="4.28472">
        <ele>227.8</ele>
        <time>2012-02-26T08:15:42Z</time>
      </trkpt>
      <trkpt lat="50.35214" lon="4.2848">
        <ele>228.3</ele>
        <time>2012-02-26T08:15:45Z</time>
      </trkpt>
      <trkpt lat="50.35213" lon="4.28488">
        <ele>228.6</ele>
        <time>2012-02-26T08:15:48Z</time>
      </trkpt>
      <trkpt lat="50.35213" lon="4.28497">
        <ele>229.1</ele>
        <time>2012-02-26T08:15:51Z</time>
      </trkpt>
      <trkpt lat="50.35212" lon="4.28506">
        <ele>229.3</ele>
        <time>2012-02-26T08:15:54Z</time>
      </trkpt>
      <trkpt lat="50.3521" lon="4.28516">
        <ele>229.6</ele>
        <time>2012-02-26T08:15:57Z</time>
      </trkpt>
      <trkpt lat="50.35209" lon="4.28525">
        <ele>230.1</ele>
        <time>2012-02-26T08:16:00Z</time>
      </trkpt>
      <trkpt lat="50.35208" lon="4.28534">
        <ele>230.8</ele>
        <time>2012-02-26T08:16:03Z</time>
      </trkpt>
      <trkpt lat="50.35207" lon="4.28542">
        <ele>231</ele>
        <time>2012-02-26T08:16:06Z</time>
      </trkpt>
      <trkpt lat="50.35206" lon="4.28551">
        <ele>231.4</ele>
        <time>2012-02-26T08:16:09Z</time>
      </trkpt>
      <trkpt lat="50.35204" lon="4.28559">
        <ele>232.2</ele>
        <time>2012-02-26T08:16:12Z</time>
      </trkpt>
      <trkpt lat="50.35207" lon="4.28567">
        <ele>233.6</ele>
        <time>2012-02-26T08:16:17Z</time>
      </trkpt>
      <trkpt lat="50.35212" lon="4.2857">
        <ele>232.9</ele>
        <time>2012-02-26T08:16:21Z</time>
      </trkpt>
      <trkpt lat="50.35218" lon="4.28574">
        <ele>232.6</ele>
        <time>2012-02-26T08:17:43Z</time>
      </trkpt>
      <trkpt lat="50.35223" lon="4.28576">
        <ele>231.6</ele>
        <time>2012-02-26T08:17:46Z</time>
      </trkpt>
      <trkpt lat="50.35229" lon="4.28579">
        <ele>232.6</ele>
        <time>2012-02-26T08:17:49Z</time>
      </trkpt>
      <trkpt lat="50.35236" lon="4.28581">
        <ele>231.3</ele>
        <time>2012-02-26T08:17:52Z</time>
      </trkpt>
      <trkpt lat="50.35241" lon="4.28584">
        <ele>231.7</ele>
        <time>2012-02-26T08:17:54Z</time>
      </trkpt>
      <trkpt lat="50.35245" lon="4.28586">
        <ele>232.1</ele>
        <time>2012-02-26T08:17:56Z</time>
      </trkpt>
      <trkpt lat="50.3525" lon="4.28587">
        <ele>232.9</ele>
        <time>2012-02-26T08:17:58Z</time>
      </trkpt>
      <trkpt lat="50.35255" lon="4.28589">
        <ele>232.5</ele>
        <time>2012-02-26T08:18:00Z</time>
      </trkpt>
      <trkpt lat="50.3526" lon="4.28591">
        <ele>232.5</ele>
        <time>2012-02-26T08:18:02Z</time>
      </trkpt>
      <trkpt lat="50.35265" lon="4.28593">
        <ele>232.2</ele>
        <time>2012-02-26T08:18:04Z</time>
      </trkpt>
      <trkpt lat="50.3527" lon="4.28596">
        <ele>232.7</ele>
        <time>2012-02-26T08:18:06Z</time>
      </trkpt>
      <trkpt lat="50.35275" lon="4.28598">
        <ele>233.3</ele>
        <time>2012-02-26T08:18:08Z</time>
      </trkpt>
      <trkpt lat="50.35281" lon="4.28601">
        <ele>233.2</ele>
        <time>2012-02-26T08:18:10Z</time>
      </trkpt>
      <trkpt lat="50.35286" lon="4.28603">
        <ele>232.9</ele>
        <time>2012-02-26T08:18:12Z</time>
      </trkpt>
      <trkpt lat="50.35292" lon="4.28605">
        <ele>232.9</ele>
        <time>2012-02-26T08:18:14Z</time>
      </trkpt>
      <trkpt lat="50.35297" lon="4.28607">
        <ele>232.9</ele>
        <time>2012-02-26T08:18:16Z</time>
      </trkpt>
      <trkpt lat="50.35303" lon="4.28609">
        <ele>232.2</ele>
        <time>2012-02-26T08:18:18Z</time>
      </trkpt>
      <trkpt lat="50.35308" lon="4.2861">
        <ele>232.7</ele>
        <time>2012-02-26T08:18:20Z</time>
      </trkpt>
      <trkpt lat="50.35314" lon="4.28613">
        <ele>232.7</ele>
        <time>2012-02-26T08:18:22Z</time>
      </trkpt>
      <trkpt lat="50.35319" lon="4.28615">
        <ele>233</ele>
        <time>2012-02-26T08:18:24Z</time>
      </trkpt>
      <trkpt lat="50.35325" lon="4.28617">
        <ele>233</ele>
        <time>2012-02-26T08:18:26Z</time>
      </trkpt>
      <trkpt lat="50.3533" lon="4.28619">
        <ele>232.8</ele>
        <time>2012-02-26T08:18:28Z</time>
      </trkpt>
      <trkpt lat="50.35336" lon="4.28622">
        <ele>232.9</ele>
        <time>2012-02-26T08:18:30Z</time>
      </trkpt>
      <trkpt lat="50.35341" lon="4.28624">
        <ele>233.4</ele>
        <time>2012-02-26T08:18:32Z</time>
      </trkpt>
      <trkpt lat="50.35346" lon="4.28626">
        <ele>233.5</ele>
        <time>2012-02-26T08:18:34Z</time>
      </trkpt>
      <trkpt lat="50.35352" lon="4.28627">
        <ele>233.6</ele>
        <time>2012-02-26T08:18:36Z</time>
      </trkpt>
      <trkpt lat="50.35357" lon="4.28629">
        <ele>233.5</ele>
        <time>2012-02-26T08:18:38Z</time>
      </trkpt>
      <trkpt lat="50.35362" lon="4.28632">
        <ele>233.7</ele>
        <time>2012-02-26T08:18:40Z</time>
      </trkpt>
      <trkpt lat="50.35367" lon="4.28634">
        <ele>233.6</ele>
        <time>2012-02-26T08:18:42Z</time>
      </trkpt>
      <trkpt lat="50.35372" lon="4.28637">
        <ele>233.4</ele>
        <time>2012-02-26T08:18:44Z</time>
      </trkpt>
      <trkpt lat="50.35378" lon="4.28638">
        <ele>233.3</ele>
        <time>2012-02-26T08:18:46Z</time>
      </trkpt>
      <trkpt lat="50.35384" lon="4.28641">
        <ele>233.5</ele>
        <time>2012-02-26T08:18:48Z</time>
      </trkpt>
      <trkpt lat="50.3539" lon="4.28644">
        <ele>233.8</ele>
        <time>2012-02-26T08:18:50Z</time>
      </trkpt>
      <trkpt lat="50.35397" lon="4.28648">
        <ele>233.8</ele>
        <time>2012-02-26T08:18:53Z</time>
      </trkpt>
      <trkpt lat="50.35403" lon="4.2865">
        <ele>233.9</ele>
        <time>2012-02-26T08:18:55Z</time>
      </trkpt>
      <trkpt lat="50.35407" lon="4.28653">
        <ele>234</ele>
        <time>2012-02-26T08:18:57Z</time>
      </trkpt>
      <trkpt lat="50.35414" lon="4.28656">
        <ele>233.9</ele>
        <time>2012-02-26T08:19:00Z</time>
      </trkpt>
      <trkpt lat="50.35418" lon="4.28658">
        <ele>233.5</ele>
        <time>2012-02-26T08:19:02Z</time>
      </trkpt>
      <trkpt lat="50.35423" lon="4.28661">
        <ele>233.3</ele>
        <time>2012-02-26T08:19:04Z</time>
      </trkpt>
      <trkpt lat="50.35427" lon="4.28664">
        <ele>233.4</ele>
        <time>2012-02-26T08:19:06Z</time>
      </trkpt>
      <trkpt lat="50.35432" lon="4.28666">
        <ele>233.3</ele>
        <time>2012-02-26T08:19:08Z</time>
      </trkpt>
      <trkpt lat="50.35438" lon="4.2867">
        <ele>232.6</ele>
        <time>2012-02-26T08:19:10Z</time>
      </trkpt>
      <trkpt lat="50.35445" lon="4.28672">
        <ele>232.7</ele>
        <time>2012-02-26T08:19:12Z</time>
      </trkpt>
      <trkpt lat="50.35452" lon="4.28675">
        <ele>232.7</ele>
        <time>2012-02-26T08:19:14Z</time>
      </trkpt>
      <trkpt lat="50.35459" lon="4.28679">
        <ele>232.9</ele>
        <time>2012-02-26T08:19:16Z</time>
      </trkpt>
      <trkpt lat="50.35466" lon="4.28683">
        <ele>232.8</ele>
        <time>2012-02-26T08:19:18Z</time>
      </trkpt>
      <trkpt lat="50.35473" lon="4.28686">
        <ele>232.6</ele>
        <time>2012-02-26T08:19:20Z</time>
      </trkpt>
      <trkpt lat="50.35479" lon="4.28689">
        <ele>232.7</ele>
        <time>2012-02-26T08:19:22Z</time>
      </trkpt>
      <trkpt lat="50.35485" lon="4.28693">
        <ele>232.4</ele>
        <time>2012-02-26T08:19:24Z</time>
      </trkpt>
      <trkpt lat="50.35492" lon="4.28696">
        <ele>232.6</ele>
        <time>2012-02-26T08:19:26Z</time>
      </trkpt>
      <trkpt lat="50.35498" lon="4.287">
        <ele>232.3</ele>
        <time>2012-02-26T08:19:28Z</time>
      </trkpt>
      <trkpt lat="50.35506" lon="4.28702">
        <ele>231.9</ele>
        <time>2012-02-26T08:19:30Z</time>
      </trkpt>
      <trkpt lat="50.35513" lon="4.28703">
        <ele>231.6</ele>
        <time>2012-02-26T08:19:32Z</time>
      </trkpt>
      <trkpt lat="50.3552" lon="4.28704">
        <ele>231.4</ele>
        <time>2012-02-26T08:19:34Z</time>
      </trkpt>
      <trkpt lat="50.35528" lon="4.28703">
        <ele>231.7</ele>
        <time>2012-02-26T08:19:36Z</time>
      </trkpt>
      <trkpt lat="50.35535" lon="4.28703">
        <ele>231.8</ele>
        <time>2012-02-26T08:19:38Z</time>
      </trkpt>
      <trkpt lat="50.35542" lon="4.28702">
        <ele>232</ele>
        <time>2012-02-26T08:19:40Z</time>
      </trkpt>
      <trkpt lat="50.35549" lon="4.28701">
        <ele>232.4</ele>
        <time>2012-02-26T08:19:42Z</time>
      </trkpt>
      <trkpt lat="50.35554" lon="4.287">
        <ele>232.9</ele>
        <time>2012-02-26T08:19:44Z</time>
      </trkpt>
      <trkpt lat="50.3556" lon="4.28699">
        <ele>232.8</ele>
        <time>2012-02-26T08:19:46Z</time>
      </trkpt>
      <trkpt lat="50.35566" lon="4.28699">
        <ele>233.3</ele>
        <time>2012-02-26T08:19:49Z</time>
      </trkpt>
      <trkpt lat="50.35571" lon="4.28699">
        <ele>233.6</ele>
        <time>2012-02-26T08:19:51Z</time>
      </trkpt>
      <trkpt lat="50.35575" lon="4.28698">
        <ele>234.2</ele>
        <time>2012-02-26T08:19:53Z</time>
      </trkpt>
      <trkpt lat="50.35582" lon="4.28698">
        <ele>234.8</ele>
        <time>2012-02-26T08:19:56Z</time>
      </trkpt>
      <trkpt lat="50.35586" lon="4.28697">
        <ele>234.8</ele>
        <time>2012-02-26T08:19:58Z</time>
      </trkpt>
      <trkpt lat="50.35591" lon="4.28697">
        <ele>234.7</ele>
        <time>2012-02-26T08:20:00Z</time>
      </trkpt>
      <trkpt lat="50.35596" lon="4.28697">
        <ele>234.9</ele>
        <time>2012-02-26T08:20:02Z</time>
      </trkpt>
      <trkpt lat="50.35602" lon="4.28696">
        <ele>235</ele>
        <time>2012-02-26T08:20:05Z</time>
      </trkpt>
      <trkpt lat="50.35608" lon="4.28695">
        <ele>235.2</ele>
        <time>2012-02-26T08:20:08Z</time>
      </trkpt>
      <trkpt lat="50.35614" lon="4.28695">
        <ele>235.7</ele>
        <time>2012-02-26T08:20:11Z</time>
      </trkpt>
      <trkpt lat="50.35621" lon="4.28694">
        <ele>236.7</ele>
        <time>2012-02-26T08:20:14Z</time>
      </trkpt>
      <trkpt lat="50.35627" lon="4.28694">
        <ele>236.7</ele>
        <time>2012-02-26T08:20:17Z</time>
      </trkpt>
      <trkpt lat="50.35634" lon="4.28693">
        <ele>236.6</ele>
        <time>2012-02-26T08:20:20Z</time>
      </trkpt>
      <trkpt lat="50.35641" lon="4.28693">
        <ele>236.6</ele>
        <time>2012-02-26T08:20:23Z</time>
      </trkpt>
      <trkpt lat="50.35646" lon="4.28694">
        <ele>235.8</ele>
        <time>2012-02-26T08:20:25Z</time>
      </trkpt>
      <trkpt lat="50.3565" lon="4.28693">
        <ele>235.5</ele>
        <time>2012-02-26T08:20:27Z</time>
      </trkpt>
      <trkpt lat="50.35655" lon="4.28693">
        <ele>235.8</ele>
        <time>2012-02-26T08:20:29Z</time>
      </trkpt>
      <trkpt lat="50.35659" lon="4.28692">
        <ele>236.4</ele>
        <time>2012-02-26T08:20:31Z</time>
      </trkpt>
      <trkpt lat="50.35666" lon="4.28691">
        <ele>236.4</ele>
        <time>2012-02-26T08:20:34Z</time>
      </trkpt>
      <trkpt lat="50.3567" lon="4.2869">
        <ele>236.3</ele>
        <time>2012-02-26T08:20:36Z</time>
      </trkpt>
      <trkpt lat="50.35677" lon="4.2869">
        <ele>236.1</ele>
        <time>2012-02-26T08:20:39Z</time>
      </trkpt>
      <trkpt lat="50.35681" lon="4.2869">
        <ele>236.2</ele>
        <time>2012-02-26T08:20:41Z</time>
      </trkpt>
      <trkpt lat="50.35686" lon="4.28691">
        <ele>236.2</ele>
        <time>2012-02-26T08:20:43Z</time>
      </trkpt>
      <trkpt lat="50.35691" lon="4.2869">
        <ele>236.3</ele>
        <time>2012-02-26T08:20:45Z</time>
      </trkpt>
      <trkpt lat="50.35697" lon="4.2869">
        <ele>235.6</ele>
        <time>2012-02-26T08:20:48Z</time>
      </trkpt>
      <trkpt lat="50.35702" lon="4.28689">
        <ele>235.8</ele>
        <time>2012-02-26T08:20:50Z</time>
      </trkpt>
      <trkpt lat="50.35706" lon="4.28689">
        <ele>236.1</ele>
        <time>2012-02-26T08:20:52Z</time>
      </trkpt>
      <trkpt lat="50.35711" lon="4.28688">
        <ele>236.6</ele>
        <time>2012-02-26T08:20:54Z</time>
      </trkpt>
      <trkpt lat="50.35718" lon="4.28688">
        <ele>237</ele>
        <time>2012-02-26T08:20:57Z</time>
      </trkpt>
      <trkpt lat="50.35722" lon="4.28688">
        <ele>237.3</ele>
        <time>2012-02-26T08:20:59Z</time>
      </trkpt>
      <trkpt lat="50.35729" lon="4.28687">
        <ele>238.3</ele>
        <time>2012-02-26T08:21:02Z</time>
      </trkpt>
      <trkpt lat="50.35736" lon="4.28687">
        <ele>238.5</ele>
        <time>2012-02-26T08:21:05Z</time>
      </trkpt>
      <trkpt lat="50.35742" lon="4.28686">
        <ele>238.5</ele>
        <time>2012-02-26T08:21:08Z</time>
      </trkpt>
      <trkpt lat="50.35748" lon="4.28683">
        <ele>239</ele>
        <time>2012-02-26T08:21:11Z</time>
      </trkpt>
      <trkpt lat="50.35751" lon="4.28677">
        <ele>239.2</ele>
        <time>2012-02-26T08:21:14Z</time>
      </trkpt>
      <trkpt lat="50.35753" lon="4.28668">
        <ele>238.4</ele>
        <time>2012-02-26T08:21:17Z</time>
      </trkpt>
      <trkpt lat="50.35754" lon="4.28661">
        <ele>238.4</ele>
        <time>2012-02-26T08:21:19Z</time>
      </trkpt>
      <trkpt lat="50.35755" lon="4.28654">
        <ele>238.3</ele>
        <time>2012-02-26T08:21:21Z</time>
      </trkpt>
      <trkpt lat="50.35755" lon="4.28646">
        <ele>238</ele>
        <time>2012-02-26T08:21:23Z</time>
      </trkpt>
      <trkpt lat="50.35756" lon="4.28638">
        <ele>238.3</ele>
        <time>2012-02-26T08:21:25Z</time>
      </trkpt>
      <trkpt lat="50.35756" lon="4.28629">
        <ele>238.3</ele>
        <time>2012-02-26T08:21:27Z</time>
      </trkpt>
      <trkpt lat="50.35755" lon="4.2862">
        <ele>238.3</ele>
        <time>2012-02-26T08:21:29Z</time>
      </trkpt>
      <trkpt lat="50.35756" lon="4.28612">
        <ele>237.9</ele>
        <time>2012-02-26T08:21:31Z</time>
      </trkpt>
      <trkpt lat="50.35755" lon="4.28603">
        <ele>237.9</ele>
        <time>2012-02-26T08:21:33Z</time>
      </trkpt>
      <trkpt lat="50.35755" lon="4.28595">
        <ele>237.4</ele>
        <time>2012-02-26T08:21:35Z</time>
      </trkpt>
      <trkpt lat="50.35754" lon="4.28586">
        <ele>237.1</ele>
        <time>2012-02-26T08:21:37Z</time>
      </trkpt>
      <trkpt lat="50.35754" lon="4.28578">
        <ele>237.2</ele>
        <time>2012-02-26T08:21:39Z</time>
      </trkpt>
      <trkpt lat="50.35754" lon="4.28569">
        <ele>236.7</ele>
        <time>2012-02-26T08:21:41Z</time>
      </trkpt>
      <trkpt lat="50.35754" lon="4.2856">
        <ele>237</ele>
        <time>2012-02-26T08:21:43Z</time>
      </trkpt>
      <trkpt lat="50.35754" lon="4.2855">
        <ele>236.9</ele>
        <time>2012-02-26T08:21:45Z</time>
      </trkpt>
      <trkpt lat="50.35754" lon="4.28541">
        <ele>237</ele>
        <time>2012-02-26T08:21:47Z</time>
      </trkpt>
      <trkpt lat="50.35754" lon="4.28531">
        <ele>237.2</ele>
        <time>2012-02-26T08:21:49Z</time>
      </trkpt>
      <trkpt lat="50.35754" lon="4.28522">
        <ele>237.2</ele>
        <time>2012-02-26T08:21:51Z</time>
      </trkpt>
      <trkpt lat="50.35754" lon="4.28513">
        <ele>237.2</ele>
        <time>2012-02-26T08:21:53Z</time>
      </trkpt>
      <trkpt lat="50.35754" lon="4.28505">
        <ele>236.8</ele>
        <time>2012-02-26T08:21:55Z</time>
      </trkpt>
      <trkpt lat="50.35754" lon="4.28496">
        <ele>236.7</ele>
        <time>2012-02-26T08:21:57Z</time>
      </trkpt>
      <trkpt lat="50.35754" lon="4.28486">
        <ele>236.9</ele>
        <time>2012-02-26T08:21:59Z</time>
      </trkpt>
      <trkpt lat="50.35754" lon="4.28478">
        <ele>237.5</ele>
        <time>2012-02-26T08:22:01Z</time>
      </trkpt>
      <trkpt lat="50.35753" lon="4.28469">
        <ele>237.5</ele>
        <time>2012-02-26T08:22:03Z</time>
      </trkpt>
      <trkpt lat="50.35753" lon="4.2846">
        <ele>237.4</ele>
        <time>2012-02-26T08:22:05Z</time>
      </trkpt>
      <trkpt lat="50.35753" lon="4.28451">
        <ele>237.3</ele>
        <time>2012-02-26T08:22:07Z</time>
      </trkpt>
      <trkpt lat="50.35753" lon="4.28442">
        <ele>237.2</ele>
        <time>2012-02-26T08:22:09Z</time>
      </trkpt>
      <trkpt lat="50.35753" lon="4.28433">
        <ele>237.3</ele>
        <time>2012-02-26T08:22:11Z</time>
      </trkpt>
      <trkpt lat="50.35753" lon="4.28424">
        <ele>237.1</ele>
        <time>2012-02-26T08:22:13Z</time>
      </trkpt>
      <trkpt lat="50.35753" lon="4.28415">
        <ele>237.7</ele>
        <time>2012-02-26T08:22:15Z</time>
      </trkpt>
      <trkpt lat="50.35754" lon="4.28407">
        <ele>238</ele>
        <time>2012-02-26T08:22:17Z</time>
      </trkpt>
      <trkpt lat="50.35756" lon="4.28399">
        <ele>238.2</ele>
        <time>2012-02-26T08:22:19Z</time>
      </trkpt>
      <trkpt lat="50.3576" lon="4.28392">
        <ele>238</ele>
        <time>2012-02-26T08:22:21Z</time>
      </trkpt>
      <trkpt lat="50.35765" lon="4.28388">
        <ele>238</ele>
        <time>2012-02-26T08:22:23Z</time>
      </trkpt>
      <trkpt lat="50.35771" lon="4.28387">
        <ele>237.8</ele>
        <time>2012-02-26T08:22:25Z</time>
      </trkpt>
      <trkpt lat="50.35776" lon="4.28387">
        <ele>238.9</ele>
        <time>2012-02-26T08:22:27Z</time>
      </trkpt>
      <trkpt lat="50.35781" lon="4.28387">
        <ele>240.1</ele>
        <time>2012-02-26T08:22:29Z</time>
      </trkpt>
      <trkpt lat="50.35786" lon="4.28387">
        <ele>241</ele>
        <time>2012-02-26T08:22:31Z</time>
      </trkpt>
      <trkpt lat="50.35792" lon="4.28386">
        <ele>241.3</ele>
        <time>2012-02-26T08:22:33Z</time>
      </trkpt>
      <trkpt lat="50.35798" lon="4.28385">
        <ele>241.1</ele>
        <time>2012-02-26T08:22:35Z</time>
      </trkpt>
      <trkpt lat="50.35803" lon="4.28385">
        <ele>241.3</ele>
        <time>2012-02-26T08:22:37Z</time>
      </trkpt>
      <trkpt lat="50.3581" lon="4.28386">
        <ele>241.5</ele>
        <time>2012-02-26T08:22:39Z</time>
      </trkpt>
      <trkpt lat="50.35815" lon="4.28385">
        <ele>241.6</ele>
        <time>2012-02-26T08:22:41Z</time>
      </trkpt>
      <trkpt lat="50.3582" lon="4.28384">
        <ele>241.8</ele>
        <time>2012-02-26T08:22:43Z</time>
      </trkpt>
      <trkpt lat="50.35826" lon="4.28383">
        <ele>241.8</ele>
        <time>2012-02-26T08:22:45Z</time>
      </trkpt>
      <trkpt lat="50.35832" lon="4.28382">
        <ele>241.7</ele>
        <time>2012-02-26T08:22:47Z</time>
      </trkpt>
      <trkpt lat="50.35838" lon="4.28382">
        <ele>241.8</ele>
        <time>2012-02-26T08:22:49Z</time>
      </trkpt>
      <trkpt lat="50.35844" lon="4.28382">
        <ele>241.3</ele>
        <time>2012-02-26T08:22:51Z</time>
      </trkpt>
      <trkpt lat="50.3585" lon="4.28382">
        <ele>241.1</ele>
        <time>2012-02-26T08:22:53Z</time>
      </trkpt>
      <trkpt lat="50.35856" lon="4.28382">
        <ele>241.4</ele>
        <time>2012-02-26T08:22:55Z</time>
      </trkpt>
      <trkpt lat="50.35862" lon="4.28381">
        <ele>241.4</ele>
        <time>2012-02-26T08:22:57Z</time>
      </trkpt>
      <trkpt lat="50.35867" lon="4.28381">
        <ele>241.9</ele>
        <time>2012-02-26T08:22:59Z</time>
      </trkpt>
      <trkpt lat="50.35874" lon="4.2838">
        <ele>241.9</ele>
        <time>2012-02-26T08:23:01Z</time>
      </trkpt>
      <trkpt lat="50.35879" lon="4.28381">
        <ele>242.4</ele>
        <time>2012-02-26T08:23:03Z</time>
      </trkpt>
      <trkpt lat="50.35884" lon="4.28385">
        <ele>242.2</ele>
        <time>2012-02-26T08:23:05Z</time>
      </trkpt>
      <trkpt lat="50.35888" lon="4.2839">
        <ele>242</ele>
        <time>2012-02-26T08:23:07Z</time>
      </trkpt>
      <trkpt lat="50.35893" lon="4.28396">
        <ele>242.3</ele>
        <time>2012-02-26T08:23:10Z</time>
      </trkpt>
      <trkpt lat="50.35896" lon="4.28401">
        <ele>242</ele>
        <time>2012-02-26T08:23:12Z</time>
      </trkpt>
      <trkpt lat="50.35899" lon="4.28407">
        <ele>241.9</ele>
        <time>2012-02-26T08:23:14Z</time>
      </trkpt>
      <trkpt lat="50.35901" lon="4.28415">
        <ele>242.2</ele>
        <time>2012-02-26T08:23:17Z</time>
      </trkpt>
      <trkpt lat="50.35901" lon="4.28423">
        <ele>242.4</ele>
        <time>2012-02-26T08:23:20Z</time>
      </trkpt>
      <trkpt lat="50.35901" lon="4.28432">
        <ele>243.2</ele>
        <time>2012-02-26T08:23:24Z</time>
      </trkpt>
      <trkpt lat="50.35903" lon="4.28439">
        <ele>242.9</ele>
        <time>2012-02-26T08:23:28Z</time>
      </trkpt>
      <trkpt lat="50.35905" lon="4.28445">
        <ele>243.2</ele>
        <time>2012-02-26T08:23:37Z</time>
      </trkpt>
      <trkpt lat="50.35908" lon="4.28452">
        <ele>241.9</ele>
        <time>2012-02-26T08:25:18Z</time>
      </trkpt>
      <trkpt lat="50.3591" lon="4.2846">
        <ele>243.2</ele>
        <time>2012-02-26T08:27:18Z</time>
      </trkpt>
      <trkpt lat="50.35915" lon="4.28461">
        <ele>243.9</ele>
        <time>2012-02-26T08:27:22Z</time>
      </trkpt>
      <trkpt lat="50.35921" lon="4.2846">
        <ele>244.1</ele>
        <time>2012-02-26T08:27:25Z</time>
      </trkpt>
      <trkpt lat="50.35927" lon="4.28461">
        <ele>243.6</ele>
        <time>2012-02-26T08:27:29Z</time>
      </trkpt>
      <trkpt lat="50.35933" lon="4.28459">
        <ele>243.4</ele>
        <time>2012-02-26T08:27:32Z</time>
      </trkpt>
      <trkpt lat="50.35938" lon="4.28459">
        <ele>243.5</ele>
        <time>2012-02-26T08:27:34Z</time>
      </trkpt>
      <trkpt lat="50.35943" lon="4.28458">
        <ele>243.5</ele>
        <time>2012-02-26T08:27:36Z</time>
      </trkpt>
      <trkpt lat="50.35948" lon="4.28457">
        <ele>243.6</ele>
        <time>2012-02-26T08:27:38Z</time>
      </trkpt>
      <trkpt lat="50.35955" lon="4.28458">
        <ele>243.4</ele>
        <time>2012-02-26T08:27:41Z</time>
      </trkpt>
      <trkpt lat="50.3596" lon="4.28458">
        <ele>243.1</ele>
        <time>2012-02-26T08:27:43Z</time>
      </trkpt>
      <trkpt lat="50.35965" lon="4.28457">
        <ele>243.1</ele>
        <time>2012-02-26T08:27:45Z</time>
      </trkpt>
      <trkpt lat="50.35969" lon="4.28457">
        <ele>242.9</ele>
        <time>2012-02-26T08:27:47Z</time>
      </trkpt>
      <trkpt lat="50.35976" lon="4.28457">
        <ele>242.3</ele>
        <time>2012-02-26T08:27:50Z</time>
      </trkpt>
      <trkpt lat="50.35983" lon="4.28456">
        <ele>242.2</ele>
        <time>2012-02-26T08:27:53Z</time>
      </trkpt>
      <trkpt lat="50.35988" lon="4.28456">
        <ele>242.4</ele>
        <time>2012-02-26T08:27:55Z</time>
      </trkpt>
      <trkpt lat="50.35993" lon="4.28458">
        <ele>242.6</ele>
        <time>2012-02-26T08:27:57Z</time>
      </trkpt>
      <trkpt lat="50.35998" lon="4.28458">
        <ele>242.6</ele>
        <time>2012-02-26T08:27:59Z</time>
      </trkpt>
      <trkpt lat="50.36004" lon="4.28459">
        <ele>242.8</ele>
        <time>2012-02-26T08:28:01Z</time>
      </trkpt>
      <trkpt lat="50.3601" lon="4.2846">
        <ele>242.7</ele>
        <time>2012-02-26T08:28:03Z</time>
      </trkpt>
      <trkpt lat="50.36016" lon="4.2846">
        <ele>242.4</ele>
        <time>2012-02-26T08:28:05Z</time>
      </trkpt>
      <trkpt lat="50.36021" lon="4.28461">
        <ele>242.7</ele>
        <time>2012-02-26T08:28:07Z</time>
      </trkpt>
      <trkpt lat="50.36026" lon="4.28461">
        <ele>242.3</ele>
        <time>2012-02-26T08:28:09Z</time>
      </trkpt>
      <trkpt lat="50.36032" lon="4.28462">
        <ele>242</ele>
        <time>2012-02-26T08:28:11Z</time>
      </trkpt>
      <trkpt lat="50.36037" lon="4.28464">
        <ele>242.5</ele>
        <time>2012-02-26T08:28:13Z</time>
      </trkpt>
      <trkpt lat="50.36042" lon="4.28465">
        <ele>241.7</ele>
        <time>2012-02-26T08:28:15Z</time>
      </trkpt>
      <trkpt lat="50.36048" lon="4.28466">
        <ele>241.8</ele>
        <time>2012-02-26T08:28:17Z</time>
      </trkpt>
      <trkpt lat="50.36052" lon="4.28466">
        <ele>242.4</ele>
        <time>2012-02-26T08:28:19Z</time>
      </trkpt>
      <trkpt lat="50.36058" lon="4.28469">
        <ele>241.7</ele>
        <time>2012-02-26T08:28:21Z</time>
      </trkpt>
      <trkpt lat="50.36063" lon="4.28472">
        <ele>240.9</ele>
        <time>2012-02-26T08:28:23Z</time>
      </trkpt>
      <trkpt lat="50.36069" lon="4.28475">
        <ele>240.4</ele>
        <time>2012-02-26T08:28:25Z</time>
      </trkpt>
      <trkpt lat="50.36074" lon="4.28478">
        <ele>240.4</ele>
        <time>2012-02-26T08:28:27Z</time>
      </trkpt>
      <trkpt lat="50.36079" lon="4.28481">
        <ele>240</ele>
        <time>2012-02-26T08:28:29Z</time>
      </trkpt>
      <trkpt lat="50.36085" lon="4.28484">
        <ele>240</ele>
        <time>2012-02-26T08:28:31Z</time>
      </trkpt>
      <trkpt lat="50.36091" lon="4.28487">
        <ele>240.8</ele>
        <time>2012-02-26T08:28:33Z</time>
      </trkpt>
      <trkpt lat="50.36097" lon="4.28489">
        <ele>240.3</ele>
        <time>2012-02-26T08:28:35Z</time>
      </trkpt>
      <trkpt lat="50.36103" lon="4.2849">
        <ele>240.4</ele>
        <time>2012-02-26T08:28:37Z</time>
      </trkpt>
      <trkpt lat="50.3611" lon="4.28492">
        <ele>240.5</ele>
        <time>2012-02-26T08:28:39Z</time>
      </trkpt>
      <trkpt lat="50.36114" lon="4.28493">
        <ele>240.4</ele>
        <time>2012-02-26T08:28:40Z</time>
      </trkpt>
      <trkpt lat="50.36119" lon="4.28495">
        <ele>240</ele>
        <time>2012-02-26T08:28:42Z</time>
      </trkpt>
      <trkpt lat="50.36127" lon="4.28497">
        <ele>240.7</ele>
        <time>2012-02-26T08:28:44Z</time>
      </trkpt>
      <trkpt lat="50.36135" lon="4.28499">
        <ele>240.8</ele>
        <time>2012-02-26T08:28:46Z</time>
      </trkpt>
      <trkpt lat="50.36143" lon="4.28502">
        <ele>240.8</ele>
        <time>2012-02-26T08:28:48Z</time>
      </trkpt>
      <trkpt lat="50.36151" lon="4.28505">
        <ele>241.2</ele>
        <time>2012-02-26T08:28:50Z</time>
      </trkpt>
      <trkpt lat="50.36156" lon="4.28507">
        <ele>240.8</ele>
        <time>2012-02-26T08:28:51Z</time>
      </trkpt>
      <trkpt lat="50.3616" lon="4.28509">
        <ele>240.4</ele>
        <time>2012-02-26T08:28:52Z</time>
      </trkpt>
      <trkpt lat="50.36165" lon="4.28512">
        <ele>240.2</ele>
        <time>2012-02-26T08:28:53Z</time>
      </trkpt>
      <trkpt lat="50.3617" lon="4.28514">
        <ele>240.1</ele>
        <time>2012-02-26T08:28:54Z</time>
      </trkpt>
      <trkpt lat="50.36174" lon="4.28515">
        <ele>240.1</ele>
        <time>2012-02-26T08:28:55Z</time>
      </trkpt>
      <trkpt lat="50.36179" lon="4.28517">
        <ele>240.1</ele>
        <time>2012-02-26T08:28:56Z</time>
      </trkpt>
      <trkpt lat="50.36184" lon="4.2852">
        <ele>239.6</ele>
        <time>2012-02-26T08:28:57Z</time>
      </trkpt>
      <trkpt lat="50.36189" lon="4.28522">
        <ele>239.4</ele>
        <time>2012-02-26T08:28:58Z</time>
      </trkpt>
      <trkpt lat="50.36194" lon="4.28524">
        <ele>239.3</ele>
        <time>2012-02-26T08:28:59Z</time>
      </trkpt>
      <trkpt lat="50.36199" lon="4.28527">
        <ele>238.8</ele>
        <time>2012-02-26T08:29:00Z</time>
      </trkpt>
      <trkpt lat="50.36204" lon="4.2853">
        <ele>239.2</ele>
        <time>2012-02-26T08:29:01Z</time>
      </trkpt>
      <trkpt lat="50.36209" lon="4.28532">
        <ele>239.3</ele>
        <time>2012-02-26T08:29:02Z</time>
      </trkpt>
      <trkpt lat="50.36214" lon="4.28534">
        <ele>239.4</ele>
        <time>2012-02-26T08:29:03Z</time>
      </trkpt>
      <trkpt lat="50.36218" lon="4.28535">
        <ele>239.5</ele>
        <time>2012-02-26T08:29:04Z</time>
      </trkpt>
      <trkpt lat="50.36223" lon="4.28537">
        <ele>239.8</ele>
        <time>2012-02-26T08:29:05Z</time>
      </trkpt>
      <trkpt lat="50.36229" lon="4.2854">
        <ele>239.3</ele>
        <time>2012-02-26T08:29:06Z</time>
      </trkpt>
      <trkpt lat="50.36234" lon="4.28542">
        <ele>239</ele>
        <time>2012-02-26T08:29:07Z</time>
      </trkpt>
      <trkpt lat="50.36239" lon="4.28544">
        <ele>239.5</ele>
        <time>2012-02-26T08:29:08Z</time>
      </trkpt>
      <trkpt lat="50.36244" lon="4.28546">
        <ele>239.1</ele>
        <time>2012-02-26T08:29:09Z</time>
      </trkpt>
      <trkpt lat="50.36249" lon="4.28547">
        <ele>238.5</ele>
        <time>2012-02-26T08:29:10Z</time>
      </trkpt>
      <trkpt lat="50.36254" lon="4.28549">
        <ele>238.7</ele>
        <time>2012-02-26T08:29:11Z</time>
      </trkpt>
      <trkpt lat="50.36259" lon="4.28552">
        <ele>238.8</ele>
        <time>2012-02-26T08:29:12Z</time>
      </trkpt>
      <trkpt lat="50.36264" lon="4.28554">
        <ele>238.4</ele>
        <time>2012-02-26T08:29:13Z</time>
      </trkpt>
      <trkpt lat="50.3627" lon="4.28556">
        <ele>238.3</ele>
        <time>2012-02-26T08:29:14Z</time>
      </trkpt>
      <trkpt lat="50.36275" lon="4.28557">
        <ele>238</ele>
        <time>2012-02-26T08:29:15Z</time>
      </trkpt>
      <trkpt lat="50.36279" lon="4.28557">
        <ele>239.5</ele>
        <time>2012-02-26T08:29:16Z</time>
      </trkpt>
      <trkpt lat="50.36287" lon="4.2856">
        <ele>240</ele>
        <time>2012-02-26T08:29:18Z</time>
      </trkpt>
      <trkpt lat="50.36292" lon="4.28562">
        <ele>239.5</ele>
        <time>2012-02-26T08:29:19Z</time>
      </trkpt>
      <trkpt lat="50.36296" lon="4.28564">
        <ele>239.2</ele>
        <time>2012-02-26T08:29:20Z</time>
      </trkpt>
      <trkpt lat="50.36301" lon="4.28567">
        <ele>239.3</ele>
        <time>2012-02-26T08:29:21Z</time>
      </trkpt>
      <trkpt lat="50.36306" lon="4.2857">
        <ele>238.6</ele>
        <time>2012-02-26T08:29:23Z</time>
      </trkpt>
      <trkpt lat="50.36314" lon="4.28574">
        <ele>236.9</ele>
        <time>2012-02-26T08:29:25Z</time>
      </trkpt>
      <trkpt lat="50.3632" lon="4.28574">
        <ele>238.2</ele>
        <time>2012-02-26T08:29:27Z</time>
      </trkpt>
      <trkpt lat="50.36327" lon="4.28576">
        <ele>239.5</ele>
        <time>2012-02-26T08:29:29Z</time>
      </trkpt>
      <trkpt lat="50.36334" lon="4.28578">
        <ele>239.9</ele>
        <time>2012-02-26T08:29:31Z</time>
      </trkpt>
      <trkpt lat="50.3634" lon="4.28581">
        <ele>240.6</ele>
        <time>2012-02-26T08:29:33Z</time>
      </trkpt>
      <trkpt lat="50.36347" lon="4.28584">
        <ele>240.8</ele>
        <time>2012-02-26T08:29:35Z</time>
      </trkpt>
      <trkpt lat="50.36354" lon="4.28588">
        <ele>241.6</ele>
        <time>2012-02-26T08:29:37Z</time>
      </trkpt>
      <trkpt lat="50.36361" lon="4.28592">
        <ele>241</ele>
        <time>2012-02-26T08:29:39Z</time>
      </trkpt>
      <trkpt lat="50.36368" lon="4.28597">
        <ele>240.3</ele>
        <time>2012-02-26T08:29:41Z</time>
      </trkpt>
      <trkpt lat="50.36375" lon="4.28601">
        <ele>239.8</ele>
        <time>2012-02-26T08:29:43Z</time>
      </trkpt>
      <trkpt lat="50.36382" lon="4.28604">
        <ele>240</ele>
        <time>2012-02-26T08:29:45Z</time>
      </trkpt>
      <trkpt lat="50.36388" lon="4.28607">
        <ele>240.2</ele>
        <time>2012-02-26T08:29:47Z</time>
      </trkpt>
      <trkpt lat="50.36395" lon="4.2861">
        <ele>240.4</ele>
        <time>2012-02-26T08:29:49Z</time>
      </trkpt>
      <trkpt lat="50.36401" lon="4.28613">
        <ele>240.1</ele>
        <time>2012-02-26T08:29:51Z</time>
      </trkpt>
      <trkpt lat="50.36408" lon="4.28612">
        <ele>245.6</ele>
        <time>2012-02-26T08:29:53Z</time>
      </trkpt>
      <trkpt lat="50.36414" lon="4.2861">
        <ele>248.7</ele>
        <time>2012-02-26T08:29:55Z</time>
      </trkpt>
      <trkpt lat="50.36418" lon="4.28617">
        <ele>246.9</ele>
        <time>2012-02-26T08:29:56Z</time>
      </trkpt>
      <trkpt lat="50.36424" lon="4.28625">
        <ele>245.7</ele>
        <time>2012-02-26T08:29:58Z</time>
      </trkpt>
      <trkpt lat="50.36432" lon="4.2863">
        <ele>245.3</ele>
        <time>2012-02-26T08:30:00Z</time>
      </trkpt>
      <trkpt lat="50.36439" lon="4.28634">
        <ele>245.3</ele>
        <time>2012-02-26T08:30:02Z</time>
      </trkpt>
      <trkpt lat="50.36444" lon="4.2864">
        <ele>244.9</ele>
        <time>2012-02-26T08:30:04Z</time>
      </trkpt>
      <trkpt lat="50.3645" lon="4.28645">
        <ele>244.5</ele>
        <time>2012-02-26T08:30:06Z</time>
      </trkpt>
      <trkpt lat="50.36455" lon="4.28649">
        <ele>245.1</ele>
        <time>2012-02-26T08:30:08Z</time>
      </trkpt>
      <trkpt lat="50.3646" lon="4.2865">
        <ele>245.1</ele>
        <time>2012-02-26T08:30:10Z</time>
      </trkpt>
      <trkpt lat="50.36466" lon="4.28649">
        <ele>244.9</ele>
        <time>2012-02-26T08:30:12Z</time>
      </trkpt>
      <trkpt lat="50.36469" lon="4.28638">
        <ele>241.3</ele>
        <time>2012-02-26T08:30:14Z</time>
      </trkpt>
      <trkpt lat="50.36472" lon="4.28632">
        <ele>240.5</ele>
        <time>2012-02-26T08:30:16Z</time>
      </trkpt>
      <trkpt lat="50.36476" lon="4.28626">
        <ele>240.2</ele>
        <time>2012-02-26T08:30:17Z</time>
      </trkpt>
      <trkpt lat="50.36477" lon="4.28619">
        <ele>240.1</ele>
        <time>2012-02-26T08:30:19Z</time>
      </trkpt>
      <trkpt lat="50.36481" lon="4.28613">
        <ele>238</ele>
        <time>2012-02-26T08:30:21Z</time>
      </trkpt>
      <trkpt lat="50.36486" lon="4.28609">
        <ele>237.2</ele>
        <time>2012-02-26T08:30:24Z</time>
      </trkpt>
      <trkpt lat="50.36489" lon="4.286">
        <ele>237.3</ele>
        <time>2012-02-26T08:30:27Z</time>
      </trkpt>
      <trkpt lat="50.36491" lon="4.28593">
        <ele>237.5</ele>
        <time>2012-02-26T08:30:29Z</time>
      </trkpt>
      <trkpt lat="50.36492" lon="4.28587">
        <ele>239.3</ele>
        <time>2012-02-26T08:30:31Z</time>
      </trkpt>
      <trkpt lat="50.36494" lon="4.2858">
        <ele>238.2</ele>
        <time>2012-02-26T08:30:33Z</time>
      </trkpt>
      <trkpt lat="50.36496" lon="4.28574">
        <ele>238.3</ele>
        <time>2012-02-26T08:30:35Z</time>
      </trkpt>
      <trkpt lat="50.36499" lon="4.28566">
        <ele>238.5</ele>
        <time>2012-02-26T08:30:38Z</time>
      </trkpt>
      <trkpt lat="50.36501" lon="4.28559">
        <ele>237.9</ele>
        <time>2012-02-26T08:30:40Z</time>
      </trkpt>
      <trkpt lat="50.36503" lon="4.2855">
        <ele>239.2</ele>
        <time>2012-02-26T08:30:43Z</time>
      </trkpt>
      <trkpt lat="50.36504" lon="4.28543">
        <ele>239.5</ele>
        <time>2012-02-26T08:30:45Z</time>
      </trkpt>
      <trkpt lat="50.36505" lon="4.28534">
        <ele>240.1</ele>
        <time>2012-02-26T08:30:48Z</time>
      </trkpt>
      <trkpt lat="50.36508" lon="4.28525">
        <ele>240.3</ele>
        <time>2012-02-26T08:30:51Z</time>
      </trkpt>
      <trkpt lat="50.3651" lon="4.28516">
        <ele>241.6</ele>
        <time>2012-02-26T08:30:54Z</time>
      </trkpt>
      <trkpt lat="50.36511" lon="4.28509">
        <ele>242</ele>
        <time>2012-02-26T08:30:56Z</time>
      </trkpt>
      <trkpt lat="50.36514" lon="4.28503">
        <ele>241.8</ele>
        <time>2012-02-26T08:30:58Z</time>
      </trkpt>
      <trkpt lat="50.36514" lon="4.28496">
        <ele>242.5</ele>
        <time>2012-02-26T08:31:00Z</time>
      </trkpt>
      <trkpt lat="50.36518" lon="4.28488">
        <ele>240.8</ele>
        <time>2012-02-26T08:31:03Z</time>
      </trkpt>
      <trkpt lat="50.36521" lon="4.28482">
        <ele>240.3</ele>
        <time>2012-02-26T08:31:05Z</time>
      </trkpt>
      <trkpt lat="50.36525" lon="4.28474">
        <ele>241.9</ele>
        <time>2012-02-26T08:31:08Z</time>
      </trkpt>
      <trkpt lat="50.36529" lon="4.28467">
        <ele>243.8</ele>
        <time>2012-02-26T08:31:11Z</time>
      </trkpt>
      <trkpt lat="50.36533" lon="4.2846">
        <ele>245.2</ele>
        <time>2012-02-26T08:31:13Z</time>
      </trkpt>
      <trkpt lat="50.36537" lon="4.28453">
        <ele>246.1</ele>
        <time>2012-02-26T08:31:17Z</time>
      </trkpt>
      <trkpt lat="50.3654" lon="4.28448">
        <ele>247.1</ele>
        <time>2012-02-26T08:31:20Z</time>
      </trkpt>
      <trkpt lat="50.36545" lon="4.28439">
        <ele>245.8</ele>
        <time>2012-02-26T08:31:22Z</time>
      </trkpt>
      <trkpt lat="50.36549" lon="4.28433">
        <ele>246.7</ele>
        <time>2012-02-26T08:31:24Z</time>
      </trkpt>
      <trkpt lat="50.36553" lon="4.28427">
        <ele>248</ele>
        <time>2012-02-26T08:31:26Z</time>
      </trkpt>
      <trkpt lat="50.36557" lon="4.28421">
        <ele>249</ele>
        <time>2012-02-26T08:31:29Z</time>
      </trkpt>
      <trkpt lat="50.3656" lon="4.28412">
        <ele>250.3</ele>
        <time>2012-02-26T08:31:31Z</time>
      </trkpt>
      <trkpt lat="50.36562" lon="4.28403">
        <ele>250.3</ele>
        <time>2012-02-26T08:31:34Z</time>
      </trkpt>
      <trkpt lat="50.36565" lon="4.28397">
        <ele>250.9</ele>
        <time>2012-02-26T08:31:36Z</time>
      </trkpt>
      <trkpt lat="50.36569" lon="4.28392">
        <ele>251</ele>
        <time>2012-02-26T08:31:38Z</time>
      </trkpt>
      <trkpt lat="50.36576" lon="4.28388">
        <ele>249.9</ele>
        <time>2012-02-26T08:31:40Z</time>
      </trkpt>
      <trkpt lat="50.36581" lon="4.28383">
        <ele>247.4</ele>
        <time>2012-02-26T08:31:42Z</time>
      </trkpt>
      <trkpt lat="50.36585" lon="4.2838">
        <ele>246.7</ele>
        <time>2012-02-26T08:31:44Z</time>
      </trkpt>
      <trkpt lat="50.36588" lon="4.28374">
        <ele>247</ele>
        <time>2012-02-26T08:31:46Z</time>
      </trkpt>
      <trkpt lat="50.36592" lon="4.28366">
        <ele>246</ele>
        <time>2012-02-26T08:31:48Z</time>
      </trkpt>
      <trkpt lat="50.36596" lon="4.28359">
        <ele>245.2</ele>
        <time>2012-02-26T08:31:50Z</time>
      </trkpt>
      <trkpt lat="50.36601" lon="4.28352">
        <ele>244.6</ele>
        <time>2012-02-26T08:31:52Z</time>
      </trkpt>
      <trkpt lat="50.36606" lon="4.28345">
        <ele>241.8</ele>
        <time>2012-02-26T08:31:54Z</time>
      </trkpt>
      <trkpt lat="50.3661" lon="4.2834">
        <ele>243</ele>
        <time>2012-02-26T08:31:56Z</time>
      </trkpt>
      <trkpt lat="50.36614" lon="4.2833">
        <ele>244.6</ele>
        <time>2012-02-26T08:31:58Z</time>
      </trkpt>
      <trkpt lat="50.36618" lon="4.28321">
        <ele>245.4</ele>
        <time>2012-02-26T08:32:00Z</time>
      </trkpt>
      <trkpt lat="50.36619" lon="4.28314">
        <ele>244.3</ele>
        <time>2012-02-26T08:32:02Z</time>
      </trkpt>
      <trkpt lat="50.36622" lon="4.28305">
        <ele>244.7</ele>
        <time>2012-02-26T08:32:05Z</time>
      </trkpt>
      <trkpt lat="50.36624" lon="4.28297">
        <ele>244.9</ele>
        <time>2012-02-26T08:32:08Z</time>
      </trkpt>
      <trkpt lat="50.36625" lon="4.2829">
        <ele>245.1</ele>
        <time>2012-02-26T08:32:10Z</time>
      </trkpt>
      <trkpt lat="50.3663" lon="4.28282">
        <ele>244.7</ele>
        <time>2012-02-26T08:32:12Z</time>
      </trkpt>
      <trkpt lat="50.36634" lon="4.28274">
        <ele>243.1</ele>
        <time>2012-02-26T08:32:13Z</time>
      </trkpt>
      <trkpt lat="50.36638" lon="4.28268">
        <ele>243.6</ele>
        <time>2012-02-26T08:32:15Z</time>
      </trkpt>
      <trkpt lat="50.36644" lon="4.28262">
        <ele>245.9</ele>
        <time>2012-02-26T08:32:16Z</time>
      </trkpt>
      <trkpt lat="50.36648" lon="4.28252">
        <ele>248.8</ele>
        <time>2012-02-26T08:32:19Z</time>
      </trkpt>
      <trkpt lat="50.36653" lon="4.28245">
        <ele>252.2</ele>
        <time>2012-02-26T08:32:21Z</time>
      </trkpt>
      <trkpt lat="50.36659" lon="4.28238">
        <ele>253.1</ele>
        <time>2012-02-26T08:32:23Z</time>
      </trkpt>
      <trkpt lat="50.36664" lon="4.28233">
        <ele>254.7</ele>
        <time>2012-02-26T08:32:25Z</time>
      </trkpt>
      <trkpt lat="50.36672" lon="4.28229">
        <ele>251.4</ele>
        <time>2012-02-26T08:32:27Z</time>
      </trkpt>
      <trkpt lat="50.36677" lon="4.28227">
        <ele>254.2</ele>
        <time>2012-02-26T08:32:29Z</time>
      </trkpt>
      <trkpt lat="50.36682" lon="4.28224">
        <ele>255.5</ele>
        <time>2012-02-26T08:32:31Z</time>
      </trkpt>
      <trkpt lat="50.36688" lon="4.28218">
        <ele>254.9</ele>
        <time>2012-02-26T08:32:33Z</time>
      </trkpt>
      <trkpt lat="50.36696" lon="4.28216">
        <ele>252.8</ele>
        <time>2012-02-26T08:32:35Z</time>
      </trkpt>
      <trkpt lat="50.36703" lon="4.28215">
        <ele>252.4</ele>
        <time>2012-02-26T08:32:37Z</time>
      </trkpt>
      <trkpt lat="50.36709" lon="4.28213">
        <ele>252.9</ele>
        <time>2012-02-26T08:32:39Z</time>
      </trkpt>
      <trkpt lat="50.36714" lon="4.28209">
        <ele>252.9</ele>
        <time>2012-02-26T08:32:41Z</time>
      </trkpt>
      <trkpt lat="50.36718" lon="4.28194">
        <ele>251.7</ele>
        <time>2012-02-26T08:32:42Z</time>
      </trkpt>
      <trkpt lat="50.36721" lon="4.28188">
        <ele>253</ele>
        <time>2012-02-26T08:32:43Z</time>
      </trkpt>
      <trkpt lat="50.36728" lon="4.28178">
        <ele>250.6</ele>
        <time>2012-02-26T08:32:45Z</time>
      </trkpt>
      <trkpt lat="50.36728" lon="4.28169">
        <ele>255.2</ele>
        <time>2012-02-26T08:32:50Z</time>
      </trkpt>
      <trkpt lat="50.36731" lon="4.28163">
        <ele>256.3</ele>
        <time>2012-02-26T08:32:53Z</time>
      </trkpt>
      <trkpt lat="50.36734" lon="4.28157">
        <ele>255.6</ele>
        <time>2012-02-26T08:32:54Z</time>
      </trkpt>
      <trkpt lat="50.36737" lon="4.28148">
        <ele>254.9</ele>
        <time>2012-02-26T08:32:58Z</time>
      </trkpt>
      <trkpt lat="50.36739" lon="4.28138">
        <ele>258.5</ele>
        <time>2012-02-26T08:33:02Z</time>
      </trkpt>
      <trkpt lat="50.36738" lon="4.28129">
        <ele>258.1</ele>
        <time>2012-02-26T08:33:05Z</time>
      </trkpt>
      <trkpt lat="50.36737" lon="4.28118">
        <ele>256.7</ele>
        <time>2012-02-26T08:33:07Z</time>
      </trkpt>
      <trkpt lat="50.36739" lon="4.2811">
        <ele>257.4</ele>
        <time>2012-02-26T08:33:09Z</time>
      </trkpt>
      <trkpt lat="50.3674" lon="4.28103">
        <ele>254.6</ele>
        <time>2012-02-26T08:33:11Z</time>
      </trkpt>
      <trkpt lat="50.36742" lon="4.28096">
        <ele>253.4</ele>
        <time>2012-02-26T08:33:13Z</time>
      </trkpt>
      <trkpt lat="50.36743" lon="4.28088">
        <ele>251.3</ele>
        <time>2012-02-26T08:33:16Z</time>
      </trkpt>
      <trkpt lat="50.36746" lon="4.28082">
        <ele>247.7</ele>
        <time>2012-02-26T08:34:16Z</time>
      </trkpt>
      <trkpt lat="50.36751" lon="4.28076">
        <ele>245.8</ele>
        <time>2012-02-26T08:34:19Z</time>
      </trkpt>
      <trkpt lat="50.36755" lon="4.2807">
        <ele>243.7</ele>
        <time>2012-02-26T08:34:23Z</time>
      </trkpt>
      <trkpt lat="50.36757" lon="4.28063">
        <ele>244.7</ele>
        <time>2012-02-26T08:34:26Z</time>
      </trkpt>
      <trkpt lat="50.36763" lon="4.28057">
        <ele>244.2</ele>
        <time>2012-02-26T08:34:29Z</time>
      </trkpt>
      <trkpt lat="50.36766" lon="4.2805">
        <ele>245.7</ele>
        <time>2012-02-26T08:34:32Z</time>
      </trkpt>
      <trkpt lat="50.36768" lon="4.28043">
        <ele>247.8</ele>
        <time>2012-02-26T08:34:35Z</time>
      </trkpt>
      <trkpt lat="50.36771" lon="4.28034">
        <ele>249.5</ele>
        <time>2012-02-26T08:34:38Z</time>
      </trkpt>
      <trkpt lat="50.36772" lon="4.28027">
        <ele>250.6</ele>
        <time>2012-02-26T08:34:40Z</time>
      </trkpt>
      <trkpt lat="50.36774" lon="4.28017">
        <ele>254.9</ele>
        <time>2012-02-26T08:34:43Z</time>
      </trkpt>
      <trkpt lat="50.36778" lon="4.28012">
        <ele>259.1</ele>
        <time>2012-02-26T08:34:46Z</time>
      </trkpt>
      <trkpt lat="50.36782" lon="4.28002">
        <ele>259.6</ele>
        <time>2012-02-26T08:34:49Z</time>
      </trkpt>
      <trkpt lat="50.36786" lon="4.27997">
        <ele>260.1</ele>
        <time>2012-02-26T08:34:52Z</time>
      </trkpt>
      <trkpt lat="50.36792" lon="4.27986">
        <ele>261.5</ele>
        <time>2012-02-26T08:34:56Z</time>
      </trkpt>
      <trkpt lat="50.36795" lon="4.27978">
        <ele>261.2</ele>
        <time>2012-02-26T08:34:58Z</time>
      </trkpt>
      <trkpt lat="50.36798" lon="4.27973">
        <ele>261.1</ele>
        <time>2012-02-26T08:35:00Z</time>
      </trkpt>
      <trkpt lat="50.36802" lon="4.27964">
        <ele>259.8</ele>
        <time>2012-02-26T08:35:02Z</time>
      </trkpt>
      <trkpt lat="50.36804" lon="4.27954">
        <ele>263.8</ele>
        <time>2012-02-26T08:35:06Z</time>
      </trkpt>
      <trkpt lat="50.36807" lon="4.27945">
        <ele>264.2</ele>
        <time>2012-02-26T08:35:08Z</time>
      </trkpt>
      <trkpt lat="50.36812" lon="4.27938">
        <ele>264.8</ele>
        <time>2012-02-26T08:35:11Z</time>
      </trkpt>
      <trkpt lat="50.36816" lon="4.27932">
        <ele>267.9</ele>
        <time>2012-02-26T08:35:12Z</time>
      </trkpt>
      <trkpt lat="50.36822" lon="4.27927">
        <ele>269.3</ele>
        <time>2012-02-26T08:35:14Z</time>
      </trkpt>
      <trkpt lat="50.36826" lon="4.2792">
        <ele>269.2</ele>
        <time>2012-02-26T08:35:16Z</time>
      </trkpt>
      <trkpt lat="50.3683" lon="4.27915">
        <ele>271.6</ele>
        <time>2012-02-26T08:35:19Z</time>
      </trkpt>
      <trkpt lat="50.36834" lon="4.27909">
        <ele>270.2</ele>
        <time>2012-02-26T08:35:21Z</time>
      </trkpt>
      <trkpt lat="50.36838" lon="4.27898">
        <ele>268.1</ele>
        <time>2012-02-26T08:35:36Z</time>
      </trkpt>
      <trkpt lat="50.36842" lon="4.2789">
        <ele>269.2</ele>
        <time>2012-02-26T08:35:39Z</time>
      </trkpt>
      <trkpt lat="50.36843" lon="4.27883">
        <ele>270.4</ele>
        <time>2012-02-26T08:35:41Z</time>
      </trkpt>
      <trkpt lat="50.36844" lon="4.27873">
        <ele>268.4</ele>
        <time>2012-02-26T08:35:46Z</time>
      </trkpt>
      <trkpt lat="50.36851" lon="4.27875">
        <ele>262.1</ele>
        <time>2012-02-26T08:35:47Z</time>
      </trkpt>
      <trkpt lat="50.36855" lon="4.27871">
        <ele>258.8</ele>
        <time>2012-02-26T08:35:50Z</time>
      </trkpt>
      <trkpt lat="50.36858" lon="4.27865">
        <ele>256</ele>
        <time>2012-02-26T08:35:54Z</time>
      </trkpt>
      <trkpt lat="50.3686" lon="4.27858">
        <ele>254.2</ele>
        <time>2012-02-26T08:35:57Z</time>
      </trkpt>
      <trkpt lat="50.36862" lon="4.27852">
        <ele>252.5</ele>
        <time>2012-02-26T08:36:10Z</time>
      </trkpt>
      <trkpt lat="50.36864" lon="4.27845">
        <ele>253.3</ele>
        <time>2012-02-26T08:36:15Z</time>
      </trkpt>
      <trkpt lat="50.36866" lon="4.27836">
        <ele>250.5</ele>
        <time>2012-02-26T08:36:19Z</time>
      </trkpt>
      <trkpt lat="50.36868" lon="4.27829">
        <ele>251.4</ele>
        <time>2012-02-26T08:36:25Z</time>
      </trkpt>
      <trkpt lat="50.3687" lon="4.27822">
        <ele>248.6</ele>
        <time>2012-02-26T08:36:29Z</time>
      </trkpt>
      <trkpt lat="50.36875" lon="4.27821">
        <ele>246.6</ele>
        <time>2012-02-26T08:36:36Z</time>
      </trkpt>
      <trkpt lat="50.3688" lon="4.27823">
        <ele>244.3</ele>
        <time>2012-02-26T08:36:52Z</time>
      </trkpt>
      <trkpt lat="50.36885" lon="4.27824">
        <ele>243</ele>
        <time>2012-02-26T08:36:57Z</time>
      </trkpt>
      <trkpt lat="50.3689" lon="4.27829">
        <ele>242.4</ele>
        <time>2012-02-26T08:36:59Z</time>
      </trkpt>
      <trkpt lat="50.36895" lon="4.27831">
        <ele>242</ele>
        <time>2012-02-26T08:37:02Z</time>
      </trkpt>
      <trkpt lat="50.369" lon="4.27832">
        <ele>242.1</ele>
        <time>2012-02-26T08:37:05Z</time>
      </trkpt>
      <trkpt lat="50.36905" lon="4.27835">
        <ele>242</ele>
        <time>2012-02-26T08:37:08Z</time>
      </trkpt>
      <trkpt lat="50.36913" lon="4.27838">
        <ele>240.9</ele>
        <time>2012-02-26T08:37:11Z</time>
      </trkpt>
      <trkpt lat="50.36919" lon="4.2784">
        <ele>241.2</ele>
        <time>2012-02-26T08:37:14Z</time>
      </trkpt>
      <trkpt lat="50.36924" lon="4.27833">
        <ele>241.8</ele>
        <time>2012-02-26T08:37:18Z</time>
      </trkpt>
      <trkpt lat="50.36928" lon="4.27835">
        <ele>243.6</ele>
        <time>2012-02-26T08:37:20Z</time>
      </trkpt>
      <trkpt lat="50.36934" lon="4.2784">
        <ele>244.4</ele>
        <time>2012-02-26T08:37:23Z</time>
      </trkpt>
      <trkpt lat="50.36938" lon="4.27839">
        <ele>243.5</ele>
        <time>2012-02-26T08:37:26Z</time>
      </trkpt>
      <trkpt lat="50.36942" lon="4.27845">
        <ele>240.7</ele>
        <time>2012-02-26T08:37:29Z</time>
      </trkpt>
      <trkpt lat="50.36941" lon="4.27854">
        <ele>239.3</ele>
        <time>2012-02-26T08:37:31Z</time>
      </trkpt>
      <trkpt lat="50.36941" lon="4.27862">
        <ele>237.8</ele>
        <time>2012-02-26T08:37:33Z</time>
      </trkpt>
      <trkpt lat="50.36941" lon="4.2787">
        <ele>238.7</ele>
        <time>2012-02-26T08:37:35Z</time>
      </trkpt>
      <trkpt lat="50.36941" lon="4.27878">
        <ele>238.1</ele>
        <time>2012-02-26T08:37:37Z</time>
      </trkpt>
      <trkpt lat="50.36941" lon="4.27886">
        <ele>237.5</ele>
        <time>2012-02-26T08:37:40Z</time>
      </trkpt>
      <trkpt lat="50.3694" lon="4.279">
        <ele>236.6</ele>
        <time>2012-02-26T08:37:42Z</time>
      </trkpt>
      <trkpt lat="50.36941" lon="4.27908">
        <ele>238.8</ele>
        <time>2012-02-26T08:37:44Z</time>
      </trkpt>
      <trkpt lat="50.36942" lon="4.27918">
        <ele>237.7</ele>
        <time>2012-02-26T08:37:46Z</time>
      </trkpt>
      <trkpt lat="50.36943" lon="4.27928">
        <ele>237.7</ele>
        <time>2012-02-26T08:37:48Z</time>
      </trkpt>
      <trkpt lat="50.36943" lon="4.27941">
        <ele>238.3</ele>
        <time>2012-02-26T08:37:50Z</time>
      </trkpt>
      <trkpt lat="50.36945" lon="4.27947">
        <ele>240.8</ele>
        <time>2012-02-26T08:37:52Z</time>
      </trkpt>
      <trkpt lat="50.36943" lon="4.27955">
        <ele>241.6</ele>
        <time>2012-02-26T08:37:54Z</time>
      </trkpt>
      <trkpt lat="50.36947" lon="4.27966">
        <ele>242.7</ele>
        <time>2012-02-26T08:37:56Z</time>
      </trkpt>
      <trkpt lat="50.36944" lon="4.27973">
        <ele>243.5</ele>
        <time>2012-02-26T08:37:57Z</time>
      </trkpt>
      <trkpt lat="50.36945" lon="4.27988">
        <ele>243.2</ele>
        <time>2012-02-26T08:37:59Z</time>
      </trkpt>
      <trkpt lat="50.36947" lon="4.28004">
        <ele>241.5</ele>
        <time>2012-02-26T08:38:00Z</time>
      </trkpt>
      <trkpt lat="50.36947" lon="4.28016">
        <ele>244.9</ele>
        <time>2012-02-26T08:38:02Z</time>
      </trkpt>
      <trkpt lat="50.36947" lon="4.28026">
        <ele>247.4</ele>
        <time>2012-02-26T08:38:04Z</time>
      </trkpt>
      <trkpt lat="50.36946" lon="4.28039">
        <ele>247.1</ele>
        <time>2012-02-26T08:38:05Z</time>
      </trkpt>
      <trkpt lat="50.36949" lon="4.28051">
        <ele>249.8</ele>
        <time>2012-02-26T08:38:08Z</time>
      </trkpt>
      <trkpt lat="50.3695" lon="4.28064">
        <ele>249</ele>
        <time>2012-02-26T08:38:10Z</time>
      </trkpt>
      <trkpt lat="50.36949" lon="4.28073">
        <ele>248.2</ele>
        <time>2012-02-26T08:38:11Z</time>
      </trkpt>
      <trkpt lat="50.3695" lon="4.28085">
        <ele>247.1</ele>
        <time>2012-02-26T08:38:12Z</time>
      </trkpt>
      <trkpt lat="50.3695" lon="4.28094">
        <ele>248.5</ele>
        <time>2012-02-26T08:38:13Z</time>
      </trkpt>
      <trkpt lat="50.3695" lon="4.28101">
        <ele>248.1</ele>
        <time>2012-02-26T08:38:14Z</time>
      </trkpt>
      <trkpt lat="50.36949" lon="4.2811">
        <ele>247.7</ele>
        <time>2012-02-26T08:38:15Z</time>
      </trkpt>
      <trkpt lat="50.36948" lon="4.28118">
        <ele>246.6</ele>
        <time>2012-02-26T08:38:16Z</time>
      </trkpt>
      <trkpt lat="50.36946" lon="4.28127">
        <ele>247.9</ele>
        <time>2012-02-26T08:38:17Z</time>
      </trkpt>
      <trkpt lat="50.36945" lon="4.28135">
        <ele>248.3</ele>
        <time>2012-02-26T08:38:18Z</time>
      </trkpt>
      <trkpt lat="50.36944" lon="4.28143">
        <ele>247.6</ele>
        <time>2012-02-26T08:38:19Z</time>
      </trkpt>
      <trkpt lat="50.36944" lon="4.2815">
        <ele>247.8</ele>
        <time>2012-02-26T08:38:20Z</time>
      </trkpt>
      <trkpt lat="50.36944" lon="4.28159">
        <ele>247.5</ele>
        <time>2012-02-26T08:38:21Z</time>
      </trkpt>
      <trkpt lat="50.36945" lon="4.28173">
        <ele>247.4</ele>
        <time>2012-02-26T08:38:23Z</time>
      </trkpt>
      <trkpt lat="50.36945" lon="4.28182">
        <ele>246.4</ele>
        <time>2012-02-26T08:38:24Z</time>
      </trkpt>
      <trkpt lat="50.36945" lon="4.28197">
        <ele>245.1</ele>
        <time>2012-02-26T08:38:26Z</time>
      </trkpt>
      <trkpt lat="50.36943" lon="4.28205">
        <ele>244.6</ele>
        <time>2012-02-26T08:38:27Z</time>
      </trkpt>
      <trkpt lat="50.36941" lon="4.2822">
        <ele>244.4</ele>
        <time>2012-02-26T08:38:29Z</time>
      </trkpt>
      <trkpt lat="50.36939" lon="4.28227">
        <ele>243.6</ele>
        <time>2012-02-26T08:38:30Z</time>
      </trkpt>
      <trkpt lat="50.36939" lon="4.2824">
        <ele>243.8</ele>
        <time>2012-02-26T08:38:31Z</time>
      </trkpt>
      <trkpt lat="50.36942" lon="4.28249">
        <ele>244</ele>
        <time>2012-02-26T08:38:32Z</time>
      </trkpt>
      <trkpt lat="50.36948" lon="4.28242">
        <ele>241.6</ele>
        <time>2012-02-26T08:38:33Z</time>
      </trkpt>
      <trkpt lat="50.36946" lon="4.28249">
        <ele>241.7</ele>
        <time>2012-02-26T08:38:34Z</time>
      </trkpt>
      <trkpt lat="50.36949" lon="4.2826">
        <ele>240.3</ele>
        <time>2012-02-26T08:38:35Z</time>
      </trkpt>
      <trkpt lat="50.36951" lon="4.28269">
        <ele>240.8</ele>
        <time>2012-02-26T08:38:36Z</time>
      </trkpt>
      <trkpt lat="50.36953" lon="4.28281">
        <ele>239.7</ele>
        <time>2012-02-26T08:38:37Z</time>
      </trkpt>
      <trkpt lat="50.36959" lon="4.28289">
        <ele>239.7</ele>
        <time>2012-02-26T08:38:39Z</time>
      </trkpt>
      <trkpt lat="50.36962" lon="4.28298">
        <ele>241.2</ele>
        <time>2012-02-26T08:38:41Z</time>
      </trkpt>
      <trkpt lat="50.36966" lon="4.28306">
        <ele>242.4</ele>
        <time>2012-02-26T08:38:43Z</time>
      </trkpt>
      <trkpt lat="50.36969" lon="4.28312">
        <ele>242.5</ele>
        <time>2012-02-26T08:38:45Z</time>
      </trkpt>
      <trkpt lat="50.36975" lon="4.28319">
        <ele>244.6</ele>
        <time>2012-02-26T08:38:47Z</time>
      </trkpt>
      <trkpt lat="50.36982" lon="4.28326">
        <ele>242.6</ele>
        <time>2012-02-26T08:38:49Z</time>
      </trkpt>
      <trkpt lat="50.36986" lon="4.28333">
        <ele>242.8</ele>
        <time>2012-02-26T08:38:51Z</time>
      </trkpt>
      <trkpt lat="50.3699" lon="4.28338">
        <ele>244.8</ele>
        <time>2012-02-26T08:38:53Z</time>
      </trkpt>
      <trkpt lat="50.36995" lon="4.28342">
        <ele>243.6</ele>
        <time>2012-02-26T08:38:55Z</time>
      </trkpt>
      <trkpt lat="50.36999" lon="4.28348">
        <ele>243.4</ele>
        <time>2012-02-26T08:38:57Z</time>
      </trkpt>
      <trkpt lat="50.37003" lon="4.28353">
        <ele>242.8</ele>
        <time>2012-02-26T08:38:58Z</time>
      </trkpt>
      <trkpt lat="50.37006" lon="4.28359">
        <ele>242.7</ele>
        <time>2012-02-26T08:38:59Z</time>
      </trkpt>
      <trkpt lat="50.37014" lon="4.2837">
        <ele>242</ele>
        <time>2012-02-26T08:39:01Z</time>
      </trkpt>
      <trkpt lat="50.37018" lon="4.28377">
        <ele>240.8</ele>
        <time>2012-02-26T08:39:02Z</time>
      </trkpt>
      <trkpt lat="50.37023" lon="4.28383">
        <ele>240.4</ele>
        <time>2012-02-26T08:39:03Z</time>
      </trkpt>
      <trkpt lat="50.37029" lon="4.28398">
        <ele>239.7</ele>
        <time>2012-02-26T08:39:05Z</time>
      </trkpt>
      <trkpt lat="50.37033" lon="4.28405">
        <ele>238.4</ele>
        <time>2012-02-26T08:39:06Z</time>
      </trkpt>
      <trkpt lat="50.37036" lon="4.28411">
        <ele>237.7</ele>
        <time>2012-02-26T08:39:07Z</time>
      </trkpt>
      <trkpt lat="50.37038" lon="4.28419">
        <ele>237</ele>
        <time>2012-02-26T08:39:08Z</time>
      </trkpt>
      <trkpt lat="50.37042" lon="4.28426">
        <ele>235.3</ele>
        <time>2012-02-26T08:39:09Z</time>
      </trkpt>
      <trkpt lat="50.37047" lon="4.28435">
        <ele>234.5</ele>
        <time>2012-02-26T08:39:11Z</time>
      </trkpt>
      <trkpt lat="50.37051" lon="4.28447">
        <ele>233.5</ele>
        <time>2012-02-26T08:39:13Z</time>
      </trkpt>
      <trkpt lat="50.37053" lon="4.28455">
        <ele>235.9</ele>
        <time>2012-02-26T08:39:15Z</time>
      </trkpt>
      <trkpt lat="50.3706" lon="4.28462">
        <ele>237.2</ele>
        <time>2012-02-26T08:39:17Z</time>
      </trkpt>
      <trkpt lat="50.37066" lon="4.28464">
        <ele>235.8</ele>
        <time>2012-02-26T08:39:18Z</time>
      </trkpt>
      <trkpt lat="50.3707" lon="4.28467">
        <ele>235.6</ele>
        <time>2012-02-26T08:39:19Z</time>
      </trkpt>
      <trkpt lat="50.37076" lon="4.28474">
        <ele>236</ele>
        <time>2012-02-26T08:39:21Z</time>
      </trkpt>
      <trkpt lat="50.37081" lon="4.28476">
        <ele>234.8</ele>
        <time>2012-02-26T08:39:22Z</time>
      </trkpt>
      <trkpt lat="50.37088" lon="4.28481">
        <ele>232.9</ele>
        <time>2012-02-26T08:39:24Z</time>
      </trkpt>
      <trkpt lat="50.37096" lon="4.28483">
        <ele>233</ele>
        <time>2012-02-26T08:39:26Z</time>
      </trkpt>
      <trkpt lat="50.37102" lon="4.28483">
        <ele>236</ele>
        <time>2012-02-26T08:39:29Z</time>
      </trkpt>
      <trkpt lat="50.37108" lon="4.28488">
        <ele>235.1</ele>
        <time>2012-02-26T08:39:32Z</time>
      </trkpt>
      <trkpt lat="50.37109" lon="4.28495">
        <ele>231.9</ele>
        <time>2012-02-26T08:39:32Z</time>
      </trkpt>
      <trkpt lat="50.37114" lon="4.28496">
        <ele>230.4</ele>
        <time>2012-02-26T08:39:34Z</time>
      </trkpt>
      <trkpt lat="50.37118" lon="4.28498">
        <ele>231.6</ele>
        <time>2012-02-26T08:39:36Z</time>
      </trkpt>
      <trkpt lat="50.37124" lon="4.28495">
        <ele>235.1</ele>
        <time>2012-02-26T08:39:39Z</time>
      </trkpt>
      <trkpt lat="50.3713" lon="4.28492">
        <ele>234.7</ele>
        <time>2012-02-26T08:39:43Z</time>
      </trkpt>
      <trkpt lat="50.37134" lon="4.28489">
        <ele>230.5</ele>
        <time>2012-02-26T08:39:46Z</time>
      </trkpt>
      <trkpt lat="50.37138" lon="4.28483">
        <ele>231.1</ele>
        <time>2012-02-26T08:39:48Z</time>
      </trkpt>
      <trkpt lat="50.37142" lon="4.28478">
        <ele>231.2</ele>
        <time>2012-02-26T08:39:50Z</time>
      </trkpt>
      <trkpt lat="50.37146" lon="4.28473">
        <ele>232</ele>
        <time>2012-02-26T08:39:52Z</time>
      </trkpt>
      <trkpt lat="50.37148" lon="4.28466">
        <ele>234.2</ele>
        <time>2012-02-26T08:39:54Z</time>
      </trkpt>
      <trkpt lat="50.37152" lon="4.28461">
        <ele>233.8</ele>
        <time>2012-02-26T08:39:56Z</time>
      </trkpt>
      <trkpt lat="50.37155" lon="4.28456">
        <ele>234.8</ele>
        <time>2012-02-26T08:39:58Z</time>
      </trkpt>
      <trkpt lat="50.37161" lon="4.2845">
        <ele>235.7</ele>
        <time>2012-02-26T08:40:01Z</time>
      </trkpt>
      <trkpt lat="50.37166" lon="4.28442">
        <ele>234.1</ele>
        <time>2012-02-26T08:40:04Z</time>
      </trkpt>
      <trkpt lat="50.3717" lon="4.28437">
        <ele>234.5</ele>
        <time>2012-02-26T08:40:06Z</time>
      </trkpt>
      <trkpt lat="50.37175" lon="4.28431">
        <ele>233.7</ele>
        <time>2012-02-26T08:40:09Z</time>
      </trkpt>
      <trkpt lat="50.37178" lon="4.28427">
        <ele>232.6</ele>
        <time>2012-02-26T08:40:11Z</time>
      </trkpt>
      <trkpt lat="50.37184" lon="4.28422">
        <ele>233.7</ele>
        <time>2012-02-26T08:40:14Z</time>
      </trkpt>
      <trkpt lat="50.37187" lon="4.28417">
        <ele>232.8</ele>
        <time>2012-02-26T08:40:16Z</time>
      </trkpt>
      <trkpt lat="50.37191" lon="4.28412">
        <ele>231.6</ele>
        <time>2012-02-26T08:40:18Z</time>
      </trkpt>
      <trkpt lat="50.37196" lon="4.28408">
        <ele>231.9</ele>
        <time>2012-02-26T08:40:21Z</time>
      </trkpt>
      <trkpt lat="50.37202" lon="4.28401">
        <ele>231.2</ele>
        <time>2012-02-26T08:40:24Z</time>
      </trkpt>
      <trkpt lat="50.37206" lon="4.28393">
        <ele>231.6</ele>
        <time>2012-02-26T08:40:27Z</time>
      </trkpt>
      <trkpt lat="50.3721" lon="4.28388">
        <ele>230.3</ele>
        <time>2012-02-26T08:40:29Z</time>
      </trkpt>
      <trkpt lat="50.37214" lon="4.28382">
        <ele>231.2</ele>
        <time>2012-02-26T08:40:32Z</time>
      </trkpt>
      <trkpt lat="50.37219" lon="4.28378">
        <ele>231.7</ele>
        <time>2012-02-26T08:40:35Z</time>
      </trkpt>
      <trkpt lat="50.37222" lon="4.28372">
        <ele>232.4</ele>
        <time>2012-02-26T08:40:38Z</time>
      </trkpt>
      <trkpt lat="50.37226" lon="4.28364">
        <ele>233.2</ele>
        <time>2012-02-26T08:40:41Z</time>
      </trkpt>
      <trkpt lat="50.3723" lon="4.28358">
        <ele>232.4</ele>
        <time>2012-02-26T08:40:44Z</time>
      </trkpt>
      <trkpt lat="50.37234" lon="4.28352">
        <ele>231.4</ele>
        <time>2012-02-26T08:40:47Z</time>
      </trkpt>
      <trkpt lat="50.37238" lon="4.28346">
        <ele>231</ele>
        <time>2012-02-26T08:40:50Z</time>
      </trkpt>
      <trkpt lat="50.37241" lon="4.28338">
        <ele>229.9</ele>
        <time>2012-02-26T08:40:53Z</time>
      </trkpt>
      <trkpt lat="50.37244" lon="4.28331">
        <ele>229.8</ele>
        <time>2012-02-26T08:40:56Z</time>
      </trkpt>
      <trkpt lat="50.37248" lon="4.28324">
        <ele>230.3</ele>
        <time>2012-02-26T08:40:59Z</time>
      </trkpt>
      <trkpt lat="50.37251" lon="4.28316">
        <ele>228.3</ele>
        <time>2012-02-26T08:41:02Z</time>
      </trkpt>
      <trkpt lat="50.37254" lon="4.28308">
        <ele>227.6</ele>
        <time>2012-02-26T08:41:05Z</time>
      </trkpt>
      <trkpt lat="50.37256" lon="4.28299">
        <ele>227.6</ele>
        <time>2012-02-26T08:41:08Z</time>
      </trkpt>
      <trkpt lat="50.37258" lon="4.28293">
        <ele>229.6</ele>
        <time>2012-02-26T08:41:12Z</time>
      </trkpt>
      <trkpt lat="50.37261" lon="4.28287">
        <ele>229.6</ele>
        <time>2012-02-26T08:41:15Z</time>
      </trkpt>
      <trkpt lat="50.37263" lon="4.28277">
        <ele>231.9</ele>
        <time>2012-02-26T08:41:18Z</time>
      </trkpt>
      <trkpt lat="50.37264" lon="4.2827">
        <ele>232.7</ele>
        <time>2012-02-26T08:41:20Z</time>
      </trkpt>
      <trkpt lat="50.37267" lon="4.28262">
        <ele>232.1</ele>
        <time>2012-02-26T08:41:23Z</time>
      </trkpt>
      <trkpt lat="50.37267" lon="4.28255">
        <ele>234.6</ele>
        <time>2012-02-26T08:41:35Z</time>
      </trkpt>
      <trkpt lat="50.37269" lon="4.28247">
        <ele>235.8</ele>
        <time>2012-02-26T08:41:40Z</time>
      </trkpt>
      <trkpt lat="50.3727" lon="4.28238">
        <ele>237.5</ele>
        <time>2012-02-26T08:41:45Z</time>
      </trkpt>
      <trkpt lat="50.3727" lon="4.2823">
        <ele>245.2</ele>
        <time>2012-02-26T08:41:52Z</time>
      </trkpt>
      <trkpt lat="50.37274" lon="4.28225">
        <ele>246</ele>
        <time>2012-02-26T08:41:57Z</time>
      </trkpt>
      <trkpt lat="50.37277" lon="4.28218">
        <ele>246.6</ele>
        <time>2012-02-26T08:42:02Z</time>
      </trkpt>
      <trkpt lat="50.37279" lon="4.28209">
        <ele>250</ele>
        <time>2012-02-26T08:42:06Z</time>
      </trkpt>
      <trkpt lat="50.37282" lon="4.28203">
        <ele>251.6</ele>
        <time>2012-02-26T08:42:11Z</time>
      </trkpt>
      <trkpt lat="50.37284" lon="4.28194">
        <ele>252.7</ele>
        <time>2012-02-26T08:42:22Z</time>
      </trkpt>
      <trkpt lat="50.37285" lon="4.28187">
        <ele>255.5</ele>
        <time>2012-02-26T08:42:25Z</time>
      </trkpt>
      <trkpt lat="50.37289" lon="4.28181">
        <ele>255.1</ele>
        <time>2012-02-26T08:42:29Z</time>
      </trkpt>
      <trkpt lat="50.37291" lon="4.28175">
        <ele>254.1</ele>
        <time>2012-02-26T08:42:33Z</time>
      </trkpt>
      <trkpt lat="50.37293" lon="4.28168">
        <ele>254.7</ele>
        <time>2012-02-26T08:42:36Z</time>
      </trkpt>
      <trkpt lat="50.37293" lon="4.2816">
        <ele>257</ele>
        <time>2012-02-26T08:42:44Z</time>
      </trkpt>
      <trkpt lat="50.37293" lon="4.28152">
        <ele>257.8</ele>
        <time>2012-02-26T08:42:48Z</time>
      </trkpt>
      <trkpt lat="50.37294" lon="4.28143">
        <ele>257.9</ele>
        <time>2012-02-26T08:42:54Z</time>
      </trkpt>
      <trkpt lat="50.37299" lon="4.28143">
        <ele>254.3</ele>
        <time>2012-02-26T08:42:57Z</time>
      </trkpt>
      <trkpt lat="50.37301" lon="4.28135">
        <ele>253.3</ele>
        <time>2012-02-26T08:43:00Z</time>
      </trkpt>
      <trkpt lat="50.37303" lon="4.28126">
        <ele>254.1</ele>
        <time>2012-02-26T08:43:04Z</time>
      </trkpt>
      <trkpt lat="50.37304" lon="4.28117">
        <ele>262.4</ele>
        <time>2012-02-26T08:43:09Z</time>
      </trkpt>
      <trkpt lat="50.37307" lon="4.28112">
        <ele>262.9</ele>
        <time>2012-02-26T08:43:13Z</time>
      </trkpt>
      <trkpt lat="50.37308" lon="4.28102">
        <ele>263.4</ele>
        <time>2012-02-26T08:43:17Z</time>
      </trkpt>
      <trkpt lat="50.37312" lon="4.28098">
        <ele>264.2</ele>
        <time>2012-02-26T08:43:21Z</time>
      </trkpt>
      <trkpt lat="50.37317" lon="4.28094">
        <ele>263.4</ele>
        <time>2012-02-26T08:43:26Z</time>
      </trkpt>
      <trkpt lat="50.37318" lon="4.28086">
        <ele>262.1</ele>
        <time>2012-02-26T08:43:29Z</time>
      </trkpt>
      <trkpt lat="50.3732" lon="4.2808">
        <ele>260.2</ele>
        <time>2012-02-26T08:43:32Z</time>
      </trkpt>
      <trkpt lat="50.37323" lon="4.28071">
        <ele>260.4</ele>
        <time>2012-02-26T08:44:05Z</time>
      </trkpt>
      <trkpt lat="50.37325" lon="4.28064">
        <ele>258.8</ele>
        <time>2012-02-26T08:44:07Z</time>
      </trkpt>
      <trkpt lat="50.37329" lon="4.28057">
        <ele>257.9</ele>
        <time>2012-02-26T08:44:10Z</time>
      </trkpt>
      <trkpt lat="50.37329" lon="4.2803">
        <ele>257.7</ele>
        <time>2012-02-26T08:44:14Z</time>
      </trkpt>
      <trkpt lat="50.37332" lon="4.28025">
        <ele>258.7</ele>
        <time>2012-02-26T08:44:17Z</time>
      </trkpt>
      <trkpt lat="50.37336" lon="4.2802">
        <ele>257.6</ele>
        <time>2012-02-26T08:44:20Z</time>
      </trkpt>
      <trkpt lat="50.37336" lon="4.28012">
        <ele>257.6</ele>
        <time>2012-02-26T08:44:23Z</time>
      </trkpt>
      <trkpt lat="50.37341" lon="4.28006">
        <ele>258.8</ele>
        <time>2012-02-26T08:44:27Z</time>
      </trkpt>
      <trkpt lat="50.37345" lon="4.28002">
        <ele>261.5</ele>
        <time>2012-02-26T08:44:32Z</time>
      </trkpt>
      <trkpt lat="50.37347" lon="4.27995">
        <ele>260.8</ele>
        <time>2012-02-26T08:44:35Z</time>
      </trkpt>
      <trkpt lat="50.37352" lon="4.27994">
        <ele>258.3</ele>
        <time>2012-02-26T08:44:37Z</time>
      </trkpt>
      <trkpt lat="50.37358" lon="4.27993">
        <ele>256.2</ele>
        <time>2012-02-26T08:44:41Z</time>
      </trkpt>
      <trkpt lat="50.37359" lon="4.27984">
        <ele>254.6</ele>
        <time>2012-02-26T08:47:08Z</time>
      </trkpt>
      <trkpt lat="50.37361" lon="4.27976">
        <ele>248.4</ele>
        <time>2012-02-26T08:48:00Z</time>
      </trkpt>
      <trkpt lat="50.37364" lon="4.27971">
        <ele>245.5</ele>
        <time>2012-02-26T08:48:19Z</time>
      </trkpt>
      <trkpt lat="50.37367" lon="4.27962">
        <ele>243</ele>
        <time>2012-02-26T08:48:23Z</time>
      </trkpt>
      <trkpt lat="50.37368" lon="4.27954">
        <ele>243.7</ele>
        <time>2012-02-26T08:48:26Z</time>
      </trkpt>
      <trkpt lat="50.37369" lon="4.27947">
        <ele>243.4</ele>
        <time>2012-02-26T08:48:28Z</time>
      </trkpt>
      <trkpt lat="50.37372" lon="4.27936">
        <ele>238.9</ele>
        <time>2012-02-26T08:48:31Z</time>
      </trkpt>
      <trkpt lat="50.37373" lon="4.27927">
        <ele>236.9</ele>
        <time>2012-02-26T08:48:33Z</time>
      </trkpt>
      <trkpt lat="50.37375" lon="4.2792">
        <ele>236.1</ele>
        <time>2012-02-26T08:48:35Z</time>
      </trkpt>
      <trkpt lat="50.37378" lon="4.27911">
        <ele>235.5</ele>
        <time>2012-02-26T08:48:37Z</time>
      </trkpt>
      <trkpt lat="50.3738" lon="4.27903">
        <ele>235.4</ele>
        <time>2012-02-26T08:48:39Z</time>
      </trkpt>
      <trkpt lat="50.37383" lon="4.27894">
        <ele>236</ele>
        <time>2012-02-26T08:48:42Z</time>
      </trkpt>
      <trkpt lat="50.37386" lon="4.27887">
        <ele>235.9</ele>
        <time>2012-02-26T08:48:44Z</time>
      </trkpt>
      <trkpt lat="50.37388" lon="4.2788">
        <ele>236.5</ele>
        <time>2012-02-26T08:48:46Z</time>
      </trkpt>
      <trkpt lat="50.37391" lon="4.27871">
        <ele>236.8</ele>
        <time>2012-02-26T08:48:48Z</time>
      </trkpt>
      <trkpt lat="50.37393" lon="4.27862">
        <ele>235.9</ele>
        <time>2012-02-26T08:48:50Z</time>
      </trkpt>
      <trkpt lat="50.37396" lon="4.27854">
        <ele>237</ele>
        <time>2012-02-26T08:48:52Z</time>
      </trkpt>
      <trkpt lat="50.37398" lon="4.27845">
        <ele>238</ele>
        <time>2012-02-26T08:48:54Z</time>
      </trkpt>
      <trkpt lat="50.37399" lon="4.27837">
        <ele>238</ele>
        <time>2012-02-26T08:48:56Z</time>
      </trkpt>
      <trkpt lat="50.37402" lon="4.2783">
        <ele>237.6</ele>
        <time>2012-02-26T08:48:58Z</time>
      </trkpt>
      <trkpt lat="50.37404" lon="4.2782">
        <ele>237.7</ele>
        <time>2012-02-26T08:49:00Z</time>
      </trkpt>
      <trkpt lat="50.37408" lon="4.27812">
        <ele>238.1</ele>
        <time>2012-02-26T08:49:02Z</time>
      </trkpt>
      <trkpt lat="50.37412" lon="4.27802">
        <ele>238.9</ele>
        <time>2012-02-26T08:49:04Z</time>
      </trkpt>
      <trkpt lat="50.37415" lon="4.27793">
        <ele>239</ele>
        <time>2012-02-26T08:49:06Z</time>
      </trkpt>
      <trkpt lat="50.37418" lon="4.27782">
        <ele>239.5</ele>
        <time>2012-02-26T08:49:09Z</time>
      </trkpt>
      <trkpt lat="50.3742" lon="4.27775">
        <ele>240.2</ele>
        <time>2012-02-26T08:49:11Z</time>
      </trkpt>
      <trkpt lat="50.37423" lon="4.27768">
        <ele>240.4</ele>
        <time>2012-02-26T08:49:13Z</time>
      </trkpt>
      <trkpt lat="50.37426" lon="4.27759">
        <ele>240.3</ele>
        <time>2012-02-26T08:49:15Z</time>
      </trkpt>
      <trkpt lat="50.37429" lon="4.27749">
        <ele>240</ele>
        <time>2012-02-26T08:49:17Z</time>
      </trkpt>
      <trkpt lat="50.37431" lon="4.2774">
        <ele>240.6</ele>
        <time>2012-02-26T08:49:19Z</time>
      </trkpt>
      <trkpt lat="50.37434" lon="4.27731">
        <ele>240.5</ele>
        <time>2012-02-26T08:49:21Z</time>
      </trkpt>
      <trkpt lat="50.37437" lon="4.27723">
        <ele>239.8</ele>
        <time>2012-02-26T08:49:23Z</time>
      </trkpt>
      <trkpt lat="50.37439" lon="4.27713">
        <ele>239.6</ele>
        <time>2012-02-26T08:49:25Z</time>
      </trkpt>
      <trkpt lat="50.37442" lon="4.27704">
        <ele>239.4</ele>
        <time>2012-02-26T08:49:27Z</time>
      </trkpt>
      <trkpt lat="50.37446" lon="4.27695">
        <ele>238.9</ele>
        <time>2012-02-26T08:49:29Z</time>
      </trkpt>
      <trkpt lat="50.37448" lon="4.27687">
        <ele>239</ele>
        <time>2012-02-26T08:49:31Z</time>
      </trkpt>
      <trkpt lat="50.37451" lon="4.2768">
        <ele>239.8</ele>
        <time>2012-02-26T08:49:33Z</time>
      </trkpt>
      <trkpt lat="50.37454" lon="4.27673">
        <ele>239.6</ele>
        <time>2012-02-26T08:49:35Z</time>
      </trkpt>
      <trkpt lat="50.37456" lon="4.27666">
        <ele>239.6</ele>
        <time>2012-02-26T08:49:37Z</time>
      </trkpt>
      <trkpt lat="50.37458" lon="4.27659">
        <ele>240.6</ele>
        <time>2012-02-26T08:49:39Z</time>
      </trkpt>
      <trkpt lat="50.3746" lon="4.27651">
        <ele>240.4</ele>
        <time>2012-02-26T08:49:46Z</time>
      </trkpt>
      <trkpt lat="50.37461" lon="4.27643">
        <ele>239.6</ele>
        <time>2012-02-26T08:49:48Z</time>
      </trkpt>
      <trkpt lat="50.37463" lon="4.27633">
        <ele>239.1</ele>
        <time>2012-02-26T08:49:50Z</time>
      </trkpt>
      <trkpt lat="50.37465" lon="4.27623">
        <ele>239.4</ele>
        <time>2012-02-26T08:49:52Z</time>
      </trkpt>
      <trkpt lat="50.37466" lon="4.27613">
        <ele>239.6</ele>
        <time>2012-02-26T08:49:54Z</time>
      </trkpt>
      <trkpt lat="50.37468" lon="4.27605">
        <ele>239.6</ele>
        <time>2012-02-26T08:49:56Z</time>
      </trkpt>
      <trkpt lat="50.37469" lon="4.27596">
        <ele>239.8</ele>
        <time>2012-02-26T08:49:58Z</time>
      </trkpt>
      <trkpt lat="50.37471" lon="4.27586">
        <ele>240.8</ele>
        <time>2012-02-26T08:50:00Z</time>
      </trkpt>
      <trkpt lat="50.37472" lon="4.27576">
        <ele>240.3</ele>
        <time>2012-02-26T08:50:02Z</time>
      </trkpt>
      <trkpt lat="50.37474" lon="4.27565">
        <ele>240.5</ele>
        <time>2012-02-26T08:50:04Z</time>
      </trkpt>
      <trkpt lat="50.37475" lon="4.27556">
        <ele>240.4</ele>
        <time>2012-02-26T08:50:06Z</time>
      </trkpt>
      <trkpt lat="50.37476" lon="4.27547">
        <ele>240.7</ele>
        <time>2012-02-26T08:50:08Z</time>
      </trkpt>
      <trkpt lat="50.37478" lon="4.27538">
        <ele>240.6</ele>
        <time>2012-02-26T08:50:10Z</time>
      </trkpt>
      <trkpt lat="50.37479" lon="4.27528">
        <ele>240.6</ele>
        <time>2012-02-26T08:50:12Z</time>
      </trkpt>
      <trkpt lat="50.3748" lon="4.27518">
        <ele>240.4</ele>
        <time>2012-02-26T08:50:14Z</time>
      </trkpt>
      <trkpt lat="50.37481" lon="4.27508">
        <ele>239.8</ele>
        <time>2012-02-26T08:50:16Z</time>
      </trkpt>
      <trkpt lat="50.37483" lon="4.27499">
        <ele>239.3</ele>
        <time>2012-02-26T08:50:18Z</time>
      </trkpt>
      <trkpt lat="50.37484" lon="4.27489">
        <ele>239</ele>
        <time>2012-02-26T08:50:20Z</time>
      </trkpt>
      <trkpt lat="50.37485" lon="4.2748">
        <ele>239</ele>
        <time>2012-02-26T08:50:22Z</time>
      </trkpt>
      <trkpt lat="50.37484" lon="4.27471">
        <ele>238.9</ele>
        <time>2012-02-26T08:50:24Z</time>
      </trkpt>
      <trkpt lat="50.3748" lon="4.27467">
        <ele>239</ele>
        <time>2012-02-26T08:50:26Z</time>
      </trkpt>
      <trkpt lat="50.37475" lon="4.27465">
        <ele>239.5</ele>
        <time>2012-02-26T08:50:28Z</time>
      </trkpt>
      <trkpt lat="50.37469" lon="4.27462">
        <ele>239.5</ele>
        <time>2012-02-26T08:50:30Z</time>
      </trkpt>
      <trkpt lat="50.37463" lon="4.2746">
        <ele>239.9</ele>
        <time>2012-02-26T08:50:31Z</time>
      </trkpt>
      <trkpt lat="50.37459" lon="4.27455">
        <ele>238.9</ele>
        <time>2012-02-26T08:50:33Z</time>
      </trkpt>
      <trkpt lat="50.37451" lon="4.27455">
        <ele>239.6</ele>
        <time>2012-02-26T08:50:35Z</time>
      </trkpt>
      <trkpt lat="50.37445" lon="4.27458">
        <ele>240.7</ele>
        <time>2012-02-26T08:50:37Z</time>
      </trkpt>
      <trkpt lat="50.37438" lon="4.27455">
        <ele>241.5</ele>
        <time>2012-02-26T08:50:39Z</time>
      </trkpt>
      <trkpt lat="50.37431" lon="4.27452">
        <ele>241.3</ele>
        <time>2012-02-26T08:50:41Z</time>
      </trkpt>
      <trkpt lat="50.37424" lon="4.2745">
        <ele>241.9</ele>
        <time>2012-02-26T08:50:43Z</time>
      </trkpt>
      <trkpt lat="50.37417" lon="4.27448">
        <ele>242.4</ele>
        <time>2012-02-26T08:50:45Z</time>
      </trkpt>
      <trkpt lat="50.37412" lon="4.27445">
        <ele>242.3</ele>
        <time>2012-02-26T08:50:47Z</time>
      </trkpt>
      <trkpt lat="50.37404" lon="4.27442">
        <ele>242.5</ele>
        <time>2012-02-26T08:50:49Z</time>
      </trkpt>
      <trkpt lat="50.37397" lon="4.2744">
        <ele>242.3</ele>
        <time>2012-02-26T08:50:51Z</time>
      </trkpt>
      <trkpt lat="50.37391" lon="4.27437">
        <ele>241.9</ele>
        <time>2012-02-26T08:50:53Z</time>
      </trkpt>
      <trkpt lat="50.37386" lon="4.27435">
        <ele>241.1</ele>
        <time>2012-02-26T08:50:54Z</time>
      </trkpt>
      <trkpt lat="50.3738" lon="4.27434">
        <ele>240.7</ele>
        <time>2012-02-26T08:50:56Z</time>
      </trkpt>
      <trkpt lat="50.37373" lon="4.2743">
        <ele>241.3</ele>
        <time>2012-02-26T08:50:58Z</time>
      </trkpt>
      <trkpt lat="50.37366" lon="4.27428">
        <ele>241.3</ele>
        <time>2012-02-26T08:51:00Z</time>
      </trkpt>
      <trkpt lat="50.3736" lon="4.27426">
        <ele>241.2</ele>
        <time>2012-02-26T08:51:02Z</time>
      </trkpt>
      <trkpt lat="50.37354" lon="4.27423">
        <ele>241</ele>
        <time>2012-02-26T08:51:04Z</time>
      </trkpt>
      <trkpt lat="50.37347" lon="4.2742">
        <ele>240.9</ele>
        <time>2012-02-26T08:51:06Z</time>
      </trkpt>
      <trkpt lat="50.3734" lon="4.27417">
        <ele>242.5</ele>
        <time>2012-02-26T08:51:08Z</time>
      </trkpt>
      <trkpt lat="50.37333" lon="4.27415">
        <ele>242.3</ele>
        <time>2012-02-26T08:51:10Z</time>
      </trkpt>
      <trkpt lat="50.37328" lon="4.27414">
        <ele>242.2</ele>
        <time>2012-02-26T08:51:12Z</time>
      </trkpt>
      <trkpt lat="50.37322" lon="4.27412">
        <ele>242.2</ele>
        <time>2012-02-26T08:51:14Z</time>
      </trkpt>
      <trkpt lat="50.37316" lon="4.2741">
        <ele>242.6</ele>
        <time>2012-02-26T08:51:15Z</time>
      </trkpt>
      <trkpt lat="50.37308" lon="4.27406">
        <ele>241.3</ele>
        <time>2012-02-26T08:51:17Z</time>
      </trkpt>
      <trkpt lat="50.373" lon="4.27404">
        <ele>241.2</ele>
        <time>2012-02-26T08:51:19Z</time>
      </trkpt>
      <trkpt lat="50.37292" lon="4.27401">
        <ele>241.5</ele>
        <time>2012-02-26T08:51:21Z</time>
      </trkpt>
      <trkpt lat="50.37284" lon="4.27398">
        <ele>240.9</ele>
        <time>2012-02-26T08:51:23Z</time>
      </trkpt>
      <trkpt lat="50.37276" lon="4.27396">
        <ele>240.3</ele>
        <time>2012-02-26T08:51:25Z</time>
      </trkpt>
      <trkpt lat="50.37271" lon="4.27394">
        <ele>240.1</ele>
        <time>2012-02-26T08:51:26Z</time>
      </trkpt>
      <trkpt lat="50.37264" lon="4.27392">
        <ele>240</ele>
        <time>2012-02-26T08:51:28Z</time>
      </trkpt>
      <trkpt lat="50.37255" lon="4.27389">
        <ele>241.5</ele>
        <time>2012-02-26T08:51:30Z</time>
      </trkpt>
      <trkpt lat="50.37247" lon="4.27387">
        <ele>241.5</ele>
        <time>2012-02-26T08:51:32Z</time>
      </trkpt>
      <trkpt lat="50.3724" lon="4.27383">
        <ele>241.3</ele>
        <time>2012-02-26T08:51:33Z</time>
      </trkpt>
      <trkpt lat="50.37234" lon="4.27377">
        <ele>242.1</ele>
        <time>2012-02-26T08:51:35Z</time>
      </trkpt>
      <trkpt lat="50.37229" lon="4.27375">
        <ele>242.2</ele>
        <time>2012-02-26T08:51:36Z</time>
      </trkpt>
      <trkpt lat="50.37223" lon="4.27375">
        <ele>241.5</ele>
        <time>2012-02-26T08:51:37Z</time>
      </trkpt>
      <trkpt lat="50.37217" lon="4.27373">
        <ele>241.7</ele>
        <time>2012-02-26T08:51:39Z</time>
      </trkpt>
      <trkpt lat="50.37209" lon="4.27371">
        <ele>241.4</ele>
        <time>2012-02-26T08:51:40Z</time>
      </trkpt>
      <trkpt lat="50.37202" lon="4.27368">
        <ele>241.3</ele>
        <time>2012-02-26T08:51:42Z</time>
      </trkpt>
      <trkpt lat="50.37193" lon="4.27365">
        <ele>241.7</ele>
        <time>2012-02-26T08:51:44Z</time>
      </trkpt>
      <trkpt lat="50.37188" lon="4.27362">
        <ele>241.4</ele>
        <time>2012-02-26T08:51:45Z</time>
      </trkpt>
      <trkpt lat="50.37182" lon="4.2736">
        <ele>239.9</ele>
        <time>2012-02-26T08:51:46Z</time>
      </trkpt>
      <trkpt lat="50.37177" lon="4.27357">
        <ele>239.4</ele>
        <time>2012-02-26T08:51:47Z</time>
      </trkpt>
      <trkpt lat="50.37173" lon="4.27356">
        <ele>239.3</ele>
        <time>2012-02-26T08:51:48Z</time>
      </trkpt>
      <trkpt lat="50.37168" lon="4.27354">
        <ele>239.8</ele>
        <time>2012-02-26T08:51:49Z</time>
      </trkpt>
      <trkpt lat="50.37163" lon="4.27352">
        <ele>239.3</ele>
        <time>2012-02-26T08:51:50Z</time>
      </trkpt>
      <trkpt lat="50.37158" lon="4.27351">
        <ele>239.5</ele>
        <time>2012-02-26T08:51:51Z</time>
      </trkpt>
      <trkpt lat="50.37154" lon="4.27349">
        <ele>239.5</ele>
        <time>2012-02-26T08:51:52Z</time>
      </trkpt>
      <trkpt lat="50.37146" lon="4.27347">
        <ele>239.5</ele>
        <time>2012-02-26T08:51:54Z</time>
      </trkpt>
      <trkpt lat="50.37142" lon="4.27344">
        <ele>238.9</ele>
        <time>2012-02-26T08:51:55Z</time>
      </trkpt>
      <trkpt lat="50.37134" lon="4.27342">
        <ele>238.5</ele>
        <time>2012-02-26T08:51:57Z</time>
      </trkpt>
      <trkpt lat="50.37126" lon="4.27342">
        <ele>238.8</ele>
        <time>2012-02-26T08:51:59Z</time>
      </trkpt>
      <trkpt lat="50.37121" lon="4.27339">
        <ele>238.4</ele>
        <time>2012-02-26T08:52:00Z</time>
      </trkpt>
      <trkpt lat="50.37116" lon="4.27338">
        <ele>237.6</ele>
        <time>2012-02-26T08:52:01Z</time>
      </trkpt>
      <trkpt lat="50.37112" lon="4.27336">
        <ele>237.9</ele>
        <time>2012-02-26T08:52:02Z</time>
      </trkpt>
      <trkpt lat="50.37107" lon="4.27334">
        <ele>238</ele>
        <time>2012-02-26T08:52:03Z</time>
      </trkpt>
      <trkpt lat="50.37102" lon="4.27332">
        <ele>238.1</ele>
        <time>2012-02-26T08:52:04Z</time>
      </trkpt>
      <trkpt lat="50.37093" lon="4.27329">
        <ele>237.9</ele>
        <time>2012-02-26T08:52:06Z</time>
      </trkpt>
      <trkpt lat="50.37089" lon="4.27327">
        <ele>238</ele>
        <time>2012-02-26T08:52:07Z</time>
      </trkpt>
      <trkpt lat="50.37081" lon="4.27324">
        <ele>238.3</ele>
        <time>2012-02-26T08:52:08Z</time>
      </trkpt>
      <trkpt lat="50.37072" lon="4.2732">
        <ele>238.5</ele>
        <time>2012-02-26T08:52:10Z</time>
      </trkpt>
      <trkpt lat="50.37064" lon="4.27317">
        <ele>238.7</ele>
        <time>2012-02-26T08:52:12Z</time>
      </trkpt>
      <trkpt lat="50.37055" lon="4.27313">
        <ele>239.1</ele>
        <time>2012-02-26T08:52:14Z</time>
      </trkpt>
      <trkpt lat="50.37051" lon="4.27311">
        <ele>239.5</ele>
        <time>2012-02-26T08:52:15Z</time>
      </trkpt>
      <trkpt lat="50.37042" lon="4.27307">
        <ele>239.7</ele>
        <time>2012-02-26T08:52:17Z</time>
      </trkpt>
      <trkpt lat="50.37032" lon="4.27303">
        <ele>240.8</ele>
        <time>2012-02-26T08:52:20Z</time>
      </trkpt>
      <trkpt lat="50.37024" lon="4.273">
        <ele>240.9</ele>
        <time>2012-02-26T08:52:22Z</time>
      </trkpt>
      <trkpt lat="50.37016" lon="4.27298">
        <ele>240.6</ele>
        <time>2012-02-26T08:52:24Z</time>
      </trkpt>
      <trkpt lat="50.37008" lon="4.27295">
        <ele>241.3</ele>
        <time>2012-02-26T08:52:26Z</time>
      </trkpt>
      <trkpt lat="50.37" lon="4.27292">
        <ele>240.8</ele>
        <time>2012-02-26T08:52:28Z</time>
      </trkpt>
      <trkpt lat="50.36992" lon="4.27288">
        <ele>240.8</ele>
        <time>2012-02-26T08:52:30Z</time>
      </trkpt>
      <trkpt lat="50.36986" lon="4.27285">
        <ele>240.7</ele>
        <time>2012-02-26T08:52:31Z</time>
      </trkpt>
      <trkpt lat="50.3698" lon="4.27285">
        <ele>241</ele>
        <time>2012-02-26T08:52:33Z</time>
      </trkpt>
      <trkpt lat="50.36972" lon="4.27282">
        <ele>241.2</ele>
        <time>2012-02-26T08:52:35Z</time>
      </trkpt>
      <trkpt lat="50.36965" lon="4.27279">
        <ele>241.2</ele>
        <time>2012-02-26T08:52:37Z</time>
      </trkpt>
      <trkpt lat="50.36957" lon="4.27275">
        <ele>240.9</ele>
        <time>2012-02-26T08:52:39Z</time>
      </trkpt>
      <trkpt lat="50.36948" lon="4.27273">
        <ele>241.5</ele>
        <time>2012-02-26T08:52:41Z</time>
      </trkpt>
      <trkpt lat="50.3694" lon="4.2727">
        <ele>241.7</ele>
        <time>2012-02-26T08:52:43Z</time>
      </trkpt>
      <trkpt lat="50.36932" lon="4.27266">
        <ele>241.6</ele>
        <time>2012-02-26T08:52:45Z</time>
      </trkpt>
      <trkpt lat="50.36924" lon="4.27263">
        <ele>242.8</ele>
        <time>2012-02-26T08:52:47Z</time>
      </trkpt>
      <trkpt lat="50.36916" lon="4.2726">
        <ele>242.7</ele>
        <time>2012-02-26T08:52:49Z</time>
      </trkpt>
      <trkpt lat="50.36909" lon="4.27257">
        <ele>243.6</ele>
        <time>2012-02-26T08:52:51Z</time>
      </trkpt>
      <trkpt lat="50.36902" lon="4.27258">
        <ele>244.4</ele>
        <time>2012-02-26T08:52:53Z</time>
      </trkpt>
      <trkpt lat="50.36896" lon="4.27255">
        <ele>244.4</ele>
        <time>2012-02-26T08:52:55Z</time>
      </trkpt>
      <trkpt lat="50.36889" lon="4.27254">
        <ele>245.6</ele>
        <time>2012-02-26T08:52:57Z</time>
      </trkpt>
      <trkpt lat="50.36883" lon="4.27254">
        <ele>246.3</ele>
        <time>2012-02-26T08:52:59Z</time>
      </trkpt>
      <trkpt lat="50.36877" lon="4.27252">
        <ele>246.2</ele>
        <time>2012-02-26T08:53:01Z</time>
      </trkpt>
      <trkpt lat="50.36868" lon="4.27248">
        <ele>246.5</ele>
        <time>2012-02-26T08:53:03Z</time>
      </trkpt>
      <trkpt lat="50.36861" lon="4.27248">
        <ele>247</ele>
        <time>2012-02-26T08:53:05Z</time>
      </trkpt>
      <trkpt lat="50.36854" lon="4.27246">
        <ele>247.3</ele>
        <time>2012-02-26T08:53:07Z</time>
      </trkpt>
      <trkpt lat="50.36848" lon="4.27242">
        <ele>246</ele>
        <time>2012-02-26T08:53:08Z</time>
      </trkpt>
      <trkpt lat="50.36843" lon="4.27237">
        <ele>245.7</ele>
        <time>2012-02-26T08:53:09Z</time>
      </trkpt>
      <trkpt lat="50.36833" lon="4.2723">
        <ele>245.7</ele>
        <time>2012-02-26T08:53:11Z</time>
      </trkpt>
      <trkpt lat="50.36825" lon="4.27225">
        <ele>245.3</ele>
        <time>2012-02-26T08:53:13Z</time>
      </trkpt>
      <trkpt lat="50.36817" lon="4.27224">
        <ele>246.3</ele>
        <time>2012-02-26T08:53:15Z</time>
      </trkpt>
      <trkpt lat="50.36812" lon="4.27222">
        <ele>246.2</ele>
        <time>2012-02-26T08:53:16Z</time>
      </trkpt>
      <trkpt lat="50.36808" lon="4.2722">
        <ele>246.2</ele>
        <time>2012-02-26T08:53:17Z</time>
      </trkpt>
      <trkpt lat="50.36803" lon="4.27218">
        <ele>246.1</ele>
        <time>2012-02-26T08:53:18Z</time>
      </trkpt>
      <trkpt lat="50.36795" lon="4.27215">
        <ele>246.2</ele>
        <time>2012-02-26T08:53:20Z</time>
      </trkpt>
      <trkpt lat="50.36789" lon="4.27213">
        <ele>244.2</ele>
        <time>2012-02-26T08:53:21Z</time>
      </trkpt>
      <trkpt lat="50.36782" lon="4.27211">
        <ele>243.8</ele>
        <time>2012-02-26T08:53:23Z</time>
      </trkpt>
      <trkpt lat="50.36776" lon="4.27207">
        <ele>243.4</ele>
        <time>2012-02-26T08:53:25Z</time>
      </trkpt>
      <trkpt lat="50.36774" lon="4.27194">
        <ele>243</ele>
        <time>2012-02-26T08:53:27Z</time>
      </trkpt>
      <trkpt lat="50.36772" lon="4.27187">
        <ele>242.6</ele>
        <time>2012-02-26T08:53:28Z</time>
      </trkpt>
      <trkpt lat="50.36771" lon="4.2718">
        <ele>242.6</ele>
        <time>2012-02-26T08:53:29Z</time>
      </trkpt>
      <trkpt lat="50.36768" lon="4.27165">
        <ele>243</ele>
        <time>2012-02-26T08:53:31Z</time>
      </trkpt>
      <trkpt lat="50.36766" lon="4.27151">
        <ele>241.2</ele>
        <time>2012-02-26T08:53:33Z</time>
      </trkpt>
      <trkpt lat="50.36765" lon="4.27144">
        <ele>241.1</ele>
        <time>2012-02-26T08:53:34Z</time>
      </trkpt>
      <trkpt lat="50.36765" lon="4.27136">
        <ele>240.8</ele>
        <time>2012-02-26T08:53:35Z</time>
      </trkpt>
      <trkpt lat="50.36764" lon="4.27129">
        <ele>240.7</ele>
        <time>2012-02-26T08:53:36Z</time>
      </trkpt>
      <trkpt lat="50.36763" lon="4.27122">
        <ele>240.4</ele>
        <time>2012-02-26T08:53:37Z</time>
      </trkpt>
      <trkpt lat="50.36762" lon="4.27109">
        <ele>239.7</ele>
        <time>2012-02-26T08:53:39Z</time>
      </trkpt>
      <trkpt lat="50.36759" lon="4.27099">
        <ele>239.7</ele>
        <time>2012-02-26T08:53:41Z</time>
      </trkpt>
      <trkpt lat="50.36753" lon="4.27093">
        <ele>239.1</ele>
        <time>2012-02-26T08:53:43Z</time>
      </trkpt>
      <trkpt lat="50.36745" lon="4.2709">
        <ele>238.6</ele>
        <time>2012-02-26T08:53:45Z</time>
      </trkpt>
      <trkpt lat="50.36737" lon="4.27087">
        <ele>238.1</ele>
        <time>2012-02-26T08:53:46Z</time>
      </trkpt>
      <trkpt lat="50.36733" lon="4.27086">
        <ele>238.2</ele>
        <time>2012-02-26T08:53:47Z</time>
      </trkpt>
      <trkpt lat="50.36725" lon="4.27085">
        <ele>238.1</ele>
        <time>2012-02-26T08:53:49Z</time>
      </trkpt>
      <trkpt lat="50.36719" lon="4.27083">
        <ele>237.9</ele>
        <time>2012-02-26T08:53:50Z</time>
      </trkpt>
      <trkpt lat="50.36713" lon="4.27081">
        <ele>238</ele>
        <time>2012-02-26T08:53:51Z</time>
      </trkpt>
      <trkpt lat="50.36709" lon="4.27081">
        <ele>237.8</ele>
        <time>2012-02-26T08:53:52Z</time>
      </trkpt>
      <trkpt lat="50.36704" lon="4.2708">
        <ele>237.6</ele>
        <time>2012-02-26T08:53:53Z</time>
      </trkpt>
      <trkpt lat="50.367" lon="4.27076">
        <ele>237.3</ele>
        <time>2012-02-26T08:53:54Z</time>
      </trkpt>
      <trkpt lat="50.36695" lon="4.27076">
        <ele>237.4</ele>
        <time>2012-02-26T08:53:55Z</time>
      </trkpt>
      <trkpt lat="50.3669" lon="4.27074">
        <ele>237.1</ele>
        <time>2012-02-26T08:53:56Z</time>
      </trkpt>
      <trkpt lat="50.36685" lon="4.27072">
        <ele>236.8</ele>
        <time>2012-02-26T08:53:57Z</time>
      </trkpt>
      <trkpt lat="50.3668" lon="4.2707">
        <ele>236.6</ele>
        <time>2012-02-26T08:53:58Z</time>
      </trkpt>
      <trkpt lat="50.36675" lon="4.27069">
        <ele>236.3</ele>
        <time>2012-02-26T08:53:59Z</time>
      </trkpt>
      <trkpt lat="50.3667" lon="4.27067">
        <ele>235.9</ele>
        <time>2012-02-26T08:54:00Z</time>
      </trkpt>
      <trkpt lat="50.36664" lon="4.27065">
        <ele>235.7</ele>
        <time>2012-02-26T08:54:01Z</time>
      </trkpt>
      <trkpt lat="50.36659" lon="4.27063">
        <ele>235.7</ele>
        <time>2012-02-26T08:54:02Z</time>
      </trkpt>
      <trkpt lat="50.36653" lon="4.2706">
        <ele>235.4</ele>
        <time>2012-02-26T08:54:03Z</time>
      </trkpt>
      <trkpt lat="50.36647" lon="4.27058">
        <ele>235.3</ele>
        <time>2012-02-26T08:54:04Z</time>
      </trkpt>
      <trkpt lat="50.36642" lon="4.27057">
        <ele>235.3</ele>
        <time>2012-02-26T08:54:05Z</time>
      </trkpt>
      <trkpt lat="50.36636" lon="4.27056">
        <ele>234.9</ele>
        <time>2012-02-26T08:54:06Z</time>
      </trkpt>
      <trkpt lat="50.3663" lon="4.27053">
        <ele>234.9</ele>
        <time>2012-02-26T08:54:07Z</time>
      </trkpt>
      <trkpt lat="50.36625" lon="4.27052">
        <ele>234.8</ele>
        <time>2012-02-26T08:54:08Z</time>
      </trkpt>
      <trkpt lat="50.36619" lon="4.2705">
        <ele>234.9</ele>
        <time>2012-02-26T08:54:09Z</time>
      </trkpt>
      <trkpt lat="50.36614" lon="4.27048">
        <ele>234.7</ele>
        <time>2012-02-26T08:54:10Z</time>
      </trkpt>
      <trkpt lat="50.36608" lon="4.27046">
        <ele>234.6</ele>
        <time>2012-02-26T08:54:11Z</time>
      </trkpt>
      <trkpt lat="50.36602" lon="4.27044">
        <ele>234.5</ele>
        <time>2012-02-26T08:54:12Z</time>
      </trkpt>
      <trkpt lat="50.36596" lon="4.27042">
        <ele>234.3</ele>
        <time>2012-02-26T08:54:13Z</time>
      </trkpt>
      <trkpt lat="50.36587" lon="4.2704">
        <ele>234.7</ele>
        <time>2012-02-26T08:54:15Z</time>
      </trkpt>
      <trkpt lat="50.36581" lon="4.27038">
        <ele>234.8</ele>
        <time>2012-02-26T08:54:16Z</time>
      </trkpt>
      <trkpt lat="50.36575" lon="4.27036">
        <ele>234.5</ele>
        <time>2012-02-26T08:54:17Z</time>
      </trkpt>
      <trkpt lat="50.36569" lon="4.27034">
        <ele>234.2</ele>
        <time>2012-02-26T08:54:18Z</time>
      </trkpt>
      <trkpt lat="50.36563" lon="4.27032">
        <ele>234</ele>
        <time>2012-02-26T08:54:19Z</time>
      </trkpt>
      <trkpt lat="50.36557" lon="4.27031">
        <ele>233.9</ele>
        <time>2012-02-26T08:54:20Z</time>
      </trkpt>
      <trkpt lat="50.36551" lon="4.2703">
        <ele>233.7</ele>
        <time>2012-02-26T08:54:21Z</time>
      </trkpt>
      <trkpt lat="50.3654" lon="4.27029">
        <ele>233.2</ele>
        <time>2012-02-26T08:54:23Z</time>
      </trkpt>
      <trkpt lat="50.36535" lon="4.27028">
        <ele>232.8</ele>
        <time>2012-02-26T08:54:24Z</time>
      </trkpt>
      <trkpt lat="50.36529" lon="4.27027">
        <ele>233</ele>
        <time>2012-02-26T08:54:25Z</time>
      </trkpt>
      <trkpt lat="50.36524" lon="4.27027">
        <ele>233.3</ele>
        <time>2012-02-26T08:54:26Z</time>
      </trkpt>
      <trkpt lat="50.36518" lon="4.27025">
        <ele>233.5</ele>
        <time>2012-02-26T08:54:27Z</time>
      </trkpt>
      <trkpt lat="50.36512" lon="4.27025">
        <ele>233.8</ele>
        <time>2012-02-26T08:54:28Z</time>
      </trkpt>
      <trkpt lat="50.36505" lon="4.27023">
        <ele>233</ele>
        <time>2012-02-26T08:54:29Z</time>
      </trkpt>
      <trkpt lat="50.36499" lon="4.27022">
        <ele>233.1</ele>
        <time>2012-02-26T08:54:30Z</time>
      </trkpt>
      <trkpt lat="50.36493" lon="4.2702">
        <ele>233.3</ele>
        <time>2012-02-26T08:54:31Z</time>
      </trkpt>
      <trkpt lat="50.36487" lon="4.27019">
        <ele>233.1</ele>
        <time>2012-02-26T08:54:32Z</time>
      </trkpt>
      <trkpt lat="50.3648" lon="4.27018">
        <ele>232.8</ele>
        <time>2012-02-26T08:54:33Z</time>
      </trkpt>
      <trkpt lat="50.36474" lon="4.27016">
        <ele>232.6</ele>
        <time>2012-02-26T08:54:34Z</time>
      </trkpt>
      <trkpt lat="50.36468" lon="4.27015">
        <ele>232.3</ele>
        <time>2012-02-26T08:54:35Z</time>
      </trkpt>
      <trkpt lat="50.36462" lon="4.27015">
        <ele>232.4</ele>
        <time>2012-02-26T08:54:36Z</time>
      </trkpt>
      <trkpt lat="50.36456" lon="4.27014">
        <ele>232.7</ele>
        <time>2012-02-26T08:54:37Z</time>
      </trkpt>
      <trkpt lat="50.36446" lon="4.27011">
        <ele>231.9</ele>
        <time>2012-02-26T08:54:39Z</time>
      </trkpt>
      <trkpt lat="50.36434" lon="4.2701">
        <ele>231.7</ele>
        <time>2012-02-26T08:54:41Z</time>
      </trkpt>
      <trkpt lat="50.36429" lon="4.2701">
        <ele>231.8</ele>
        <time>2012-02-26T08:54:42Z</time>
      </trkpt>
      <trkpt lat="50.36419" lon="4.27008">
        <ele>231.7</ele>
        <time>2012-02-26T08:54:44Z</time>
      </trkpt>
      <trkpt lat="50.36414" lon="4.27008">
        <ele>232.5</ele>
        <time>2012-02-26T08:54:45Z</time>
      </trkpt>
      <trkpt lat="50.36409" lon="4.27006">
        <ele>232.8</ele>
        <time>2012-02-26T08:54:46Z</time>
      </trkpt>
      <trkpt lat="50.36404" lon="4.27006">
        <ele>233.1</ele>
        <time>2012-02-26T08:54:47Z</time>
      </trkpt>
      <trkpt lat="50.36399" lon="4.27005">
        <ele>232.5</ele>
        <time>2012-02-26T08:54:48Z</time>
      </trkpt>
      <trkpt lat="50.36394" lon="4.27005">
        <ele>232.5</ele>
        <time>2012-02-26T08:54:49Z</time>
      </trkpt>
      <trkpt lat="50.36386" lon="4.27006">
        <ele>233.2</ele>
        <time>2012-02-26T08:54:51Z</time>
      </trkpt>
      <trkpt lat="50.36381" lon="4.27006">
        <ele>233.6</ele>
        <time>2012-02-26T08:54:52Z</time>
      </trkpt>
      <trkpt lat="50.36376" lon="4.27006">
        <ele>234.2</ele>
        <time>2012-02-26T08:54:53Z</time>
      </trkpt>
      <trkpt lat="50.3637" lon="4.27005">
        <ele>233.9</ele>
        <time>2012-02-26T08:54:54Z</time>
      </trkpt>
      <trkpt lat="50.36366" lon="4.27005">
        <ele>233.9</ele>
        <time>2012-02-26T08:54:55Z</time>
      </trkpt>
      <trkpt lat="50.36361" lon="4.27004">
        <ele>233.9</ele>
        <time>2012-02-26T08:54:56Z</time>
      </trkpt>
      <trkpt lat="50.36352" lon="4.27002">
        <ele>233.8</ele>
        <time>2012-02-26T08:54:58Z</time>
      </trkpt>
      <trkpt lat="50.36345" lon="4.27001">
        <ele>233.4</ele>
        <time>2012-02-26T08:54:59Z</time>
      </trkpt>
      <trkpt lat="50.3634" lon="4.27002">
        <ele>233.3</ele>
        <time>2012-02-26T08:55:00Z</time>
      </trkpt>
      <trkpt lat="50.36329" lon="4.26999">
        <ele>233</ele>
        <time>2012-02-26T08:55:03Z</time>
      </trkpt>
      <trkpt lat="50.36325" lon="4.26996">
        <ele>232.6</ele>
        <time>2012-02-26T08:55:04Z</time>
      </trkpt>
      <trkpt lat="50.36316" lon="4.26991">
        <ele>232.1</ele>
        <time>2012-02-26T08:55:06Z</time>
      </trkpt>
      <trkpt lat="50.36311" lon="4.26987">
        <ele>231.2</ele>
        <time>2012-02-26T08:55:07Z</time>
      </trkpt>
      <trkpt lat="50.36307" lon="4.26983">
        <ele>232</ele>
        <time>2012-02-26T08:55:08Z</time>
      </trkpt>
      <trkpt lat="50.36299" lon="4.26977">
        <ele>231.7</ele>
        <time>2012-02-26T08:55:10Z</time>
      </trkpt>
      <trkpt lat="50.36295" lon="4.26973">
        <ele>232.1</ele>
        <time>2012-02-26T08:55:11Z</time>
      </trkpt>
      <trkpt lat="50.36288" lon="4.26965">
        <ele>231.9</ele>
        <time>2012-02-26T08:55:12Z</time>
      </trkpt>
      <trkpt lat="50.36279" lon="4.26954">
        <ele>231.4</ele>
        <time>2012-02-26T08:55:15Z</time>
      </trkpt>
      <trkpt lat="50.36276" lon="4.26949">
        <ele>231.5</ele>
        <time>2012-02-26T08:55:16Z</time>
      </trkpt>
      <trkpt lat="50.36271" lon="4.26943">
        <ele>231.3</ele>
        <time>2012-02-26T08:55:17Z</time>
      </trkpt>
      <trkpt lat="50.36267" lon="4.26937">
        <ele>231.2</ele>
        <time>2012-02-26T08:55:18Z</time>
      </trkpt>
      <trkpt lat="50.36263" lon="4.26932">
        <ele>230.9</ele>
        <time>2012-02-26T08:55:19Z</time>
      </trkpt>
      <trkpt lat="50.36256" lon="4.26921">
        <ele>231.3</ele>
        <time>2012-02-26T08:55:21Z</time>
      </trkpt>
      <trkpt lat="50.36252" lon="4.26917">
        <ele>230.8</ele>
        <time>2012-02-26T08:55:22Z</time>
      </trkpt>
      <trkpt lat="50.36247" lon="4.2691">
        <ele>230.8</ele>
        <time>2012-02-26T08:55:23Z</time>
      </trkpt>
      <trkpt lat="50.36244" lon="4.26905">
        <ele>230.9</ele>
        <time>2012-02-26T08:55:24Z</time>
      </trkpt>
      <trkpt lat="50.36235" lon="4.26896">
        <ele>231</ele>
        <time>2012-02-26T08:55:26Z</time>
      </trkpt>
      <trkpt lat="50.36232" lon="4.26891">
        <ele>231.1</ele>
        <time>2012-02-26T08:55:27Z</time>
      </trkpt>
      <trkpt lat="50.36227" lon="4.26886">
        <ele>230.4</ele>
        <time>2012-02-26T08:55:28Z</time>
      </trkpt>
      <trkpt lat="50.36223" lon="4.2688">
        <ele>230.3</ele>
        <time>2012-02-26T08:55:29Z</time>
      </trkpt>
      <trkpt lat="50.36219" lon="4.26874">
        <ele>230.6</ele>
        <time>2012-02-26T08:55:30Z</time>
      </trkpt>
      <trkpt lat="50.36211" lon="4.26863">
        <ele>230.5</ele>
        <time>2012-02-26T08:55:31Z</time>
      </trkpt>
      <trkpt lat="50.36207" lon="4.26858">
        <ele>230.4</ele>
        <time>2012-02-26T08:55:32Z</time>
      </trkpt>
      <trkpt lat="50.36202" lon="4.26851">
        <ele>229.9</ele>
        <time>2012-02-26T08:55:34Z</time>
      </trkpt>
      <trkpt lat="50.36198" lon="4.26846">
        <ele>229.6</ele>
        <time>2012-02-26T08:55:35Z</time>
      </trkpt>
      <trkpt lat="50.36194" lon="4.26839">
        <ele>230.5</ele>
        <time>2012-02-26T08:55:36Z</time>
      </trkpt>
      <trkpt lat="50.36189" lon="4.26833">
        <ele>230.4</ele>
        <time>2012-02-26T08:55:37Z</time>
      </trkpt>
      <trkpt lat="50.36184" lon="4.26828">
        <ele>230.2</ele>
        <time>2012-02-26T08:55:38Z</time>
      </trkpt>
      <trkpt lat="50.3618" lon="4.26822">
        <ele>229.8</ele>
        <time>2012-02-26T08:55:39Z</time>
      </trkpt>
      <trkpt lat="50.36172" lon="4.26809">
        <ele>228.4</ele>
        <time>2012-02-26T08:55:41Z</time>
      </trkpt>
      <trkpt lat="50.36168" lon="4.26806">
        <ele>228.1</ele>
        <time>2012-02-26T08:55:42Z</time>
      </trkpt>
      <trkpt lat="50.36164" lon="4.268">
        <ele>228</ele>
        <time>2012-02-26T08:55:43Z</time>
      </trkpt>
      <trkpt lat="50.36161" lon="4.26794">
        <ele>227.5</ele>
        <time>2012-02-26T08:55:44Z</time>
      </trkpt>
      <trkpt lat="50.36156" lon="4.26787">
        <ele>226.7</ele>
        <time>2012-02-26T08:55:46Z</time>
      </trkpt>
      <trkpt lat="50.36149" lon="4.26779">
        <ele>227.8</ele>
        <time>2012-02-26T08:55:48Z</time>
      </trkpt>
      <trkpt lat="50.36145" lon="4.26774">
        <ele>228.3</ele>
        <time>2012-02-26T08:55:49Z</time>
      </trkpt>
      <trkpt lat="50.36141" lon="4.26769">
        <ele>228.1</ele>
        <time>2012-02-26T08:55:50Z</time>
      </trkpt>
      <trkpt lat="50.36134" lon="4.26759">
        <ele>228.5</ele>
        <time>2012-02-26T08:55:52Z</time>
      </trkpt>
      <trkpt lat="50.3613" lon="4.26755">
        <ele>228.8</ele>
        <time>2012-02-26T08:55:53Z</time>
      </trkpt>
      <trkpt lat="50.36126" lon="4.26749">
        <ele>228.6</ele>
        <time>2012-02-26T08:55:54Z</time>
      </trkpt>
      <trkpt lat="50.36123" lon="4.26744">
        <ele>227.8</ele>
        <time>2012-02-26T08:55:55Z</time>
      </trkpt>
      <trkpt lat="50.36118" lon="4.26739">
        <ele>227.5</ele>
        <time>2012-02-26T08:55:56Z</time>
      </trkpt>
      <trkpt lat="50.36114" lon="4.26735">
        <ele>227.2</ele>
        <time>2012-02-26T08:55:57Z</time>
      </trkpt>
      <trkpt lat="50.36108" lon="4.26726">
        <ele>227.2</ele>
        <time>2012-02-26T08:55:59Z</time>
      </trkpt>
      <trkpt lat="50.36104" lon="4.26721">
        <ele>226.9</ele>
        <time>2012-02-26T08:56:00Z</time>
      </trkpt>
      <trkpt lat="50.36098" lon="4.26712">
        <ele>226.5</ele>
        <time>2012-02-26T08:56:02Z</time>
      </trkpt>
      <trkpt lat="50.3609" lon="4.26702">
        <ele>225.9</ele>
        <time>2012-02-26T08:56:04Z</time>
      </trkpt>
      <trkpt lat="50.36087" lon="4.26697">
        <ele>225.6</ele>
        <time>2012-02-26T08:56:05Z</time>
      </trkpt>
      <trkpt lat="50.36084" lon="4.26692">
        <ele>225.8</ele>
        <time>2012-02-26T08:56:06Z</time>
      </trkpt>
      <trkpt lat="50.3608" lon="4.26686">
        <ele>225.4</ele>
        <time>2012-02-26T08:56:07Z</time>
      </trkpt>
      <trkpt lat="50.36076" lon="4.26681">
        <ele>225.6</ele>
        <time>2012-02-26T08:56:08Z</time>
      </trkpt>
      <trkpt lat="50.36073" lon="4.26677">
        <ele>225.5</ele>
        <time>2012-02-26T08:56:09Z</time>
      </trkpt>
      <trkpt lat="50.36065" lon="4.26669">
        <ele>225.7</ele>
        <time>2012-02-26T08:56:11Z</time>
      </trkpt>
      <trkpt lat="50.36058" lon="4.26662">
        <ele>226.1</ele>
        <time>2012-02-26T08:56:13Z</time>
      </trkpt>
      <trkpt lat="50.36052" lon="4.26655">
        <ele>227.2</ele>
        <time>2012-02-26T08:56:15Z</time>
      </trkpt>
      <trkpt lat="50.36045" lon="4.26647">
        <ele>227</ele>
        <time>2012-02-26T08:56:17Z</time>
      </trkpt>
      <trkpt lat="50.36038" lon="4.26639">
        <ele>226.6</ele>
        <time>2012-02-26T08:56:19Z</time>
      </trkpt>
      <trkpt lat="50.36033" lon="4.26635">
        <ele>226.1</ele>
        <time>2012-02-26T08:56:20Z</time>
      </trkpt>
      <trkpt lat="50.36028" lon="4.26633">
        <ele>225.1</ele>
        <time>2012-02-26T08:56:21Z</time>
      </trkpt>
      <trkpt lat="50.36024" lon="4.26627">
        <ele>224.8</ele>
        <time>2012-02-26T08:56:22Z</time>
      </trkpt>
      <trkpt lat="50.36016" lon="4.2662">
        <ele>225.4</ele>
        <time>2012-02-26T08:56:23Z</time>
      </trkpt>
      <trkpt lat="50.36012" lon="4.26616">
        <ele>224.7</ele>
        <time>2012-02-26T08:56:25Z</time>
      </trkpt>
      <trkpt lat="50.36005" lon="4.2661">
        <ele>225.1</ele>
        <time>2012-02-26T08:56:27Z</time>
      </trkpt>
      <trkpt lat="50.36" lon="4.26606">
        <ele>225.5</ele>
        <time>2012-02-26T08:56:28Z</time>
      </trkpt>
      <trkpt lat="50.35995" lon="4.26597">
        <ele>224.9</ele>
        <time>2012-02-26T08:56:30Z</time>
      </trkpt>
      <trkpt lat="50.35986" lon="4.26588">
        <ele>223.5</ele>
        <time>2012-02-26T08:56:32Z</time>
      </trkpt>
      <trkpt lat="50.3598" lon="4.26585">
        <ele>223.1</ele>
        <time>2012-02-26T08:56:34Z</time>
      </trkpt>
      <trkpt lat="50.35972" lon="4.26581">
        <ele>223.8</ele>
        <time>2012-02-26T08:56:36Z</time>
      </trkpt>
      <trkpt lat="50.35967" lon="4.26579">
        <ele>224.6</ele>
        <time>2012-02-26T08:56:37Z</time>
      </trkpt>
      <trkpt lat="50.35962" lon="4.26576">
        <ele>223.6</ele>
        <time>2012-02-26T08:56:38Z</time>
      </trkpt>
      <trkpt lat="50.35951" lon="4.26575">
        <ele>222.9</ele>
        <time>2012-02-26T08:56:40Z</time>
      </trkpt>
      <trkpt lat="50.35943" lon="4.26571">
        <ele>222.7</ele>
        <time>2012-02-26T08:56:42Z</time>
      </trkpt>
      <trkpt lat="50.35936" lon="4.26565">
        <ele>222.2</ele>
        <time>2012-02-26T08:56:44Z</time>
      </trkpt>
      <trkpt lat="50.35928" lon="4.26559">
        <ele>221.5</ele>
        <time>2012-02-26T08:56:46Z</time>
      </trkpt>
      <trkpt lat="50.35924" lon="4.26554">
        <ele>221.4</ele>
        <time>2012-02-26T08:56:48Z</time>
      </trkpt>
      <trkpt lat="50.3592" lon="4.26549">
        <ele>221.7</ele>
        <time>2012-02-26T08:56:49Z</time>
      </trkpt>
      <trkpt lat="50.3591" lon="4.26539">
        <ele>222.2</ele>
        <time>2012-02-26T08:56:52Z</time>
      </trkpt>
      <trkpt lat="50.35904" lon="4.26532">
        <ele>221.7</ele>
        <time>2012-02-26T08:56:54Z</time>
      </trkpt>
      <trkpt lat="50.35898" lon="4.26526">
        <ele>221.9</ele>
        <time>2012-02-26T08:56:56Z</time>
      </trkpt>
      <trkpt lat="50.35891" lon="4.2652">
        <ele>222.4</ele>
        <time>2012-02-26T08:56:58Z</time>
      </trkpt>
      <trkpt lat="50.35884" lon="4.26514">
        <ele>222.9</ele>
        <time>2012-02-26T08:57:00Z</time>
      </trkpt>
      <trkpt lat="50.35879" lon="4.26507">
        <ele>222.4</ele>
        <time>2012-02-26T08:57:02Z</time>
      </trkpt>
      <trkpt lat="50.35873" lon="4.26499">
        <ele>222.2</ele>
        <time>2012-02-26T08:57:04Z</time>
      </trkpt>
      <trkpt lat="50.35869" lon="4.26492">
        <ele>222.6</ele>
        <time>2012-02-26T08:57:06Z</time>
      </trkpt>
      <trkpt lat="50.35863" lon="4.26485">
        <ele>223.1</ele>
        <time>2012-02-26T08:57:08Z</time>
      </trkpt>
      <trkpt lat="50.35858" lon="4.26479">
        <ele>223.6</ele>
        <time>2012-02-26T08:57:10Z</time>
      </trkpt>
      <trkpt lat="50.35852" lon="4.26471">
        <ele>223.7</ele>
        <time>2012-02-26T08:57:12Z</time>
      </trkpt>
      <trkpt lat="50.35846" lon="4.26465">
        <ele>223.4</ele>
        <time>2012-02-26T08:57:14Z</time>
      </trkpt>
      <trkpt lat="50.3584" lon="4.26458">
        <ele>223.4</ele>
        <time>2012-02-26T08:57:16Z</time>
      </trkpt>
      <trkpt lat="50.35832" lon="4.26448">
        <ele>223.5</ele>
        <time>2012-02-26T08:57:18Z</time>
      </trkpt>
      <trkpt lat="50.35827" lon="4.26442">
        <ele>223.3</ele>
        <time>2012-02-26T08:57:20Z</time>
      </trkpt>
      <trkpt lat="50.3582" lon="4.26434">
        <ele>223</ele>
        <time>2012-02-26T08:57:22Z</time>
      </trkpt>
      <trkpt lat="50.35814" lon="4.26426">
        <ele>222.9</ele>
        <time>2012-02-26T08:57:24Z</time>
      </trkpt>
      <trkpt lat="50.35809" lon="4.26421">
        <ele>222.8</ele>
        <time>2012-02-26T08:57:26Z</time>
      </trkpt>
      <trkpt lat="50.35804" lon="4.26415">
        <ele>223</ele>
        <time>2012-02-26T08:57:28Z</time>
      </trkpt>
      <trkpt lat="50.35798" lon="4.2641">
        <ele>222.5</ele>
        <time>2012-02-26T08:57:30Z</time>
      </trkpt>
      <trkpt lat="50.35791" lon="4.26405">
        <ele>222.9</ele>
        <time>2012-02-26T08:57:32Z</time>
      </trkpt>
      <trkpt lat="50.35786" lon="4.26402">
        <ele>223.1</ele>
        <time>2012-02-26T08:57:33Z</time>
      </trkpt>
      <trkpt lat="50.35779" lon="4.26393">
        <ele>223.4</ele>
        <time>2012-02-26T08:57:35Z</time>
      </trkpt>
      <trkpt lat="50.35776" lon="4.26386">
        <ele>222.9</ele>
        <time>2012-02-26T08:57:36Z</time>
      </trkpt>
      <trkpt lat="50.35769" lon="4.26378">
        <ele>221.9</ele>
        <time>2012-02-26T08:57:38Z</time>
      </trkpt>
      <trkpt lat="50.35765" lon="4.26372">
        <ele>221.8</ele>
        <time>2012-02-26T08:57:39Z</time>
      </trkpt>
      <trkpt lat="50.35759" lon="4.26367">
        <ele>220.7</ele>
        <time>2012-02-26T08:57:41Z</time>
      </trkpt>
      <trkpt lat="50.35753" lon="4.26367">
        <ele>220.7</ele>
        <time>2012-02-26T08:57:43Z</time>
      </trkpt>
      <trkpt lat="50.35748" lon="4.26372">
        <ele>221.5</ele>
        <time>2012-02-26T08:57:45Z</time>
      </trkpt>
      <trkpt lat="50.35744" lon="4.26382">
        <ele>221.3</ele>
        <time>2012-02-26T08:57:47Z</time>
      </trkpt>
      <trkpt lat="50.35741" lon="4.2639">
        <ele>221.2</ele>
        <time>2012-02-26T08:57:49Z</time>
      </trkpt>
      <trkpt lat="50.35736" lon="4.26399">
        <ele>221.8</ele>
        <time>2012-02-26T08:57:51Z</time>
      </trkpt>
      <trkpt lat="50.35731" lon="4.26406">
        <ele>221.8</ele>
        <time>2012-02-26T08:57:53Z</time>
      </trkpt>
      <trkpt lat="50.35726" lon="4.26413">
        <ele>222.7</ele>
        <time>2012-02-26T08:57:55Z</time>
      </trkpt>
      <trkpt lat="50.3572" lon="4.26417">
        <ele>222.8</ele>
        <time>2012-02-26T08:57:57Z</time>
      </trkpt>
      <trkpt lat="50.35712" lon="4.2642">
        <ele>222.1</ele>
        <time>2012-02-26T08:57:59Z</time>
      </trkpt>
      <trkpt lat="50.35705" lon="4.26421">
        <ele>221.8</ele>
        <time>2012-02-26T08:58:01Z</time>
      </trkpt>
      <trkpt lat="50.35698" lon="4.26423">
        <ele>222.3</ele>
        <time>2012-02-26T08:58:03Z</time>
      </trkpt>
      <trkpt lat="50.3569" lon="4.26424">
        <ele>221.1</ele>
        <time>2012-02-26T08:58:05Z</time>
      </trkpt>
      <trkpt lat="50.35682" lon="4.26425">
        <ele>221.6</ele>
        <time>2012-02-26T08:58:07Z</time>
      </trkpt>
      <trkpt lat="50.35674" lon="4.26427">
        <ele>222</ele>
        <time>2012-02-26T08:58:09Z</time>
      </trkpt>
      <trkpt lat="50.35666" lon="4.26429">
        <ele>222.9</ele>
        <time>2012-02-26T08:58:11Z</time>
      </trkpt>
      <trkpt lat="50.35659" lon="4.2643">
        <ele>223.5</ele>
        <time>2012-02-26T08:58:13Z</time>
      </trkpt>
      <trkpt lat="50.35651" lon="4.26432">
        <ele>223.9</ele>
        <time>2012-02-26T08:58:15Z</time>
      </trkpt>
      <trkpt lat="50.35643" lon="4.26434">
        <ele>223.5</ele>
        <time>2012-02-26T08:58:17Z</time>
      </trkpt>
      <trkpt lat="50.35635" lon="4.26436">
        <ele>222.5</ele>
        <time>2012-02-26T08:58:19Z</time>
      </trkpt>
      <trkpt lat="50.35626" lon="4.26437">
        <ele>223</ele>
        <time>2012-02-26T08:58:21Z</time>
      </trkpt>
      <trkpt lat="50.35622" lon="4.26438">
        <ele>223</ele>
        <time>2012-02-26T08:58:22Z</time>
      </trkpt>
      <trkpt lat="50.35613" lon="4.26439">
        <ele>222.6</ele>
        <time>2012-02-26T08:58:24Z</time>
      </trkpt>
      <trkpt lat="50.35604" lon="4.26439">
        <ele>222.6</ele>
        <time>2012-02-26T08:58:26Z</time>
      </trkpt>
      <trkpt lat="50.35596" lon="4.26442">
        <ele>221.6</ele>
        <time>2012-02-26T08:58:28Z</time>
      </trkpt>
      <trkpt lat="50.35591" lon="4.26442">
        <ele>221.2</ele>
        <time>2012-02-26T08:58:29Z</time>
      </trkpt>
      <trkpt lat="50.35584" lon="4.26449">
        <ele>220.8</ele>
        <time>2012-02-26T08:58:31Z</time>
      </trkpt>
      <trkpt lat="50.35577" lon="4.2646">
        <ele>221.5</ele>
        <time>2012-02-26T08:58:33Z</time>
      </trkpt>
      <trkpt lat="50.35574" lon="4.26471">
        <ele>221.7</ele>
        <time>2012-02-26T08:58:35Z</time>
      </trkpt>
      <trkpt lat="50.35574" lon="4.26479">
        <ele>222.3</ele>
        <time>2012-02-26T08:58:36Z</time>
      </trkpt>
      <trkpt lat="50.35573" lon="4.26486">
        <ele>222.5</ele>
        <time>2012-02-26T08:58:37Z</time>
      </trkpt>
      <trkpt lat="50.35571" lon="4.26499">
        <ele>222.2</ele>
        <time>2012-02-26T08:58:39Z</time>
      </trkpt>
      <trkpt lat="50.35569" lon="4.26512">
        <ele>222.4</ele>
        <time>2012-02-26T08:58:41Z</time>
      </trkpt>
      <trkpt lat="50.35567" lon="4.26519">
        <ele>222.4</ele>
        <time>2012-02-26T08:58:42Z</time>
      </trkpt>
      <trkpt lat="50.35562" lon="4.2652">
        <ele>222.3</ele>
        <time>2012-02-26T08:58:43Z</time>
      </trkpt>
      <trkpt lat="50.35554" lon="4.26525">
        <ele>222.6</ele>
        <time>2012-02-26T08:58:45Z</time>
      </trkpt>
      <trkpt lat="50.35546" lon="4.2653">
        <ele>223.7</ele>
        <time>2012-02-26T08:58:47Z</time>
      </trkpt>
      <trkpt lat="50.35536" lon="4.26532">
        <ele>223.6</ele>
        <time>2012-02-26T08:58:49Z</time>
      </trkpt>
      <trkpt lat="50.35532" lon="4.26534">
        <ele>223.3</ele>
        <time>2012-02-26T08:58:50Z</time>
      </trkpt>
      <trkpt lat="50.35523" lon="4.26536">
        <ele>224</ele>
        <time>2012-02-26T08:58:52Z</time>
      </trkpt>
      <trkpt lat="50.35514" lon="4.26539">
        <ele>224.2</ele>
        <time>2012-02-26T08:58:54Z</time>
      </trkpt>
      <trkpt lat="50.35509" lon="4.2654">
        <ele>223.9</ele>
        <time>2012-02-26T08:58:55Z</time>
      </trkpt>
      <trkpt lat="50.35504" lon="4.26541">
        <ele>223.8</ele>
        <time>2012-02-26T08:58:56Z</time>
      </trkpt>
      <trkpt lat="50.355" lon="4.26542">
        <ele>224.1</ele>
        <time>2012-02-26T08:58:57Z</time>
      </trkpt>
      <trkpt lat="50.3549" lon="4.26545">
        <ele>224.7</ele>
        <time>2012-02-26T08:58:59Z</time>
      </trkpt>
      <trkpt lat="50.35486" lon="4.26546">
        <ele>225.1</ele>
        <time>2012-02-26T08:59:00Z</time>
      </trkpt>
      <trkpt lat="50.35481" lon="4.26549">
        <ele>224.1</ele>
        <time>2012-02-26T08:59:01Z</time>
      </trkpt>
      <trkpt lat="50.35475" lon="4.26551">
        <ele>223.9</ele>
        <time>2012-02-26T08:59:02Z</time>
      </trkpt>
      <trkpt lat="50.35471" lon="4.26553">
        <ele>224</ele>
        <time>2012-02-26T08:59:03Z</time>
      </trkpt>
      <trkpt lat="50.35466" lon="4.26556">
        <ele>224.3</ele>
        <time>2012-02-26T08:59:04Z</time>
      </trkpt>
      <trkpt lat="50.35461" lon="4.26558">
        <ele>224.4</ele>
        <time>2012-02-26T08:59:05Z</time>
      </trkpt>
      <trkpt lat="50.35456" lon="4.26561">
        <ele>225.1</ele>
        <time>2012-02-26T08:59:06Z</time>
      </trkpt>
      <trkpt lat="50.35451" lon="4.26563">
        <ele>225.4</ele>
        <time>2012-02-26T08:59:07Z</time>
      </trkpt>
      <trkpt lat="50.35446" lon="4.26565">
        <ele>225.6</ele>
        <time>2012-02-26T08:59:08Z</time>
      </trkpt>
      <trkpt lat="50.35438" lon="4.26569">
        <ele>226.3</ele>
        <time>2012-02-26T08:59:10Z</time>
      </trkpt>
      <trkpt lat="50.35433" lon="4.2657">
        <ele>226</ele>
        <time>2012-02-26T08:59:11Z</time>
      </trkpt>
      <trkpt lat="50.35428" lon="4.26573">
        <ele>226.2</ele>
        <time>2012-02-26T08:59:12Z</time>
      </trkpt>
      <trkpt lat="50.35423" lon="4.26575">
        <ele>225.8</ele>
        <time>2012-02-26T08:59:13Z</time>
      </trkpt>
      <trkpt lat="50.35418" lon="4.26576">
        <ele>225.6</ele>
        <time>2012-02-26T08:59:14Z</time>
      </trkpt>
      <trkpt lat="50.35412" lon="4.26578">
        <ele>225.7</ele>
        <time>2012-02-26T08:59:15Z</time>
      </trkpt>
      <trkpt lat="50.35407" lon="4.2658">
        <ele>225</ele>
        <time>2012-02-26T08:59:16Z</time>
      </trkpt>
      <trkpt lat="50.35402" lon="4.26582">
        <ele>224.5</ele>
        <time>2012-02-26T08:59:17Z</time>
      </trkpt>
      <trkpt lat="50.35398" lon="4.26584">
        <ele>224.4</ele>
        <time>2012-02-26T08:59:18Z</time>
      </trkpt>
      <trkpt lat="50.35393" lon="4.26586">
        <ele>224.4</ele>
        <time>2012-02-26T08:59:19Z</time>
      </trkpt>
      <trkpt lat="50.35388" lon="4.26587">
        <ele>224.2</ele>
        <time>2012-02-26T08:59:20Z</time>
      </trkpt>
      <trkpt lat="50.3538" lon="4.26592">
        <ele>223.4</ele>
        <time>2012-02-26T08:59:22Z</time>
      </trkpt>
      <trkpt lat="50.35371" lon="4.26595">
        <ele>223.4</ele>
        <time>2012-02-26T08:59:24Z</time>
      </trkpt>
      <trkpt lat="50.35366" lon="4.26597">
        <ele>223.5</ele>
        <time>2012-02-26T08:59:25Z</time>
      </trkpt>
      <trkpt lat="50.35362" lon="4.26599">
        <ele>223.3</ele>
        <time>2012-02-26T08:59:26Z</time>
      </trkpt>
      <trkpt lat="50.35357" lon="4.26601">
        <ele>223.3</ele>
        <time>2012-02-26T08:59:27Z</time>
      </trkpt>
      <trkpt lat="50.35352" lon="4.26603">
        <ele>223.2</ele>
        <time>2012-02-26T08:59:28Z</time>
      </trkpt>
      <trkpt lat="50.35348" lon="4.26604">
        <ele>222.8</ele>
        <time>2012-02-26T08:59:29Z</time>
      </trkpt>
      <trkpt lat="50.35343" lon="4.26606">
        <ele>222.5</ele>
        <time>2012-02-26T08:59:30Z</time>
      </trkpt>
      <trkpt lat="50.35334" lon="4.2661">
        <ele>222.5</ele>
        <time>2012-02-26T08:59:31Z</time>
      </trkpt>
      <trkpt lat="50.35329" lon="4.26613">
        <ele>222.4</ele>
        <time>2012-02-26T08:59:32Z</time>
      </trkpt>
      <trkpt lat="50.35321" lon="4.26614">
        <ele>222.2</ele>
        <time>2012-02-26T08:59:34Z</time>
      </trkpt>
      <trkpt lat="50.35315" lon="4.26618">
        <ele>222.8</ele>
        <time>2012-02-26T08:59:35Z</time>
      </trkpt>
      <trkpt lat="50.3531" lon="4.2662">
        <ele>222.7</ele>
        <time>2012-02-26T08:59:36Z</time>
      </trkpt>
      <trkpt lat="50.35305" lon="4.26624">
        <ele>222.8</ele>
        <time>2012-02-26T08:59:37Z</time>
      </trkpt>
      <trkpt lat="50.35296" lon="4.26628">
        <ele>222</ele>
        <time>2012-02-26T08:59:39Z</time>
      </trkpt>
      <trkpt lat="50.35292" lon="4.26631">
        <ele>221.6</ele>
        <time>2012-02-26T08:59:40Z</time>
      </trkpt>
      <trkpt lat="50.35287" lon="4.26634">
        <ele>221.1</ele>
        <time>2012-02-26T08:59:41Z</time>
      </trkpt>
      <trkpt lat="50.35282" lon="4.26637">
        <ele>221.1</ele>
        <time>2012-02-26T08:59:42Z</time>
      </trkpt>
      <trkpt lat="50.35274" lon="4.26642">
        <ele>221.6</ele>
        <time>2012-02-26T08:59:44Z</time>
      </trkpt>
      <trkpt lat="50.3527" lon="4.26644">
        <ele>221.7</ele>
        <time>2012-02-26T08:59:45Z</time>
      </trkpt>
      <trkpt lat="50.35265" lon="4.26647">
        <ele>221.2</ele>
        <time>2012-02-26T08:59:46Z</time>
      </trkpt>
      <trkpt lat="50.3526" lon="4.2665">
        <ele>220.1</ele>
        <time>2012-02-26T08:59:47Z</time>
      </trkpt>
      <trkpt lat="50.35255" lon="4.26651">
        <ele>220.3</ele>
        <time>2012-02-26T08:59:48Z</time>
      </trkpt>
      <trkpt lat="50.35248" lon="4.26652">
        <ele>220.3</ele>
        <time>2012-02-26T08:59:50Z</time>
      </trkpt>
      <trkpt lat="50.35243" lon="4.26647">
        <ele>219.6</ele>
        <time>2012-02-26T08:59:52Z</time>
      </trkpt>
      <trkpt lat="50.35247" lon="4.26641">
        <ele>220</ele>
        <time>2012-02-26T08:59:55Z</time>
      </trkpt>
      <trkpt lat="50.35251" lon="4.26637">
        <ele>220.9</ele>
        <time>2012-02-26T09:00:00Z</time>
      </trkpt>
      <trkpt lat="50.35255" lon="4.26633">
        <ele>221.2</ele>
        <time>2012-02-26T09:00:07Z</time>
      </trkpt>
      <trkpt lat="50.3525" lon="4.26633">
        <ele>223.3</ele>
        <time>2012-02-26T09:00:38Z</time>
      </trkpt>
      <trkpt lat="50.35246" lon="4.26638">
        <ele>223.1</ele>
        <time>2012-02-26T09:00:46Z</time>
      </trkpt>
      <trkpt lat="50.35248" lon="4.2663">
        <ele>224.1</ele>
        <time>2012-02-26T09:01:06Z</time>
      </trkpt>
      <trkpt lat="50.35249" lon="4.26623">
        <ele>220.9</ele>
        <time>2012-02-26T09:01:15Z</time>
      </trkpt>
      <trkpt lat="50.35252" lon="4.26616">
        <ele>220</ele>
        <time>2012-02-26T09:01:21Z</time>
      </trkpt>
      <trkpt lat="50.35252" lon="4.26609">
        <ele>218.4</ele>
        <time>2012-02-26T09:01:26Z</time>
      </trkpt>
      <trkpt lat="50.35248" lon="4.26607">
        <ele>209.2</ele>
        <time>2012-02-26T09:01:39Z</time>
      </trkpt>
      <trkpt lat="50.35244" lon="4.26599">
        <ele>208.6</ele>
        <time>2012-02-26T09:01:43Z</time>
      </trkpt>
      <trkpt lat="50.35241" lon="4.26594">
        <ele>210.1</ele>
        <time>2012-02-26T09:01:47Z</time>
      </trkpt>
      <trkpt lat="50.35239" lon="4.26587">
        <ele>213.4</ele>
        <time>2012-02-26T09:02:13Z</time>
      </trkpt>
      <trkpt lat="50.35235" lon="4.26582">
        <ele>208</ele>
        <time>2012-02-26T09:02:26Z</time>
      </trkpt>
      <trkpt lat="50.35231" lon="4.26578">
        <ele>209.1</ele>
        <time>2012-02-26T09:02:51Z</time>
      </trkpt>
      <trkpt lat="50.35227" lon="4.2658">
        <ele>214.6</ele>
        <time>2012-02-26T09:03:53Z</time>
      </trkpt>
      <trkpt lat="50.35232" lon="4.26582">
        <ele>216.1</ele>
        <time>2012-02-26T09:04:47Z</time>
      </trkpt>
      <trkpt lat="50.35236" lon="4.26583">
        <ele>214.9</ele>
        <time>2012-02-26T09:05:37Z</time>
      </trkpt>
      <trkpt lat="50.35239" lon="4.26589">
        <ele>213.8</ele>
        <time>2012-02-26T09:05:40Z</time>
      </trkpt>
      <trkpt lat="50.35244" lon="4.26592">
        <ele>215</ele>
        <time>2012-02-26T09:06:16Z</time>
      </trkpt>
      <trkpt lat="50.35241" lon="4.26584">
        <ele>213.8</ele>
        <time>2012-02-26T09:09:18Z</time>
      </trkpt>
      <trkpt lat="50.35236" lon="4.2658">
        <ele>215.2</ele>
        <time>2012-02-26T09:09:23Z</time>
      </trkpt>
      <trkpt lat="50.35232" lon="4.26579">
        <ele>216.6</ele>
        <time>2012-02-26T09:09:43Z</time>
      </trkpt>
      <trkpt lat="50.35228" lon="4.26584">
        <ele>215.7</ele>
        <time>2012-02-26T09:09:49Z</time>
      </trkpt>
      <trkpt lat="50.35232" lon="4.26586">
        <ele>216.6</ele>
        <time>2012-02-26T09:10:01Z</time>
      </trkpt>
      <trkpt lat="50.35237" lon="4.26587">
        <ele>216.6</ele>
        <time>2012-02-26T09:10:05Z</time>
      </trkpt>
      <trkpt lat="50.35242" lon="4.26591">
        <ele>218.2</ele>
        <time>2012-02-26T09:10:12Z</time>
      </trkpt>
      <trkpt lat="50.35247" lon="4.26592">
        <ele>217</ele>
        <time>2012-02-26T09:10:17Z</time>
      </trkpt>
      <trkpt lat="50.35248" lon="4.266">
        <ele>218.9</ele>
        <time>2012-02-26T09:10:22Z</time>
      </trkpt>
      <trkpt lat="50.35247" lon="4.26607">
        <ele>219.1</ele>
        <time>2012-02-26T09:10:25Z</time>
      </trkpt>
      <trkpt lat="50.35245" lon="4.26615">
        <ele>220.5</ele>
        <time>2012-02-26T09:10:30Z</time>
      </trkpt>
      <trkpt lat="50.35246" lon="4.26621">
        <ele>215.4</ele>
        <time>2012-02-26T09:10:52Z</time>
      </trkpt>
      <trkpt lat="50.35247" lon="4.26629">
        <ele>213.2</ele>
        <time>2012-02-26T09:11:09Z</time>
      </trkpt>
      <trkpt lat="50.35244" lon="4.26635">
        <ele>214.8</ele>
        <time>2012-02-26T09:11:14Z</time>
      </trkpt>
      <trkpt lat="50.3524" lon="4.26631">
        <ele>208.9</ele>
        <time>2012-02-26T09:11:18Z</time>
      </trkpt>
      <trkpt lat="50.35242" lon="4.26637">
        <ele>210.6</ele>
        <time>2012-02-26T09:11:41Z</time>
      </trkpt>
      <trkpt lat="50.35246" lon="4.26633">
        <ele>215.7</ele>
        <time>2012-02-26T09:11:57Z</time>
      </trkpt>
    </trkseg>
  </trk>
</gpx>